<?xml version="1.0" encoding="UTF-8"?><gpx xmlns="http://www.topografix.com/GPX/1/1" version="1.1" creator="iOrient"><trk><name>Весло и курвиметр 2024</name><trkseg><trkpt lat="56.1081312" lon="44.4784017"><time>2024-07-07T07:56:07.317</time></trkpt><trkpt lat="56.1081526" lon="44.4784010"><time>2024-07-07T07:56:08.430</time></trkpt><trkpt lat="56.1082037" lon="44.4784278"><time>2024-07-07T07:56:14.313</time></trkpt><trkpt lat="56.1082421" lon="44.4783720"><time>2024-07-07T07:56:19.333</time></trkpt><trkpt lat="56.1082820" lon="44.4783209"><time>2024-07-07T07:56:24.317</time></trkpt><trkpt lat="56.1083160" lon="44.4782511"><time>2024-07-07T07:56:31.313</time></trkpt><trkpt lat="56.1083657" lon="44.4782184"><time>2024-07-07T07:56:53.287</time></trkpt><trkpt lat="56.1083941" lon="44.4781540"><time>2024-07-07T07:56:58.330</time></trkpt><trkpt lat="56.1084164" lon="44.4780780"><time>2024-07-07T07:57:04.327</time></trkpt><trkpt lat="56.1083955" lon="44.4781574"><time>2024-07-07T07:57:59.330</time></trkpt><trkpt lat="56.1083515" lon="44.4781963"><time>2024-07-07T07:58:03.323</time></trkpt><trkpt lat="56.1083132" lon="44.4782526"><time>2024-07-07T07:58:08.387</time></trkpt><trkpt lat="56.1082876" lon="44.4783209"><time>2024-07-07T07:58:13.323</time></trkpt><trkpt lat="56.1082417" lon="44.4783199"><time>2024-07-07T07:58:24.290</time></trkpt><trkpt lat="56.1082009" lon="44.4783690"><time>2024-07-07T07:58:28.327</time></trkpt><trkpt lat="56.1081554" lon="44.4784036"><time>2024-07-07T07:58:32.393</time></trkpt><trkpt lat="56.1081097" lon="44.4783716"><time>2024-07-07T07:58:37.317</time></trkpt><trkpt lat="56.1080698" lon="44.4783269"><time>2024-07-07T07:58:42.323</time></trkpt><trkpt lat="56.1080210" lon="44.4783296"><time>2024-07-07T07:58:46.310</time></trkpt><trkpt lat="56.1079730" lon="44.4783260"><time>2024-07-07T07:58:50.317</time></trkpt><trkpt lat="56.1080038" lon="44.4782517"><time>2024-07-07T07:59:02.320</time></trkpt><trkpt lat="56.1080471" lon="44.4782031"><time>2024-07-07T07:59:07.320</time></trkpt><trkpt lat="56.1081023" lon="44.4782275"><time>2024-07-07T07:59:12.327</time></trkpt><trkpt lat="56.1081483" lon="44.4782687"><time>2024-07-07T07:59:17.383</time></trkpt><trkpt lat="56.1081961" lon="44.4783021"><time>2024-07-07T07:59:22.333</time></trkpt><trkpt lat="56.1082483" lon="44.4782936"><time>2024-07-07T07:59:26.320</time></trkpt><trkpt lat="56.1082884" lon="44.4782514"><time>2024-07-07T07:59:30.323</time></trkpt><trkpt lat="56.1083264" lon="44.4782080"><time>2024-07-07T07:59:34.323</time></trkpt><trkpt lat="56.1083654" lon="44.4781516"><time>2024-07-07T07:59:40.333</time></trkpt><trkpt lat="56.1084028" lon="44.4780958"><time>2024-07-07T07:59:45.320</time></trkpt><trkpt lat="56.1084192" lon="44.4780109"><time>2024-07-07T08:00:06.330</time></trkpt><trkpt lat="56.1084233" lon="44.4779268"><time>2024-07-07T08:00:11.323</time></trkpt><trkpt lat="56.1084354" lon="44.4778418"><time>2024-07-07T08:00:16.330</time></trkpt><trkpt lat="56.1084748" lon="44.4778940"><time>2024-07-07T08:00:46.317</time></trkpt><trkpt lat="56.1084981" lon="44.4778205"><time>2024-07-07T08:01:23.320</time></trkpt><trkpt lat="56.1084925" lon="44.4777285"><time>2024-07-07T08:01:30.317</time></trkpt><trkpt lat="56.1084683" lon="44.4778020"><time>2024-07-07T08:02:01.313</time></trkpt><trkpt lat="56.1084855" lon="44.4777030"><time>2024-07-07T08:02:26.327</time></trkpt><trkpt lat="56.1084877" lon="44.4776224"><time>2024-07-07T08:02:29.307</time></trkpt><trkpt lat="56.1084860" lon="44.4775265"><time>2024-07-07T08:02:33.383</time></trkpt><trkpt lat="56.1084701" lon="44.4774350"><time>2024-07-07T08:02:37.337</time></trkpt><trkpt lat="56.1084609" lon="44.4774043"><time>2024-07-07T08:02:38.463</time></trkpt><trkpt lat="56.1084380" lon="44.4773277"><time>2024-07-07T08:02:48.300</time></trkpt><trkpt lat="56.1084088" lon="44.4772420"><time>2024-07-07T08:02:51.300</time></trkpt><trkpt lat="56.1083990" lon="44.4771571"><time>2024-07-07T08:02:55.297</time></trkpt><trkpt lat="56.1084106" lon="44.4770560"><time>2024-07-07T08:02:59.300</time></trkpt><trkpt lat="56.1084325" lon="44.4769680"><time>2024-07-07T08:03:02.303</time></trkpt><trkpt lat="56.1084710" lon="44.4768867"><time>2024-07-07T08:03:06.293</time></trkpt><trkpt lat="56.1084856" lon="44.4768013"><time>2024-07-07T08:03:09.293</time></trkpt><trkpt lat="56.1084914" lon="44.4767086"><time>2024-07-07T08:03:12.297</time></trkpt><trkpt lat="56.1085049" lon="44.4766291"><time>2024-07-07T08:03:15.397</time></trkpt><trkpt lat="56.1085103" lon="44.4766258"><time>2024-07-07T08:03:16.527</time></trkpt><trkpt lat="56.1085305" lon="44.4765374"><time>2024-07-07T08:03:19.297</time></trkpt><trkpt lat="56.1085526" lon="44.4764536"><time>2024-07-07T08:03:22.300</time></trkpt><trkpt lat="56.1085761" lon="44.4763682"><time>2024-07-07T08:03:25.290</time></trkpt><trkpt lat="56.1085998" lon="44.4762911"><time>2024-07-07T08:03:28.300</time></trkpt><trkpt lat="56.1086160" lon="44.4762076"><time>2024-07-07T08:03:31.300</time></trkpt><trkpt lat="56.1086362" lon="44.4761238"><time>2024-07-07T08:03:34.310</time></trkpt><trkpt lat="56.1086595" lon="44.4760519"><time>2024-07-07T08:03:37.303</time></trkpt><trkpt lat="56.1086849" lon="44.4759620"><time>2024-07-07T08:03:41.297</time></trkpt><trkpt lat="56.1087078" lon="44.4758634"><time>2024-07-07T08:03:45.293</time></trkpt><trkpt lat="56.1087261" lon="44.4757767"><time>2024-07-07T08:03:48.373</time></trkpt><trkpt lat="56.1087500" lon="44.4756979"><time>2024-07-07T08:03:51.303</time></trkpt><trkpt lat="56.1087696" lon="44.4756241"><time>2024-07-07T08:03:54.307</time></trkpt><trkpt lat="56.1087860" lon="44.4755445"><time>2024-07-07T08:03:57.297</time></trkpt><trkpt lat="56.1088106" lon="44.4754669"><time>2024-07-07T08:04:00.297</time></trkpt><trkpt lat="56.1088405" lon="44.4753900"><time>2024-07-07T08:04:03.297</time></trkpt><trkpt lat="56.1088648" lon="44.4753183"><time>2024-07-07T08:04:06.303</time></trkpt><trkpt lat="56.1088827" lon="44.4752363"><time>2024-07-07T08:04:09.300</time></trkpt><trkpt lat="56.1089047" lon="44.4751537"><time>2024-07-07T08:04:12.300</time></trkpt><trkpt lat="56.1089277" lon="44.4750698"><time>2024-07-07T08:04:15.320</time></trkpt><trkpt lat="56.1089233" lon="44.4750464"><time>2024-07-07T08:04:16.447</time></trkpt><trkpt lat="56.1089448" lon="44.4749610"><time>2024-07-07T08:04:19.297</time></trkpt><trkpt lat="56.1089668" lon="44.4748781"><time>2024-07-07T08:04:22.297</time></trkpt><trkpt lat="56.1089915" lon="44.4748059"><time>2024-07-07T08:04:25.297</time></trkpt><trkpt lat="56.1090130" lon="44.4747325"><time>2024-07-07T08:04:28.297</time></trkpt><trkpt lat="56.1090408" lon="44.4746548"><time>2024-07-07T08:04:31.303</time></trkpt><trkpt lat="56.1090592" lon="44.4745704"><time>2024-07-07T08:04:34.300</time></trkpt><trkpt lat="56.1090741" lon="44.4744859"><time>2024-07-07T08:04:37.303</time></trkpt><trkpt lat="56.1090934" lon="44.4743925"><time>2024-07-07T08:04:40.307</time></trkpt><trkpt lat="56.1091194" lon="44.4743023"><time>2024-07-07T08:04:43.300</time></trkpt><trkpt lat="56.1091454" lon="44.4742193"><time>2024-07-07T08:04:46.297</time></trkpt><trkpt lat="56.1091678" lon="44.4741447"><time>2024-07-07T08:04:49.300</time></trkpt><trkpt lat="56.1091877" lon="44.4740662"><time>2024-07-07T08:04:52.377</time></trkpt><trkpt lat="56.1092113" lon="44.4739867"><time>2024-07-07T08:04:55.297</time></trkpt><trkpt lat="56.1092468" lon="44.4739139"><time>2024-07-07T08:04:59.300</time></trkpt><trkpt lat="56.1092710" lon="44.4738428"><time>2024-07-07T08:05:03.293</time></trkpt><trkpt lat="56.1092980" lon="44.4737612"><time>2024-07-07T08:05:08.297</time></trkpt><trkpt lat="56.1093280" lon="44.4736869"><time>2024-07-07T08:05:14.300</time></trkpt><trkpt lat="56.1093531" lon="44.4736041"><time>2024-07-07T08:05:19.300</time></trkpt><trkpt lat="56.1093695" lon="44.4735286"><time>2024-07-07T08:05:22.363</time></trkpt><trkpt lat="56.1093914" lon="44.4734322"><time>2024-07-07T08:05:26.300</time></trkpt><trkpt lat="56.1094176" lon="44.4733506"><time>2024-07-07T08:05:30.287</time></trkpt><trkpt lat="56.1094344" lon="44.4732731"><time>2024-07-07T08:05:33.297</time></trkpt><trkpt lat="56.1094558" lon="44.4731899"><time>2024-07-07T08:05:36.303</time></trkpt><trkpt lat="56.1094881" lon="44.4731021"><time>2024-07-07T08:05:39.377</time></trkpt><trkpt lat="56.1095282" lon="44.4730297"><time>2024-07-07T08:05:42.290</time></trkpt><trkpt lat="56.1095557" lon="44.4729582"><time>2024-07-07T08:05:45.393</time></trkpt><trkpt lat="56.1095840" lon="44.4728950"><time>2024-07-07T08:05:48.287</time></trkpt><trkpt lat="56.1096090" lon="44.4727976"><time>2024-07-07T08:05:52.307</time></trkpt><trkpt lat="56.1096312" lon="44.4727131"><time>2024-07-07T08:05:55.290</time></trkpt><trkpt lat="56.1096566" lon="44.4726278"><time>2024-07-07T08:05:58.293</time></trkpt><trkpt lat="56.1096883" lon="44.4725501"><time>2024-07-07T08:06:01.290</time></trkpt><trkpt lat="56.1097207" lon="44.4724826"><time>2024-07-07T08:06:04.373</time></trkpt><trkpt lat="56.1097508" lon="44.4724073"><time>2024-07-07T08:06:07.300</time></trkpt><trkpt lat="56.1097719" lon="44.4723121"><time>2024-07-07T08:06:10.293</time></trkpt><trkpt lat="56.1097973" lon="44.4722141"><time>2024-07-07T08:06:13.300</time></trkpt><trkpt lat="56.1098091" lon="44.4721066"><time>2024-07-07T08:06:16.297</time></trkpt><trkpt lat="56.1098274" lon="44.4720094"><time>2024-07-07T08:06:19.373</time></trkpt><trkpt lat="56.1098516" lon="44.4719115"><time>2024-07-07T08:06:22.297</time></trkpt><trkpt lat="56.1098855" lon="44.4718325"><time>2024-07-07T08:06:25.297</time></trkpt><trkpt lat="56.1099200" lon="44.4717725"><time>2024-07-07T08:06:28.297</time></trkpt><trkpt lat="56.1099545" lon="44.4716926"><time>2024-07-07T08:06:32.300</time></trkpt><trkpt lat="56.1099839" lon="44.4715994"><time>2024-07-07T08:06:36.300</time></trkpt><trkpt lat="56.1099995" lon="44.4715182"><time>2024-07-07T08:06:39.307</time></trkpt><trkpt lat="56.1100212" lon="44.4714371"><time>2024-07-07T08:06:42.297</time></trkpt><trkpt lat="56.1100508" lon="44.4713590"><time>2024-07-07T08:06:45.297</time></trkpt><trkpt lat="56.1100778" lon="44.4712871"><time>2024-07-07T08:06:48.303</time></trkpt><trkpt lat="56.1101157" lon="44.4712278"><time>2024-07-07T08:06:51.377</time></trkpt><trkpt lat="56.1101405" lon="44.4711531"><time>2024-07-07T08:06:54.307</time></trkpt><trkpt lat="56.1101680" lon="44.4710879"><time>2024-07-07T08:06:57.297</time></trkpt><trkpt lat="56.1101911" lon="44.4710152"><time>2024-07-07T08:07:00.390</time></trkpt><trkpt lat="56.1102144" lon="44.4709218"><time>2024-07-07T08:07:04.300</time></trkpt><trkpt lat="56.1102357" lon="44.4708303"><time>2024-07-07T08:07:08.307</time></trkpt><trkpt lat="56.1102662" lon="44.4707482"><time>2024-07-07T08:07:12.297</time></trkpt><trkpt lat="56.1102967" lon="44.4706617"><time>2024-07-07T08:07:16.290</time></trkpt><trkpt lat="56.1103094" lon="44.4705784"><time>2024-07-07T08:07:19.297</time></trkpt><trkpt lat="56.1103252" lon="44.4704991"><time>2024-07-07T08:07:22.297</time></trkpt><trkpt lat="56.1103510" lon="44.4704238"><time>2024-07-07T08:07:25.303</time></trkpt><trkpt lat="56.1103803" lon="44.4703546"><time>2024-07-07T08:07:28.313</time></trkpt><trkpt lat="56.1103830" lon="44.4703357"><time>2024-07-07T08:07:29.433</time></trkpt><trkpt lat="56.1104062" lon="44.4702646"><time>2024-07-07T08:07:31.287</time></trkpt><trkpt lat="56.1104383" lon="44.4701901"><time>2024-07-07T08:07:34.377</time></trkpt><trkpt lat="56.1104669" lon="44.4701118"><time>2024-07-07T08:07:37.297</time></trkpt><trkpt lat="56.1104913" lon="44.4700394"><time>2024-07-07T08:07:40.297</time></trkpt><trkpt lat="56.1105138" lon="44.4699421"><time>2024-07-07T08:07:44.293</time></trkpt><trkpt lat="56.1105382" lon="44.4698685"><time>2024-07-07T08:07:47.310</time></trkpt><trkpt lat="56.1105668" lon="44.4698043"><time>2024-07-07T08:07:50.297</time></trkpt><trkpt lat="56.1106083" lon="44.4697351"><time>2024-07-07T08:07:54.290</time></trkpt><trkpt lat="56.1106471" lon="44.4696577"><time>2024-07-07T08:07:59.293</time></trkpt><trkpt lat="56.1106700" lon="44.4695769"><time>2024-07-07T08:08:03.307</time></trkpt><trkpt lat="56.1107029" lon="44.4694948"><time>2024-07-07T08:08:07.303</time></trkpt><trkpt lat="56.1107348" lon="44.4694115"><time>2024-07-07T08:08:11.297</time></trkpt><trkpt lat="56.1107619" lon="44.4693437"><time>2024-07-07T08:08:14.297</time></trkpt><trkpt lat="56.1107890" lon="44.4692729"><time>2024-07-07T08:08:17.290</time></trkpt><trkpt lat="56.1108134" lon="44.4691749"><time>2024-07-07T08:08:20.290</time></trkpt><trkpt lat="56.1108303" lon="44.4690921"><time>2024-07-07T08:08:23.290</time></trkpt><trkpt lat="56.1108516" lon="44.4689934"><time>2024-07-07T08:08:27.377</time></trkpt><trkpt lat="56.1108693" lon="44.4689127"><time>2024-07-07T08:08:30.297</time></trkpt><trkpt lat="56.1108851" lon="44.4688301"><time>2024-07-07T08:08:33.293</time></trkpt><trkpt lat="56.1109023" lon="44.4687427"><time>2024-07-07T08:08:36.297</time></trkpt><trkpt lat="56.1109241" lon="44.4686449"><time>2024-07-07T08:08:40.303</time></trkpt><trkpt lat="56.1109448" lon="44.4685621"><time>2024-07-07T08:08:43.297</time></trkpt><trkpt lat="56.1109634" lon="44.4684838"><time>2024-07-07T08:08:46.370</time></trkpt><trkpt lat="56.1109877" lon="44.4684042"><time>2024-07-07T08:08:49.297</time></trkpt><trkpt lat="56.1110103" lon="44.4683334"><time>2024-07-07T08:08:52.297</time></trkpt><trkpt lat="56.1110299" lon="44.4682528"><time>2024-07-07T08:08:55.377</time></trkpt><trkpt lat="56.1110597" lon="44.4681812"><time>2024-07-07T08:08:58.297</time></trkpt><trkpt lat="56.1110944" lon="44.4681130"><time>2024-07-07T08:09:01.293</time></trkpt><trkpt lat="56.1111361" lon="44.4680587"><time>2024-07-07T08:09:04.293</time></trkpt><trkpt lat="56.1111776" lon="44.4679998"><time>2024-07-07T08:09:08.313</time></trkpt><trkpt lat="56.1112133" lon="44.4679152"><time>2024-07-07T08:09:12.300</time></trkpt><trkpt lat="56.1112372" lon="44.4678444"><time>2024-07-07T08:09:15.293</time></trkpt><trkpt lat="56.1112605" lon="44.4677519"><time>2024-07-07T08:09:19.307</time></trkpt><trkpt lat="56.1112979" lon="44.4676976"><time>2024-07-07T08:09:23.297</time></trkpt><trkpt lat="56.1113327" lon="44.4676101"><time>2024-07-07T08:09:27.287</time></trkpt><trkpt lat="56.1113619" lon="44.4675481"><time>2024-07-07T08:09:30.293</time></trkpt><trkpt lat="56.1113852" lon="44.4674733"><time>2024-07-07T08:09:33.373</time></trkpt><trkpt lat="56.1114139" lon="44.4673981"><time>2024-07-07T08:09:36.297</time></trkpt><trkpt lat="56.1114460" lon="44.4673260"><time>2024-07-07T08:09:39.303</time></trkpt><trkpt lat="56.1114736" lon="44.4672594"><time>2024-07-07T08:09:42.370</time></trkpt><trkpt lat="56.1115051" lon="44.4671878"><time>2024-07-07T08:09:45.300</time></trkpt><trkpt lat="56.1115271" lon="44.4671051"><time>2024-07-07T08:09:48.297</time></trkpt><trkpt lat="56.1115558" lon="44.4670314"><time>2024-07-07T08:09:51.293</time></trkpt><trkpt lat="56.1115946" lon="44.4669509"><time>2024-07-07T08:09:55.377</time></trkpt><trkpt lat="56.1116316" lon="44.4668744"><time>2024-07-07T08:10:00.290</time></trkpt><trkpt lat="56.1116720" lon="44.4668044"><time>2024-07-07T08:10:04.373</time></trkpt><trkpt lat="56.1117010" lon="44.4667385"><time>2024-07-07T08:10:08.290</time></trkpt><trkpt lat="56.1117315" lon="44.4666505"><time>2024-07-07T08:10:12.297</time></trkpt><trkpt lat="56.1117742" lon="44.4665861"><time>2024-07-07T08:10:16.293</time></trkpt><trkpt lat="56.1118154" lon="44.4665241"><time>2024-07-07T08:10:20.320</time></trkpt><trkpt lat="56.1118241" lon="44.4665200"><time>2024-07-07T08:10:21.440</time></trkpt><trkpt lat="56.1118479" lon="44.4664432"><time>2024-07-07T08:10:24.293</time></trkpt><trkpt lat="56.1118679" lon="44.4663504"><time>2024-07-07T08:10:28.287</time></trkpt><trkpt lat="56.1118903" lon="44.4662777"><time>2024-07-07T08:10:31.303</time></trkpt><trkpt lat="56.1119193" lon="44.4661962"><time>2024-07-07T08:10:35.297</time></trkpt><trkpt lat="56.1119410" lon="44.4661226"><time>2024-07-07T08:10:38.300</time></trkpt><trkpt lat="56.1119682" lon="44.4660294"><time>2024-07-07T08:10:42.397</time></trkpt><trkpt lat="56.1120008" lon="44.4659496"><time>2024-07-07T08:10:46.370</time></trkpt><trkpt lat="56.1120423" lon="44.4658770"><time>2024-07-07T08:10:50.287</time></trkpt><trkpt lat="56.1120787" lon="44.4658092"><time>2024-07-07T08:10:54.363</time></trkpt><trkpt lat="56.1121169" lon="44.4657407"><time>2024-07-07T08:10:58.297</time></trkpt><trkpt lat="56.1121451" lon="44.4656773"><time>2024-07-07T08:11:01.297</time></trkpt><trkpt lat="56.1121720" lon="44.4656067"><time>2024-07-07T08:11:04.370</time></trkpt><trkpt lat="56.1122027" lon="44.4655184"><time>2024-07-07T08:11:08.377</time></trkpt><trkpt lat="56.1122365" lon="44.4654585"><time>2024-07-07T08:11:11.297</time></trkpt><trkpt lat="56.1122720" lon="44.4653928"><time>2024-07-07T08:11:15.293</time></trkpt><trkpt lat="56.1123004" lon="44.4653163"><time>2024-07-07T08:11:19.297</time></trkpt><trkpt lat="56.1123286" lon="44.4652501"><time>2024-07-07T08:11:23.293</time></trkpt><trkpt lat="56.1123642" lon="44.4651855"><time>2024-07-07T08:11:27.290</time></trkpt><trkpt lat="56.1124014" lon="44.4651237"><time>2024-07-07T08:11:31.307</time></trkpt><trkpt lat="56.1124321" lon="44.4650613"><time>2024-07-07T08:11:34.297</time></trkpt><trkpt lat="56.1124646" lon="44.4650033"><time>2024-07-07T08:11:37.290</time></trkpt><trkpt lat="56.1124923" lon="44.4649355"><time>2024-07-07T08:11:40.290</time></trkpt><trkpt lat="56.1125250" lon="44.4648556"><time>2024-07-07T08:11:44.307</time></trkpt><trkpt lat="56.1125662" lon="44.4647874"><time>2024-07-07T08:11:48.370</time></trkpt><trkpt lat="56.1126010" lon="44.4647288"><time>2024-07-07T08:11:51.287</time></trkpt><trkpt lat="56.1126313" lon="44.4646456"><time>2024-07-07T08:11:55.287</time></trkpt><trkpt lat="56.1126488" lon="44.4645654"><time>2024-07-07T08:11:59.287</time></trkpt><trkpt lat="56.1126708" lon="44.4644849"><time>2024-07-07T08:12:04.300</time></trkpt><trkpt lat="56.1126996" lon="44.4644187"><time>2024-07-07T08:12:08.283</time></trkpt><trkpt lat="56.1127357" lon="44.4643427"><time>2024-07-07T08:12:12.297</time></trkpt><trkpt lat="56.1127804" lon="44.4642716"><time>2024-07-07T08:12:16.297</time></trkpt><trkpt lat="56.1128181" lon="44.4642167"><time>2024-07-07T08:12:20.300</time></trkpt><trkpt lat="56.1128529" lon="44.4641558"><time>2024-07-07T08:12:24.293</time></trkpt><trkpt lat="56.1128882" lon="44.4640877"><time>2024-07-07T08:12:28.290</time></trkpt><trkpt lat="56.1129150" lon="44.4640227"><time>2024-07-07T08:12:31.293</time></trkpt><trkpt lat="56.1129469" lon="44.4639510"><time>2024-07-07T08:12:34.293</time></trkpt><trkpt lat="56.1129764" lon="44.4638843"><time>2024-07-07T08:12:37.300</time></trkpt><trkpt lat="56.1130074" lon="44.4638059"><time>2024-07-07T08:12:41.297</time></trkpt><trkpt lat="56.1130481" lon="44.4637363"><time>2024-07-07T08:12:45.300</time></trkpt><trkpt lat="56.1130801" lon="44.4636717"><time>2024-07-07T08:12:48.303</time></trkpt><trkpt lat="56.1131158" lon="44.4636093"><time>2024-07-07T08:12:51.293</time></trkpt><trkpt lat="56.1131504" lon="44.4635446"><time>2024-07-07T08:12:54.297</time></trkpt><trkpt lat="56.1131812" lon="44.4634753"><time>2024-07-07T08:12:57.293</time></trkpt><trkpt lat="56.1132124" lon="44.4634069"><time>2024-07-07T08:13:00.290</time></trkpt><trkpt lat="56.1132489" lon="44.4633444"><time>2024-07-07T08:13:03.373</time></trkpt><trkpt lat="56.1132851" lon="44.4632722"><time>2024-07-07T08:13:07.380</time></trkpt><trkpt lat="56.1133175" lon="44.4631923"><time>2024-07-07T08:13:11.293</time></trkpt><trkpt lat="56.1133534" lon="44.4631166"><time>2024-07-07T08:13:15.373</time></trkpt><trkpt lat="56.1133962" lon="44.4630470"><time>2024-07-07T08:13:19.283</time></trkpt><trkpt lat="56.1134349" lon="44.4629792"><time>2024-07-07T08:13:22.287</time></trkpt><trkpt lat="56.1134617" lon="44.4629083"><time>2024-07-07T08:13:25.380</time></trkpt><trkpt lat="56.1134845" lon="44.4628335"><time>2024-07-07T08:13:28.303</time></trkpt><trkpt lat="56.1135070" lon="44.4627362"><time>2024-07-07T08:13:32.317</time></trkpt><trkpt lat="56.1134990" lon="44.4627213"><time>2024-07-07T08:13:33.433</time></trkpt><trkpt lat="56.1135327" lon="44.4626382"><time>2024-07-07T08:13:36.293</time></trkpt><trkpt lat="56.1135805" lon="44.4625745"><time>2024-07-07T08:13:40.290</time></trkpt><trkpt lat="56.1136023" lon="44.4625033"><time>2024-07-07T08:13:43.293</time></trkpt><trkpt lat="56.1136304" lon="44.4624348"><time>2024-07-07T08:13:46.297</time></trkpt><trkpt lat="56.1136665" lon="44.4623589"><time>2024-07-07T08:13:49.293</time></trkpt><trkpt lat="56.1136926" lon="44.4622912"><time>2024-07-07T08:13:52.290</time></trkpt><trkpt lat="56.1137264" lon="44.4622249"><time>2024-07-07T08:13:55.303</time></trkpt><trkpt lat="56.1137673" lon="44.4621542"><time>2024-07-07T08:13:58.300</time></trkpt><trkpt lat="56.1137979" lon="44.4620939"><time>2024-07-07T08:14:01.307</time></trkpt><trkpt lat="56.1138308" lon="44.4620212"><time>2024-07-07T08:14:04.287</time></trkpt><trkpt lat="56.1138618" lon="44.4619574"><time>2024-07-07T08:14:07.283</time></trkpt><trkpt lat="56.1138991" lon="44.4618928"><time>2024-07-07T08:14:10.297</time></trkpt><trkpt lat="56.1139421" lon="44.4618354"><time>2024-07-07T08:14:13.300</time></trkpt><trkpt lat="56.1139802" lon="44.4617745"><time>2024-07-07T08:14:16.367</time></trkpt><trkpt lat="56.1140135" lon="44.4617184"><time>2024-07-07T08:14:19.297</time></trkpt><trkpt lat="56.1140454" lon="44.4616572"><time>2024-07-07T08:14:22.287</time></trkpt><trkpt lat="56.1140824" lon="44.4616063"><time>2024-07-07T08:14:25.353</time></trkpt><trkpt lat="56.1141064" lon="44.4616044"><time>2024-07-07T08:14:26.463</time></trkpt><trkpt lat="56.1141376" lon="44.4615169"><time>2024-07-07T08:14:29.287</time></trkpt><trkpt lat="56.1141842" lon="44.4614515"><time>2024-07-07T08:14:33.297</time></trkpt><trkpt lat="56.1142205" lon="44.4614039"><time>2024-07-07T08:14:36.290</time></trkpt><trkpt lat="56.1142561" lon="44.4613164"><time>2024-07-07T08:14:40.297</time></trkpt><trkpt lat="56.1142809" lon="44.4612361"><time>2024-07-07T08:14:43.297</time></trkpt><trkpt lat="56.1143087" lon="44.4611445"><time>2024-07-07T08:14:47.293</time></trkpt><trkpt lat="56.1143217" lon="44.4610518"><time>2024-07-07T08:14:51.297</time></trkpt><trkpt lat="56.1143193" lon="44.4609685"><time>2024-07-07T08:14:58.297</time></trkpt><trkpt lat="56.1143622" lon="44.4609227"><time>2024-07-07T08:15:03.320</time></trkpt><trkpt lat="56.1143746" lon="44.4609156"><time>2024-07-07T08:15:04.447</time></trkpt><trkpt lat="56.1144241" lon="44.4609052"><time>2024-07-07T08:15:08.373</time></trkpt><trkpt lat="56.1144690" lon="44.4608883"><time>2024-07-07T08:15:11.297</time></trkpt><trkpt lat="56.1145092" lon="44.4608490"><time>2024-07-07T08:15:14.297</time></trkpt><trkpt lat="56.1145404" lon="44.4607860"><time>2024-07-07T08:15:17.290</time></trkpt><trkpt lat="56.1145780" lon="44.4607043"><time>2024-07-07T08:15:21.297</time></trkpt><trkpt lat="56.1146255" lon="44.4606612"><time>2024-07-07T08:15:25.317</time></trkpt><trkpt lat="56.1146255" lon="44.4606612"><time>2024-07-07T08:15:25.370</time></trkpt><trkpt lat="56.1146748" lon="44.4606157"><time>2024-07-07T08:15:30.330</time></trkpt><trkpt lat="56.1146755" lon="44.4605980"><time>2024-07-07T08:15:31.457</time></trkpt><trkpt lat="56.1147075" lon="44.4605345"><time>2024-07-07T08:15:34.287</time></trkpt><trkpt lat="56.1147482" lon="44.4604543"><time>2024-07-07T08:15:38.297</time></trkpt><trkpt lat="56.1147884" lon="44.4603781"><time>2024-07-07T08:15:42.293</time></trkpt><trkpt lat="56.1148205" lon="44.4603190"><time>2024-07-07T08:15:45.293</time></trkpt><trkpt lat="56.1148622" lon="44.4602568"><time>2024-07-07T08:15:48.287</time></trkpt><trkpt lat="56.1149069" lon="44.4601996"><time>2024-07-07T08:15:51.293</time></trkpt><trkpt lat="56.1149500" lon="44.4601409"><time>2024-07-07T08:15:54.287</time></trkpt><trkpt lat="56.1149815" lon="44.4600668"><time>2024-07-07T08:15:57.293</time></trkpt><trkpt lat="56.1150048" lon="44.4599871"><time>2024-07-07T08:16:00.297</time></trkpt><trkpt lat="56.1150344" lon="44.4599018"><time>2024-07-07T08:16:04.293</time></trkpt><trkpt lat="56.1150714" lon="44.4598334"><time>2024-07-07T08:16:08.370</time></trkpt><trkpt lat="56.1151153" lon="44.4597919"><time>2024-07-07T08:16:12.360</time></trkpt><trkpt lat="56.1151714" lon="44.4597664"><time>2024-07-07T08:16:16.287</time></trkpt><trkpt lat="56.1152117" lon="44.4597234"><time>2024-07-07T08:16:19.293</time></trkpt><trkpt lat="56.1152536" lon="44.4596532"><time>2024-07-07T08:16:23.287</time></trkpt><trkpt lat="56.1152891" lon="44.4595808"><time>2024-07-07T08:16:27.290</time></trkpt><trkpt lat="56.1153160" lon="44.4594961"><time>2024-07-07T08:16:32.287</time></trkpt><trkpt lat="56.1153570" lon="44.4594358"><time>2024-07-07T08:16:36.287</time></trkpt><trkpt lat="56.1153933" lon="44.4593852"><time>2024-07-07T08:16:39.360</time></trkpt><trkpt lat="56.1154424" lon="44.4593435"><time>2024-07-07T08:16:42.287</time></trkpt><trkpt lat="56.1154787" lon="44.4592906"><time>2024-07-07T08:16:45.283</time></trkpt><trkpt lat="56.1155089" lon="44.4592307"><time>2024-07-07T08:16:49.283</time></trkpt><trkpt lat="56.1155517" lon="44.4591895"><time>2024-07-07T08:16:54.290</time></trkpt><trkpt lat="56.1155731" lon="44.4591129"><time>2024-07-07T08:17:01.290</time></trkpt><trkpt lat="56.1156088" lon="44.4590435"><time>2024-07-07T08:17:06.290</time></trkpt><trkpt lat="56.1156478" lon="44.4589923"><time>2024-07-07T08:17:10.370</time></trkpt><trkpt lat="56.1156951" lon="44.4589436"><time>2024-07-07T08:17:14.290</time></trkpt><trkpt lat="56.1157335" lon="44.4588964"><time>2024-07-07T08:17:17.297</time></trkpt><trkpt lat="56.1157702" lon="44.4588461"><time>2024-07-07T08:17:20.303</time></trkpt><trkpt lat="56.1158064" lon="44.4587924"><time>2024-07-07T08:17:23.307</time></trkpt><trkpt lat="56.1158391" lon="44.4587345"><time>2024-07-07T08:17:26.293</time></trkpt><trkpt lat="56.1158742" lon="44.4586503"><time>2024-07-07T08:17:30.297</time></trkpt><trkpt lat="56.1159116" lon="44.4585892"><time>2024-07-07T08:17:33.280</time></trkpt><trkpt lat="56.1159478" lon="44.4585354"><time>2024-07-07T08:17:36.297</time></trkpt><trkpt lat="56.1159877" lon="44.4584738"><time>2024-07-07T08:17:40.287</time></trkpt><trkpt lat="56.1160185" lon="44.4584073"><time>2024-07-07T08:17:43.293</time></trkpt><trkpt lat="56.1160493" lon="44.4583421"><time>2024-07-07T08:17:46.293</time></trkpt><trkpt lat="56.1160854" lon="44.4582858"><time>2024-07-07T08:17:49.360</time></trkpt><trkpt lat="56.1161243" lon="44.4582202"><time>2024-07-07T08:17:53.293</time></trkpt><trkpt lat="56.1161729" lon="44.4581544"><time>2024-07-07T08:17:57.290</time></trkpt><trkpt lat="56.1162086" lon="44.4580905"><time>2024-07-07T08:18:00.290</time></trkpt><trkpt lat="56.1162463" lon="44.4580132"><time>2024-07-07T08:18:03.283</time></trkpt><trkpt lat="56.1162840" lon="44.4579501"><time>2024-07-07T08:18:06.290</time></trkpt><trkpt lat="56.1163257" lon="44.4578945"><time>2024-07-07T08:18:09.297</time></trkpt><trkpt lat="56.1163706" lon="44.4578418"><time>2024-07-07T08:18:12.293</time></trkpt><trkpt lat="56.1164122" lon="44.4577677"><time>2024-07-07T08:18:15.297</time></trkpt><trkpt lat="56.1164589" lon="44.4577000"><time>2024-07-07T08:18:18.297</time></trkpt><trkpt lat="56.1164998" lon="44.4576331"><time>2024-07-07T08:18:21.290</time></trkpt><trkpt lat="56.1165370" lon="44.4575588"><time>2024-07-07T08:18:24.290</time></trkpt><trkpt lat="56.1165800" lon="44.4574954"><time>2024-07-07T08:18:27.293</time></trkpt><trkpt lat="56.1166228" lon="44.4574149"><time>2024-07-07T08:18:30.290</time></trkpt><trkpt lat="56.1166562" lon="44.4573492"><time>2024-07-07T08:18:32.290</time></trkpt><trkpt lat="56.1167057" lon="44.4572665"><time>2024-07-07T08:18:35.303</time></trkpt><trkpt lat="56.1167472" lon="44.4571904"><time>2024-07-07T08:18:38.363</time></trkpt><trkpt lat="56.1167810" lon="44.4571195"><time>2024-07-07T08:18:41.290</time></trkpt><trkpt lat="56.1168186" lon="44.4570433"><time>2024-07-07T08:18:44.290</time></trkpt><trkpt lat="56.1168564" lon="44.4569796"><time>2024-07-07T08:18:47.300</time></trkpt><trkpt lat="56.1168962" lon="44.4569156"><time>2024-07-07T08:18:50.280</time></trkpt><trkpt lat="56.1169302" lon="44.4568496"><time>2024-07-07T08:18:53.293</time></trkpt><trkpt lat="56.1169664" lon="44.4567680"><time>2024-07-07T08:18:57.293</time></trkpt><trkpt lat="56.1170044" lon="44.4566893"><time>2024-07-07T08:19:01.290</time></trkpt><trkpt lat="56.1170459" lon="44.4566176"><time>2024-07-07T08:19:05.293</time></trkpt><trkpt lat="56.1170784" lon="44.4565512"><time>2024-07-07T08:19:08.283</time></trkpt><trkpt lat="56.1171234" lon="44.4564878"><time>2024-07-07T08:19:12.297</time></trkpt><trkpt lat="56.1171624" lon="44.4564064"><time>2024-07-07T08:19:16.367</time></trkpt><trkpt lat="56.1172001" lon="44.4563355"><time>2024-07-07T08:19:20.290</time></trkpt><trkpt lat="56.1172340" lon="44.4562818"><time>2024-07-07T08:19:23.297</time></trkpt><trkpt lat="56.1172677" lon="44.4562251"><time>2024-07-07T08:19:26.290</time></trkpt><trkpt lat="56.1173050" lon="44.4561477"><time>2024-07-07T08:19:30.297</time></trkpt><trkpt lat="56.1173285" lon="44.4560656"><time>2024-07-07T08:19:34.287</time></trkpt><trkpt lat="56.1173603" lon="44.4559885"><time>2024-07-07T08:19:38.377</time></trkpt><trkpt lat="56.1173946" lon="44.4559340"><time>2024-07-07T08:19:41.290</time></trkpt><trkpt lat="56.1174444" lon="44.4558849"><time>2024-07-07T08:19:44.293</time></trkpt><trkpt lat="56.1174883" lon="44.4558210"><time>2024-07-07T08:19:48.293</time></trkpt><trkpt lat="56.1175221" lon="44.4557590"><time>2024-07-07T08:19:51.290</time></trkpt><trkpt lat="56.1175574" lon="44.4556768"><time>2024-07-07T08:19:55.293</time></trkpt><trkpt lat="56.1175956" lon="44.4556074"><time>2024-07-07T08:19:59.287</time></trkpt><trkpt lat="56.1176362" lon="44.4555349"><time>2024-07-07T08:20:03.293</time></trkpt><trkpt lat="56.1176705" lon="44.4554656"><time>2024-07-07T08:20:07.290</time></trkpt><trkpt lat="56.1177058" lon="44.4554102"><time>2024-07-07T08:20:10.293</time></trkpt><trkpt lat="56.1177502" lon="44.4553503"><time>2024-07-07T08:20:14.287</time></trkpt><trkpt lat="56.1177882" lon="44.4552824"><time>2024-07-07T08:20:18.290</time></trkpt><trkpt lat="56.1178187" lon="44.4552229"><time>2024-07-07T08:20:21.290</time></trkpt><trkpt lat="56.1178515" lon="44.4551550"><time>2024-07-07T08:20:24.290</time></trkpt><trkpt lat="56.1178872" lon="44.4550750"><time>2024-07-07T08:20:28.290</time></trkpt><trkpt lat="56.1179231" lon="44.4549889"><time>2024-07-07T08:20:32.297</time></trkpt><trkpt lat="56.1179627" lon="44.4549413"><time>2024-07-07T08:20:35.287</time></trkpt><trkpt lat="56.1180043" lon="44.4548749"><time>2024-07-07T08:20:39.290</time></trkpt><trkpt lat="56.1180399" lon="44.4548098"><time>2024-07-07T08:20:42.293</time></trkpt><trkpt lat="56.1180742" lon="44.4547510"><time>2024-07-07T08:20:45.287</time></trkpt><trkpt lat="56.1181027" lon="44.4546888"><time>2024-07-07T08:20:48.287</time></trkpt><trkpt lat="56.1181284" lon="44.4546222"><time>2024-07-07T08:20:51.287</time></trkpt><trkpt lat="56.1181583" lon="44.4545497"><time>2024-07-07T08:20:54.290</time></trkpt><trkpt lat="56.1181848" lon="44.4544804"><time>2024-07-07T08:20:58.307</time></trkpt><trkpt lat="56.1182281" lon="44.4544080"><time>2024-07-07T08:21:02.280</time></trkpt><trkpt lat="56.1182655" lon="44.4543398"><time>2024-07-07T08:21:06.287</time></trkpt><trkpt lat="56.1183139" lon="44.4542729"><time>2024-07-07T08:21:10.297</time></trkpt><trkpt lat="56.1183472" lon="44.4542187"><time>2024-07-07T08:21:13.303</time></trkpt><trkpt lat="56.1183794" lon="44.4541610"><time>2024-07-07T08:21:16.293</time></trkpt><trkpt lat="56.1184098" lon="44.4540970"><time>2024-07-07T08:21:19.303</time></trkpt><trkpt lat="56.1184309" lon="44.4540098"><time>2024-07-07T08:21:22.297</time></trkpt><trkpt lat="56.1184536" lon="44.4539316"><time>2024-07-07T08:21:25.290</time></trkpt><trkpt lat="56.1184774" lon="44.4538400"><time>2024-07-07T08:21:29.290</time></trkpt><trkpt lat="56.1185034" lon="44.4537454"><time>2024-07-07T08:21:33.290</time></trkpt><trkpt lat="56.1185245" lon="44.4536689"><time>2024-07-07T08:21:36.293</time></trkpt><trkpt lat="56.1185506" lon="44.4535915"><time>2024-07-07T08:21:39.363</time></trkpt><trkpt lat="56.1185596" lon="44.4535045"><time>2024-07-07T08:21:42.290</time></trkpt><trkpt lat="56.1185740" lon="44.4534116"><time>2024-07-07T08:21:45.297</time></trkpt><trkpt lat="56.1185954" lon="44.4533400"><time>2024-07-07T08:21:48.287</time></trkpt><trkpt lat="56.1186319" lon="44.4532733"><time>2024-07-07T08:21:51.287</time></trkpt><trkpt lat="56.1186582" lon="44.4531991"><time>2024-07-07T08:21:54.293</time></trkpt><trkpt lat="56.1186827" lon="44.4531199"><time>2024-07-07T08:21:57.297</time></trkpt><trkpt lat="56.1187154" lon="44.4530517"><time>2024-07-07T08:22:00.293</time></trkpt><trkpt lat="56.1187297" lon="44.4529662"><time>2024-07-07T08:22:03.287</time></trkpt><trkpt lat="56.1187398" lon="44.4528704"><time>2024-07-07T08:22:06.293</time></trkpt><trkpt lat="56.1187695" lon="44.4527894"><time>2024-07-07T08:22:09.293</time></trkpt><trkpt lat="56.1188092" lon="44.4527321"><time>2024-07-07T08:22:12.293</time></trkpt><trkpt lat="56.1188546" lon="44.4526978"><time>2024-07-07T08:22:15.293</time></trkpt><trkpt lat="56.1189058" lon="44.4526665"><time>2024-07-07T08:22:19.287</time></trkpt><trkpt lat="56.1189452" lon="44.4526244"><time>2024-07-07T08:22:22.293</time></trkpt><trkpt lat="56.1189808" lon="44.4525544"><time>2024-07-07T08:22:26.367</time></trkpt><trkpt lat="56.1190110" lon="44.4524835"><time>2024-07-07T08:22:30.360</time></trkpt><trkpt lat="56.1190402" lon="44.4524225"><time>2024-07-07T08:22:33.303</time></trkpt><trkpt lat="56.1190897" lon="44.4523602"><time>2024-07-07T08:22:37.283</time></trkpt><trkpt lat="56.1191421" lon="44.4523116"><time>2024-07-07T08:22:41.290</time></trkpt><trkpt lat="56.1191816" lon="44.4522622"><time>2024-07-07T08:22:44.293</time></trkpt><trkpt lat="56.1192197" lon="44.4522160"><time>2024-07-07T08:22:47.290</time></trkpt><trkpt lat="56.1192562" lon="44.4521482"><time>2024-07-07T08:22:51.360</time></trkpt><trkpt lat="56.1192800" lon="44.4520796"><time>2024-07-07T08:22:54.290</time></trkpt><trkpt lat="56.1193178" lon="44.4520190"><time>2024-07-07T08:22:57.280</time></trkpt><trkpt lat="56.1193661" lon="44.4519692"><time>2024-07-07T08:23:01.287</time></trkpt><trkpt lat="56.1194100" lon="44.4519364"><time>2024-07-07T08:23:04.370</time></trkpt><trkpt lat="56.1194582" lon="44.4518849"><time>2024-07-07T08:23:07.293</time></trkpt><trkpt lat="56.1194949" lon="44.4518346"><time>2024-07-07T08:23:10.283</time></trkpt><trkpt lat="56.1195297" lon="44.4517750"><time>2024-07-07T08:23:13.363</time></trkpt><trkpt lat="56.1195580" lon="44.4517097"><time>2024-07-07T08:23:16.293</time></trkpt><trkpt lat="56.1195842" lon="44.4516400"><time>2024-07-07T08:23:19.287</time></trkpt><trkpt lat="56.1196174" lon="44.4515766"><time>2024-07-07T08:23:22.300</time></trkpt><trkpt lat="56.1196665" lon="44.4515236"><time>2024-07-07T08:23:26.377</time></trkpt><trkpt lat="56.1197129" lon="44.4514942"><time>2024-07-07T08:23:29.277</time></trkpt><trkpt lat="56.1197555" lon="44.4514612"><time>2024-07-07T08:23:33.293</time></trkpt><trkpt lat="56.1197911" lon="44.4514121"><time>2024-07-07T08:23:36.290</time></trkpt><trkpt lat="56.1198271" lon="44.4513567"><time>2024-07-07T08:23:39.293</time></trkpt><trkpt lat="56.1198785" lon="44.4512928"><time>2024-07-07T08:23:42.297</time></trkpt><trkpt lat="56.1199285" lon="44.4512354"><time>2024-07-07T08:23:46.293</time></trkpt><trkpt lat="56.1199678" lon="44.4511771"><time>2024-07-07T08:23:49.287</time></trkpt><trkpt lat="56.1200136" lon="44.4511199"><time>2024-07-07T08:23:52.287</time></trkpt><trkpt lat="56.1200489" lon="44.4510619"><time>2024-07-07T08:23:55.367</time></trkpt><trkpt lat="56.1200845" lon="44.4509959"><time>2024-07-07T08:23:58.297</time></trkpt><trkpt lat="56.1201002" lon="44.4509727"><time>2024-07-07T08:23:59.407</time></trkpt><trkpt lat="56.1201319" lon="44.4509147"><time>2024-07-07T08:24:01.283</time></trkpt><trkpt lat="56.1201777" lon="44.4508768"><time>2024-07-07T08:24:04.287</time></trkpt><trkpt lat="56.1202322" lon="44.4508275"><time>2024-07-07T08:24:07.283</time></trkpt><trkpt lat="56.1202768" lon="44.4507782"><time>2024-07-07T08:24:10.290</time></trkpt><trkpt lat="56.1203166" lon="44.4507330"><time>2024-07-07T08:24:13.293</time></trkpt><trkpt lat="56.1203605" lon="44.4506650"><time>2024-07-07T08:24:17.290</time></trkpt><trkpt lat="56.1204060" lon="44.4505897"><time>2024-07-07T08:24:20.290</time></trkpt><trkpt lat="56.1204508" lon="44.4505174"><time>2024-07-07T08:24:23.363</time></trkpt><trkpt lat="56.1204865" lon="44.4504602"><time>2024-07-07T08:24:26.287</time></trkpt><trkpt lat="56.1205273" lon="44.4504224"><time>2024-07-07T08:24:29.293</time></trkpt><trkpt lat="56.1205694" lon="44.4503729"><time>2024-07-07T08:24:32.290</time></trkpt><trkpt lat="56.1206115" lon="44.4503229"><time>2024-07-07T08:24:35.297</time></trkpt><trkpt lat="56.1206448" lon="44.4502652"><time>2024-07-07T08:24:38.293</time></trkpt><trkpt lat="56.1206864" lon="44.4501990"><time>2024-07-07T08:24:41.367</time></trkpt><trkpt lat="56.1207328" lon="44.4501314"><time>2024-07-07T08:24:44.293</time></trkpt><trkpt lat="56.1207688" lon="44.4500782"><time>2024-07-07T08:24:46.290</time></trkpt><trkpt lat="56.1208113" lon="44.4500059"><time>2024-07-07T08:24:49.307</time></trkpt><trkpt lat="56.1208169" lon="44.4499935"><time>2024-07-07T08:24:50.413</time></trkpt><trkpt lat="56.1208609" lon="44.4499232"><time>2024-07-07T08:24:53.367</time></trkpt><trkpt lat="56.1208990" lon="44.4498371"><time>2024-07-07T08:24:56.293</time></trkpt><trkpt lat="56.1209427" lon="44.4497816"><time>2024-07-07T08:24:59.290</time></trkpt><trkpt lat="56.1209858" lon="44.4497381"><time>2024-07-07T08:25:02.290</time></trkpt><trkpt lat="56.1210376" lon="44.4497089"><time>2024-07-07T08:25:06.293</time></trkpt><trkpt lat="56.1210831" lon="44.4496795"><time>2024-07-07T08:25:10.287</time></trkpt><trkpt lat="56.1211207" lon="44.4496276"><time>2024-07-07T08:25:15.287</time></trkpt><trkpt lat="56.1211567" lon="44.4495683"><time>2024-07-07T08:25:19.300</time></trkpt><trkpt lat="56.1211606" lon="44.4495596"><time>2024-07-07T08:25:20.413</time></trkpt><trkpt lat="56.1211989" lon="44.4494834"><time>2024-07-07T08:25:24.287</time></trkpt><trkpt lat="56.1212397" lon="44.4494465"><time>2024-07-07T08:25:27.287</time></trkpt><trkpt lat="56.1212724" lon="44.4493786"><time>2024-07-07T08:25:31.283</time></trkpt><trkpt lat="56.1213168" lon="44.4493165"><time>2024-07-07T08:25:35.290</time></trkpt><trkpt lat="56.1213466" lon="44.4492448"><time>2024-07-07T08:25:39.290</time></trkpt><trkpt lat="56.1213782" lon="44.4491718"><time>2024-07-07T08:25:43.303</time></trkpt><trkpt lat="56.1213782" lon="44.4491718"><time>2024-07-07T08:25:43.337</time></trkpt><trkpt lat="56.1213395" lon="44.4492380"><time>2024-07-07T08:26:17.317</time></trkpt><trkpt lat="56.1213287" lon="44.4492501"><time>2024-07-07T08:26:18.447</time></trkpt><trkpt lat="56.1212841" lon="44.4493112"><time>2024-07-07T08:26:31.293</time></trkpt><trkpt lat="56.1212517" lon="44.4493949"><time>2024-07-07T08:26:34.290</time></trkpt><trkpt lat="56.1212143" lon="44.4494798"><time>2024-07-07T08:26:37.283</time></trkpt><trkpt lat="56.1211723" lon="44.4495472"><time>2024-07-07T08:26:40.293</time></trkpt><trkpt lat="56.1211330" lon="44.4495906"><time>2024-07-07T08:26:43.360</time></trkpt><trkpt lat="56.1210950" lon="44.4496480"><time>2024-07-07T08:26:49.310</time></trkpt><trkpt lat="56.1210561" lon="44.4496983"><time>2024-07-07T08:26:57.287</time></trkpt><trkpt lat="56.1210237" lon="44.4497589"><time>2024-07-07T08:27:04.290</time></trkpt><trkpt lat="56.1209753" lon="44.4498198"><time>2024-07-07T08:27:08.290</time></trkpt><trkpt lat="56.1209198" lon="44.4498678"><time>2024-07-07T08:27:11.290</time></trkpt><trkpt lat="56.1208689" lon="44.4499210"><time>2024-07-07T08:27:14.283</time></trkpt><trkpt lat="56.1208249" lon="44.4499795"><time>2024-07-07T08:27:17.287</time></trkpt><trkpt lat="56.1207805" lon="44.4500419"><time>2024-07-07T08:27:20.293</time></trkpt><trkpt lat="56.1207386" lon="44.4501058"><time>2024-07-07T08:27:23.363</time></trkpt><trkpt lat="56.1206969" lon="44.4501688"><time>2024-07-07T08:27:26.313</time></trkpt><trkpt lat="56.1206543" lon="44.4502347"><time>2024-07-07T08:27:29.280</time></trkpt><trkpt lat="56.1206072" lon="44.4502897"><time>2024-07-07T08:27:32.287</time></trkpt><trkpt lat="56.1205604" lon="44.4503466"><time>2024-07-07T08:27:35.297</time></trkpt><trkpt lat="56.1205185" lon="44.4503874"><time>2024-07-07T08:27:38.287</time></trkpt><trkpt lat="56.1204680" lon="44.4504240"><time>2024-07-07T08:27:41.287</time></trkpt><trkpt lat="56.1204274" lon="44.4504618"><time>2024-07-07T08:27:44.293</time></trkpt><trkpt lat="56.1203994" lon="44.4505499"><time>2024-07-07T08:27:49.287</time></trkpt><trkpt lat="56.1203940" lon="44.4506353"><time>2024-07-07T08:27:54.290</time></trkpt><trkpt lat="56.1203800" lon="44.4507160"><time>2024-07-07T08:28:00.287</time></trkpt><trkpt lat="56.1203369" lon="44.4507656"><time>2024-07-07T08:28:03.287</time></trkpt><trkpt lat="56.1202916" lon="44.4508027"><time>2024-07-07T08:28:06.283</time></trkpt><trkpt lat="56.1202422" lon="44.4508360"><time>2024-07-07T08:28:10.290</time></trkpt><trkpt lat="56.1201881" lon="44.4508512"><time>2024-07-07T08:28:14.287</time></trkpt><trkpt lat="56.1201399" lon="44.4508767"><time>2024-07-07T08:28:17.290</time></trkpt><trkpt lat="56.1200896" lon="44.4509164"><time>2024-07-07T08:28:20.293</time></trkpt><trkpt lat="56.1200366" lon="44.4509567"><time>2024-07-07T08:28:23.287</time></trkpt><trkpt lat="56.1199911" lon="44.4510104"><time>2024-07-07T08:28:26.293</time></trkpt><trkpt lat="56.1199547" lon="44.4510865"><time>2024-07-07T08:28:29.300</time></trkpt><trkpt lat="56.1199325" lon="44.4511631"><time>2024-07-07T08:28:32.287</time></trkpt><trkpt lat="56.1199126" lon="44.4512463"><time>2024-07-07T08:28:36.290</time></trkpt><trkpt lat="56.1198671" lon="44.4512985"><time>2024-07-07T08:28:41.287</time></trkpt><trkpt lat="56.1198082" lon="44.4513159"><time>2024-07-07T08:28:45.287</time></trkpt><trkpt lat="56.1197521" lon="44.4513233"><time>2024-07-07T08:28:48.363</time></trkpt><trkpt lat="56.1196982" lon="44.4513189"><time>2024-07-07T08:28:51.287</time></trkpt><trkpt lat="56.1196417" lon="44.4513050"><time>2024-07-07T08:28:54.287</time></trkpt><trkpt lat="56.1195855" lon="44.4512961"><time>2024-07-07T08:28:57.283</time></trkpt><trkpt lat="56.1195276" lon="44.4512836"><time>2024-07-07T08:29:00.363</time></trkpt><trkpt lat="56.1194789" lon="44.4512676"><time>2024-07-07T08:29:03.290</time></trkpt><trkpt lat="56.1194338" lon="44.4512540"><time>2024-07-07T08:29:06.287</time></trkpt><trkpt lat="56.1193801" lon="44.4512368"><time>2024-07-07T08:29:10.363</time></trkpt><trkpt lat="56.1193364" lon="44.4512179"><time>2024-07-07T08:29:15.293</time></trkpt><trkpt lat="56.1192832" lon="44.4512086"><time>2024-07-07T08:29:19.290</time></trkpt><trkpt lat="56.1192340" lon="44.4512032"><time>2024-07-07T08:29:23.290</time></trkpt><trkpt lat="56.1191883" lon="44.4511990"><time>2024-07-07T08:29:26.287</time></trkpt><trkpt lat="56.1191388" lon="44.4511959"><time>2024-07-07T08:29:29.290</time></trkpt><trkpt lat="56.1190848" lon="44.4511924"><time>2024-07-07T08:29:32.293</time></trkpt><trkpt lat="56.1190383" lon="44.4511765"><time>2024-07-07T08:29:35.290</time></trkpt><trkpt lat="56.1189866" lon="44.4511395"><time>2024-07-07T08:29:39.287</time></trkpt><trkpt lat="56.1189461" lon="44.4510899"><time>2024-07-07T08:29:42.360</time></trkpt><trkpt lat="56.1189096" lon="44.4510348"><time>2024-07-07T08:29:46.287</time></trkpt><trkpt lat="56.1188660" lon="44.4510139"><time>2024-07-07T08:29:49.290</time></trkpt><trkpt lat="56.1188202" lon="44.4510148"><time>2024-07-07T08:29:52.283</time></trkpt><trkpt lat="56.1187686" lon="44.4510299"><time>2024-07-07T08:29:55.297</time></trkpt><trkpt lat="56.1187235" lon="44.4510683"><time>2024-07-07T08:29:58.283</time></trkpt><trkpt lat="56.1186947" lon="44.4511310"><time>2024-07-07T08:30:02.280</time></trkpt><trkpt lat="56.1186645" lon="44.4511920"><time>2024-07-07T08:30:06.287</time></trkpt><trkpt lat="56.1186113" lon="44.4512154"><time>2024-07-07T08:30:11.290</time></trkpt><trkpt lat="56.1185528" lon="44.4512077"><time>2024-07-07T08:30:15.283</time></trkpt><trkpt lat="56.1185019" lon="44.4512203"><time>2024-07-07T08:30:21.287</time></trkpt><trkpt lat="56.1184621" lon="44.4511822"><time>2024-07-07T08:30:52.280</time></trkpt><trkpt lat="56.1184284" lon="44.4512449"><time>2024-07-07T08:31:00.283</time></trkpt><trkpt lat="56.1183852" lon="44.4512691"><time>2024-07-07T08:31:50.283</time></trkpt><trkpt lat="56.1183408" lon="44.4512461"><time>2024-07-07T08:32:10.287</time></trkpt><trkpt lat="56.1182939" lon="44.4512802"><time>2024-07-07T08:32:21.287</time></trkpt><trkpt lat="56.1182602" lon="44.4513398"><time>2024-07-07T08:32:26.320</time></trkpt><trkpt lat="56.1182250" lon="44.4514035"><time>2024-07-07T08:32:30.367</time></trkpt><trkpt lat="56.1181958" lon="44.4514758"><time>2024-07-07T08:32:34.383</time></trkpt><trkpt lat="56.1181629" lon="44.4515452"><time>2024-07-07T08:32:39.373</time></trkpt><trkpt lat="56.1181379" lon="44.4516271"><time>2024-07-07T08:32:45.300</time></trkpt><trkpt lat="56.1181013" lon="44.4516757"><time>2024-07-07T08:32:50.313</time></trkpt><trkpt lat="56.1180658" lon="44.4516187"><time>2024-07-07T08:33:06.310</time></trkpt><trkpt lat="56.1180336" lon="44.4515570"><time>2024-07-07T08:33:11.380</time></trkpt><trkpt lat="56.1180521" lon="44.4516428"><time>2024-07-07T08:33:24.303</time></trkpt><trkpt lat="56.1180440" lon="44.4517297"><time>2024-07-07T08:33:30.300</time></trkpt><trkpt lat="56.1180275" lon="44.4518073"><time>2024-07-07T08:33:34.300</time></trkpt><trkpt lat="56.1179896" lon="44.4518669"><time>2024-07-07T08:33:40.303</time></trkpt><trkpt lat="56.1179431" lon="44.4519107"><time>2024-07-07T08:33:45.297</time></trkpt><trkpt lat="56.1179070" lon="44.4519710"><time>2024-07-07T08:33:50.307</time></trkpt><trkpt lat="56.1178665" lon="44.4519299"><time>2024-07-07T08:34:08.310</time></trkpt><trkpt lat="56.1178200" lon="44.4519063"><time>2024-07-07T08:34:12.300</time></trkpt><trkpt lat="56.1177929" lon="44.4518351"><time>2024-07-07T08:34:19.310</time></trkpt><trkpt lat="56.1177680" lon="44.4517623"><time>2024-07-07T08:34:26.310</time></trkpt><trkpt lat="56.1177465" lon="44.4516788"><time>2024-07-07T08:34:36.297</time></trkpt><trkpt lat="56.1177013" lon="44.4516342"><time>2024-07-07T08:34:46.297</time></trkpt><trkpt lat="56.1176668" lon="44.4515772"><time>2024-07-07T08:34:59.293</time></trkpt><trkpt lat="56.1176579" lon="44.4514949"><time>2024-07-07T08:35:20.310</time></trkpt><trkpt lat="56.1176292" lon="44.4514250"><time>2024-07-07T08:36:18.303</time></trkpt><trkpt lat="56.1175795" lon="44.4513974"><time>2024-07-07T08:36:38.313</time></trkpt><trkpt lat="56.1175321" lon="44.4513782"><time>2024-07-07T08:36:45.310</time></trkpt><trkpt lat="56.1174930" lon="44.4513337"><time>2024-07-07T08:37:29.307</time></trkpt><trkpt lat="56.1174448" lon="44.4513617"><time>2024-07-07T08:37:50.310</time></trkpt><trkpt lat="56.1174036" lon="44.4513956"><time>2024-07-07T08:38:02.303</time></trkpt><trkpt lat="56.1173660" lon="44.4514418"><time>2024-07-07T08:38:44.313</time></trkpt><trkpt lat="56.1173260" lon="44.4514890"><time>2024-07-07T08:39:00.307</time></trkpt><trkpt lat="56.1172901" lon="44.4515552"><time>2024-07-07T08:39:13.287</time></trkpt><trkpt lat="56.1172437" lon="44.4515752"><time>2024-07-07T08:39:20.310</time></trkpt><trkpt lat="56.1171999" lon="44.4515950"><time>2024-07-07T08:39:38.400</time></trkpt><trkpt lat="56.1171515" lon="44.4515986"><time>2024-07-07T08:39:43.303</time></trkpt><trkpt lat="56.1171057" lon="44.4516312"><time>2024-07-07T08:39:53.300</time></trkpt><trkpt lat="56.1170580" lon="44.4516436"><time>2024-07-07T08:40:07.310</time></trkpt><trkpt lat="56.1170105" lon="44.4516195"><time>2024-07-07T08:40:22.310</time></trkpt><trkpt lat="56.1169775" lon="44.4515635"><time>2024-07-07T08:40:27.300</time></trkpt><trkpt lat="56.1169360" lon="44.4515161"><time>2024-07-07T08:40:39.303</time></trkpt><trkpt lat="56.1169165" lon="44.4514309"><time>2024-07-07T08:40:50.383</time></trkpt><trkpt lat="56.1168919" lon="44.4513364"><time>2024-07-07T08:40:58.310</time></trkpt><trkpt lat="56.1168791" lon="44.4512560"><time>2024-07-07T08:41:02.317</time></trkpt><trkpt lat="56.1168651" lon="44.4511716"><time>2024-07-07T08:41:05.307</time></trkpt><trkpt lat="56.1168506" lon="44.4510748"><time>2024-07-07T08:41:08.307</time></trkpt><trkpt lat="56.1168401" lon="44.4509815"><time>2024-07-07T08:41:11.300</time></trkpt><trkpt lat="56.1168422" lon="44.4508756"><time>2024-07-07T08:41:15.377</time></trkpt><trkpt lat="56.1168541" lon="44.4507845"><time>2024-07-07T08:41:34.313</time></trkpt><trkpt lat="56.1168739" lon="44.4506823"><time>2024-07-07T08:41:37.307</time></trkpt><trkpt lat="56.1168900" lon="44.4505608"><time>2024-07-07T08:41:41.303</time></trkpt><trkpt lat="56.1169111" lon="44.4504550"><time>2024-07-07T08:41:45.313</time></trkpt><trkpt lat="56.1169413" lon="44.4503696"><time>2024-07-07T08:41:48.307</time></trkpt><trkpt lat="56.1169717" lon="44.4503057"><time>2024-07-07T08:41:53.307</time></trkpt><trkpt lat="56.1170098" lon="44.4502338"><time>2024-07-07T08:41:56.310</time></trkpt><trkpt lat="56.1170490" lon="44.4501539"><time>2024-07-07T08:41:59.317</time></trkpt><trkpt lat="56.1170880" lon="44.4500683"><time>2024-07-07T08:42:02.300</time></trkpt><trkpt lat="56.1171153" lon="44.4499918"><time>2024-07-07T08:42:05.373</time></trkpt><trkpt lat="56.1171340" lon="44.4499020"><time>2024-07-07T08:42:13.300</time></trkpt><trkpt lat="56.1171585" lon="44.4498305"><time>2024-07-07T08:42:23.307</time></trkpt><trkpt lat="56.1171956" lon="44.4497687"><time>2024-07-07T08:42:30.310</time></trkpt><trkpt lat="56.1172240" lon="44.4497038"><time>2024-07-07T08:42:34.320</time></trkpt><trkpt lat="56.1172629" lon="44.4496235"><time>2024-07-07T08:42:39.300</time></trkpt><trkpt lat="56.1172996" lon="44.4495706"><time>2024-07-07T08:42:46.297</time></trkpt><trkpt lat="56.1173392" lon="44.4494877"><time>2024-07-07T08:42:50.297</time></trkpt><trkpt lat="56.1173768" lon="44.4494229"><time>2024-07-07T08:42:53.313</time></trkpt><trkpt lat="56.1174093" lon="44.4493582"><time>2024-07-07T08:42:57.300</time></trkpt><trkpt lat="56.1174475" lon="44.4492933"><time>2024-07-07T08:43:00.300</time></trkpt><trkpt lat="56.1174889" lon="44.4492096"><time>2024-07-07T08:43:04.317</time></trkpt><trkpt lat="56.1175418" lon="44.4491346"><time>2024-07-07T08:43:07.310</time></trkpt><trkpt lat="56.1175826" lon="44.4490960"><time>2024-07-07T08:43:11.303</time></trkpt><trkpt lat="56.1176318" lon="44.4490247"><time>2024-07-07T08:43:14.327</time></trkpt><trkpt lat="56.1176734" lon="44.4489763"><time>2024-07-07T08:43:16.313</time></trkpt><trkpt lat="56.1177099" lon="44.4489215"><time>2024-07-07T08:43:18.317</time></trkpt><trkpt lat="56.1177427" lon="44.4488585"><time>2024-07-07T08:43:20.300</time></trkpt><trkpt lat="56.1177684" lon="44.4487839"><time>2024-07-07T08:43:22.317</time></trkpt><trkpt lat="56.1177906" lon="44.4487045"><time>2024-07-07T08:43:24.317</time></trkpt><trkpt lat="56.1178145" lon="44.4486281"><time>2024-07-07T08:43:26.310</time></trkpt><trkpt lat="56.1178286" lon="44.4485482"><time>2024-07-07T08:43:28.317</time></trkpt><trkpt lat="56.1178420" lon="44.4484284"><time>2024-07-07T08:43:31.380</time></trkpt><trkpt lat="56.1178569" lon="44.4483244"><time>2024-07-07T08:43:34.310</time></trkpt><trkpt lat="56.1178713" lon="44.4482482"><time>2024-07-07T08:43:37.310</time></trkpt><trkpt lat="56.1179018" lon="44.4481617"><time>2024-07-07T08:43:42.303</time></trkpt><trkpt lat="56.1179354" lon="44.4480672"><time>2024-07-07T08:43:47.320</time></trkpt><trkpt lat="56.1179575" lon="44.4479855"><time>2024-07-07T08:43:49.327</time></trkpt><trkpt lat="56.1179718" lon="44.4479080"><time>2024-07-07T08:43:51.317</time></trkpt><trkpt lat="56.1179787" lon="44.4478228"><time>2024-07-07T08:43:54.310</time></trkpt><trkpt lat="56.1179694" lon="44.4477337"><time>2024-07-07T08:43:58.313</time></trkpt><trkpt lat="56.1179520" lon="44.4476335"><time>2024-07-07T08:44:01.317</time></trkpt><trkpt lat="56.1179550" lon="44.4475245"><time>2024-07-07T08:44:05.317</time></trkpt><trkpt lat="56.1179804" lon="44.4474453"><time>2024-07-07T08:44:16.307</time></trkpt><trkpt lat="56.1180134" lon="44.4473726"><time>2024-07-07T08:44:22.310</time></trkpt><trkpt lat="56.1180460" lon="44.4473097"><time>2024-07-07T08:44:24.397</time></trkpt><trkpt lat="56.1180743" lon="44.4472435"><time>2024-07-07T08:44:26.303</time></trkpt><trkpt lat="56.1181046" lon="44.4471703"><time>2024-07-07T08:44:28.303</time></trkpt><trkpt lat="56.1181293" lon="44.4471032"><time>2024-07-07T08:44:33.313</time></trkpt><trkpt lat="56.1181719" lon="44.4470601"><time>2024-07-07T08:44:43.317</time></trkpt><trkpt lat="56.1182136" lon="44.4470073"><time>2024-07-07T08:44:46.390</time></trkpt><trkpt lat="56.1182505" lon="44.4469563"><time>2024-07-07T08:44:48.297</time></trkpt><trkpt lat="56.1182902" lon="44.4468965"><time>2024-07-07T08:44:50.307</time></trkpt><trkpt lat="56.1183271" lon="44.4468313"><time>2024-07-07T08:44:52.317</time></trkpt><trkpt lat="56.1183632" lon="44.4467642"><time>2024-07-07T08:44:54.393</time></trkpt><trkpt lat="56.1183995" lon="44.4467026"><time>2024-07-07T08:44:56.327</time></trkpt><trkpt lat="56.1184374" lon="44.4466589"><time>2024-07-07T08:45:03.303</time></trkpt><trkpt lat="56.1184929" lon="44.4466005"><time>2024-07-07T08:45:07.303</time></trkpt><trkpt lat="56.1185274" lon="44.4465462"><time>2024-07-07T08:45:09.300</time></trkpt><trkpt lat="56.1185600" lon="44.4464833"><time>2024-07-07T08:45:11.313</time></trkpt><trkpt lat="56.1185934" lon="44.4464201"><time>2024-07-07T08:45:13.303</time></trkpt><trkpt lat="56.1186257" lon="44.4463614"><time>2024-07-07T08:45:15.317</time></trkpt><trkpt lat="56.1186673" lon="44.4463068"><time>2024-07-07T08:45:19.387</time></trkpt><trkpt lat="56.1187187" lon="44.4462531"><time>2024-07-07T08:45:23.307</time></trkpt><trkpt lat="56.1187595" lon="44.4462029"><time>2024-07-07T08:45:26.313</time></trkpt><trkpt lat="56.1188050" lon="44.4461467"><time>2024-07-07T08:45:29.317</time></trkpt><trkpt lat="56.1188498" lon="44.4460818"><time>2024-07-07T08:45:32.300</time></trkpt><trkpt lat="56.1188998" lon="44.4460105"><time>2024-07-07T08:45:35.307</time></trkpt><trkpt lat="56.1189400" lon="44.4459447"><time>2024-07-07T08:45:38.390</time></trkpt><trkpt lat="56.1189846" lon="44.4459061"><time>2024-07-07T08:45:42.307</time></trkpt><trkpt lat="56.1190336" lon="44.4458593"><time>2024-07-07T08:45:49.317</time></trkpt><trkpt lat="56.1190728" lon="44.4458131"><time>2024-07-07T08:45:52.313</time></trkpt><trkpt lat="56.1191139" lon="44.4457707"><time>2024-07-07T08:45:54.300</time></trkpt><trkpt lat="56.1191666" lon="44.4457203"><time>2024-07-07T08:45:57.373</time></trkpt><trkpt lat="56.1192086" lon="44.4456594"><time>2024-07-07T08:46:03.317</time></trkpt><trkpt lat="56.1192587" lon="44.4455916"><time>2024-07-07T08:46:06.313</time></trkpt><trkpt lat="56.1192956" lon="44.4455436"><time>2024-07-07T08:46:08.303</time></trkpt><trkpt lat="56.1193337" lon="44.4454871"><time>2024-07-07T08:46:11.337</time></trkpt><trkpt lat="56.1194697" lon="44.4453693"><time>2024-07-07T08:46:12.457</time></trkpt><trkpt lat="56.1195111" lon="44.4453209"><time>2024-07-07T08:46:16.283</time></trkpt><trkpt lat="56.1195558" lon="44.4452635"><time>2024-07-07T08:46:20.280</time></trkpt><trkpt lat="56.1195852" lon="44.4451865"><time>2024-07-07T08:46:23.283</time></trkpt><trkpt lat="56.1196300" lon="44.4451227"><time>2024-07-07T08:46:27.287</time></trkpt><trkpt lat="56.1196778" lon="44.4450606"><time>2024-07-07T08:46:31.287</time></trkpt><trkpt lat="56.1197236" lon="44.4449957"><time>2024-07-07T08:46:35.280</time></trkpt><trkpt lat="56.1197720" lon="44.4449404"><time>2024-07-07T08:46:39.287</time></trkpt><trkpt lat="56.1198175" lon="44.4448723"><time>2024-07-07T08:46:43.287</time></trkpt><trkpt lat="56.1198568" lon="44.4448230"><time>2024-07-07T08:46:46.283</time></trkpt><trkpt lat="56.1198955" lon="44.4447796"><time>2024-07-07T08:46:49.280</time></trkpt><trkpt lat="56.1199384" lon="44.4447374"><time>2024-07-07T08:46:52.280</time></trkpt><trkpt lat="56.1199823" lon="44.4447077"><time>2024-07-07T08:46:55.280</time></trkpt><trkpt lat="56.1200283" lon="44.4446736"><time>2024-07-07T08:46:58.287</time></trkpt><trkpt lat="56.1200725" lon="44.4446284"><time>2024-07-07T08:47:01.310</time></trkpt><trkpt lat="56.1200779" lon="44.4446078"><time>2024-07-07T08:47:02.410</time></trkpt><trkpt lat="56.1201111" lon="44.4445270"><time>2024-07-07T08:47:05.283</time></trkpt><trkpt lat="56.1201455" lon="44.4444501"><time>2024-07-07T08:47:11.287</time></trkpt><trkpt lat="56.1201738" lon="44.4443844"><time>2024-07-07T08:47:14.287</time></trkpt><trkpt lat="56.1202088" lon="44.4443280"><time>2024-07-07T08:47:17.287</time></trkpt><trkpt lat="56.1202579" lon="44.4442672"><time>2024-07-07T08:47:21.287</time></trkpt><trkpt lat="56.1203022" lon="44.4442096"><time>2024-07-07T08:47:25.283</time></trkpt><trkpt lat="56.1203390" lon="44.4441463"><time>2024-07-07T08:47:29.287</time></trkpt><trkpt lat="56.1203700" lon="44.4440851"><time>2024-07-07T08:47:33.283</time></trkpt><trkpt lat="56.1203999" lon="44.4440168"><time>2024-07-07T08:47:38.300</time></trkpt><trkpt lat="56.1204076" lon="44.4440067"><time>2024-07-07T08:47:39.417</time></trkpt><trkpt lat="56.1204495" lon="44.4439430"><time>2024-07-07T08:47:44.287</time></trkpt><trkpt lat="56.1204983" lon="44.4438960"><time>2024-07-07T08:47:49.287</time></trkpt><trkpt lat="56.1205430" lon="44.4438425"><time>2024-07-07T08:47:55.290</time></trkpt><trkpt lat="56.1205948" lon="44.4438329"><time>2024-07-07T08:48:00.283</time></trkpt><trkpt lat="56.1206403" lon="44.4438265"><time>2024-07-07T08:48:07.300</time></trkpt><trkpt lat="56.1206403" lon="44.4438265"><time>2024-07-07T08:48:07.340</time></trkpt><trkpt lat="56.1205902" lon="44.4438405"><time>2024-07-07T08:50:34.307</time></trkpt><trkpt lat="56.1205858" lon="44.4438523"><time>2024-07-07T08:50:35.413</time></trkpt><trkpt lat="56.1205358" lon="44.4438225"><time>2024-07-07T08:50:40.287</time></trkpt><trkpt lat="56.1204825" lon="44.4438277"><time>2024-07-07T08:50:48.363</time></trkpt><trkpt lat="56.1204401" lon="44.4438854"><time>2024-07-07T08:50:53.287</time></trkpt><trkpt lat="56.1204106" lon="44.4439496"><time>2024-07-07T08:50:57.287</time></trkpt><trkpt lat="56.1203746" lon="44.4440308"><time>2024-07-07T08:51:05.283</time></trkpt><trkpt lat="56.1203391" lon="44.4440990"><time>2024-07-07T08:51:09.283</time></trkpt><trkpt lat="56.1203120" lon="44.4441876"><time>2024-07-07T08:51:14.360</time></trkpt><trkpt lat="56.1202923" lon="44.4442667"><time>2024-07-07T08:51:20.283</time></trkpt><trkpt lat="56.1202611" lon="44.4443502"><time>2024-07-07T08:51:27.283</time></trkpt><trkpt lat="56.1202398" lon="44.4444237"><time>2024-07-07T08:51:32.283</time></trkpt><trkpt lat="56.1202034" lon="44.4444750"><time>2024-07-07T08:51:37.280</time></trkpt><trkpt lat="56.1201545" lon="44.4445240"><time>2024-07-07T08:51:42.287</time></trkpt><trkpt lat="56.1201032" lon="44.4445536"><time>2024-07-07T08:51:47.280</time></trkpt><trkpt lat="56.1200574" lon="44.4445658"><time>2024-07-07T08:51:51.280</time></trkpt><trkpt lat="56.1200084" lon="44.4445918"><time>2024-07-07T08:51:56.287</time></trkpt><trkpt lat="56.1199682" lon="44.4446324"><time>2024-07-07T08:52:00.287</time></trkpt><trkpt lat="56.1199316" lon="44.4446946"><time>2024-07-07T08:52:04.280</time></trkpt><trkpt lat="56.1198970" lon="44.4447716"><time>2024-07-07T08:52:08.287</time></trkpt><trkpt lat="56.1198688" lon="44.4448500"><time>2024-07-07T08:52:12.367</time></trkpt><trkpt lat="56.1198321" lon="44.4449056"><time>2024-07-07T08:52:16.283</time></trkpt><trkpt lat="56.1197931" lon="44.4449518"><time>2024-07-07T08:52:21.283</time></trkpt><trkpt lat="56.1197519" lon="44.4449912"><time>2024-07-07T08:52:25.280</time></trkpt><trkpt lat="56.1196997" lon="44.4450358"><time>2024-07-07T08:52:29.283</time></trkpt><trkpt lat="56.1196556" lon="44.4450990"><time>2024-07-07T08:52:33.287</time></trkpt><trkpt lat="56.1196241" lon="44.4451581"><time>2024-07-07T08:52:36.287</time></trkpt><trkpt lat="56.1195952" lon="44.4452289"><time>2024-07-07T08:52:40.283</time></trkpt><trkpt lat="56.1195494" lon="44.4452966"><time>2024-07-07T08:52:44.293</time></trkpt><trkpt lat="56.1195090" lon="44.4453341"><time>2024-07-07T08:52:47.287</time></trkpt><trkpt lat="56.1194623" lon="44.4453631"><time>2024-07-07T08:52:50.287</time></trkpt><trkpt lat="56.1194148" lon="44.4453919"><time>2024-07-07T08:52:53.280</time></trkpt><trkpt lat="56.1193717" lon="44.4454430"><time>2024-07-07T08:52:56.373</time></trkpt><trkpt lat="56.1193311" lon="44.4454959"><time>2024-07-07T08:52:59.283</time></trkpt><trkpt lat="56.1192968" lon="44.4455516"><time>2024-07-07T08:53:02.290</time></trkpt><trkpt lat="56.1192680" lon="44.4456269"><time>2024-07-07T08:53:06.287</time></trkpt><trkpt lat="56.1192331" lon="44.4456816"><time>2024-07-07T08:53:10.280</time></trkpt><trkpt lat="56.1191937" lon="44.4457205"><time>2024-07-07T08:53:13.283</time></trkpt><trkpt lat="56.1191484" lon="44.4457560"><time>2024-07-07T08:53:16.287</time></trkpt><trkpt lat="56.1191050" lon="44.4457872"><time>2024-07-07T08:53:19.353</time></trkpt><trkpt lat="56.1190509" lon="44.4458150"><time>2024-07-07T08:53:23.287</time></trkpt><trkpt lat="56.1190111" lon="44.4458621"><time>2024-07-07T08:53:26.287</time></trkpt><trkpt lat="56.1189744" lon="44.4459148"><time>2024-07-07T08:53:29.287</time></trkpt><trkpt lat="56.1189329" lon="44.4459812"><time>2024-07-07T08:53:32.287</time></trkpt><trkpt lat="56.1188978" lon="44.4460520"><time>2024-07-07T08:53:35.290</time></trkpt><trkpt lat="56.1188748" lon="44.4461218"><time>2024-07-07T08:53:39.287</time></trkpt><trkpt lat="56.1188298" lon="44.4461699"><time>2024-07-07T08:53:45.287</time></trkpt><trkpt lat="56.1187843" lon="44.4462054"><time>2024-07-07T08:53:50.283</time></trkpt><trkpt lat="56.1187382" lon="44.4462742"><time>2024-07-07T08:53:54.287</time></trkpt><trkpt lat="56.1186983" lon="44.4463322"><time>2024-07-07T08:53:57.287</time></trkpt><trkpt lat="56.1186648" lon="44.4463864"><time>2024-07-07T08:54:00.280</time></trkpt><trkpt lat="56.1186285" lon="44.4464411"><time>2024-07-07T08:54:03.283</time></trkpt><trkpt lat="56.1185829" lon="44.4464952"><time>2024-07-07T08:54:07.287</time></trkpt><trkpt lat="56.1185409" lon="44.4465415"><time>2024-07-07T08:54:10.280</time></trkpt><trkpt lat="56.1184920" lon="44.4465744"><time>2024-07-07T08:54:13.287</time></trkpt><trkpt lat="56.1184402" lon="44.4466107"><time>2024-07-07T08:54:16.283</time></trkpt><trkpt lat="56.1183922" lon="44.4466376"><time>2024-07-07T08:54:19.280</time></trkpt><trkpt lat="56.1183393" lon="44.4466678"><time>2024-07-07T08:54:23.283</time></trkpt><trkpt lat="56.1182964" lon="44.4467418"><time>2024-07-07T08:54:27.357</time></trkpt><trkpt lat="56.1182742" lon="44.4468148"><time>2024-07-07T08:54:30.283</time></trkpt><trkpt lat="56.1182467" lon="44.4468992"><time>2024-07-07T08:54:34.290</time></trkpt><trkpt lat="56.1182156" lon="44.4469718"><time>2024-07-07T08:54:38.297</time></trkpt><trkpt lat="56.1181713" lon="44.4470277"><time>2024-07-07T08:54:43.280</time></trkpt><trkpt lat="56.1181240" lon="44.4470707"><time>2024-07-07T08:54:47.280</time></trkpt><trkpt lat="56.1180793" lon="44.4471142"><time>2024-07-07T08:54:51.283</time></trkpt><trkpt lat="56.1180413" lon="44.4471910"><time>2024-07-07T08:54:55.280</time></trkpt><trkpt lat="56.1180184" lon="44.4472625"><time>2024-07-07T08:54:58.283</time></trkpt><trkpt lat="56.1180020" lon="44.4473547"><time>2024-07-07T08:55:02.283</time></trkpt><trkpt lat="56.1180014" lon="44.4474508"><time>2024-07-07T08:55:07.287</time></trkpt><trkpt lat="56.1179676" lon="44.4475210"><time>2024-07-07T08:55:12.277</time></trkpt><trkpt lat="56.1179132" lon="44.4475084"><time>2024-07-07T08:55:18.287</time></trkpt><trkpt lat="56.1178703" lon="44.4474605"><time>2024-07-07T08:55:22.273</time></trkpt><trkpt lat="56.1179157" lon="44.4475044"><time>2024-07-07T08:55:47.280</time></trkpt><trkpt lat="56.1179449" lon="44.4475866"><time>2024-07-07T08:55:52.287</time></trkpt><trkpt lat="56.1179404" lon="44.4476901"><time>2024-07-07T08:55:56.297</time></trkpt><trkpt lat="56.1179320" lon="44.4477708"><time>2024-07-07T08:55:59.280</time></trkpt><trkpt lat="56.1179193" lon="44.4478490"><time>2024-07-07T08:56:02.273</time></trkpt><trkpt lat="56.1179047" lon="44.4479301"><time>2024-07-07T08:56:05.290</time></trkpt><trkpt lat="56.1178854" lon="44.4480050"><time>2024-07-07T08:56:08.297</time></trkpt><trkpt lat="56.1178643" lon="44.4480904"><time>2024-07-07T08:56:12.287</time></trkpt><trkpt lat="56.1178424" lon="44.4481690"><time>2024-07-07T08:56:15.280</time></trkpt><trkpt lat="56.1178125" lon="44.4482505"><time>2024-07-07T08:56:18.273</time></trkpt><trkpt lat="56.1177919" lon="44.4483313"><time>2024-07-07T08:56:21.277</time></trkpt><trkpt lat="56.1177855" lon="44.4484239"><time>2024-07-07T08:56:25.293</time></trkpt><trkpt lat="56.1177886" lon="44.4485097"><time>2024-07-07T08:56:29.280</time></trkpt><trkpt lat="56.1177848" lon="44.4485970"><time>2024-07-07T08:56:33.287</time></trkpt><trkpt lat="56.1177586" lon="44.4486725"><time>2024-07-07T08:56:37.287</time></trkpt><trkpt lat="56.1177275" lon="44.4487478"><time>2024-07-07T08:56:41.293</time></trkpt><trkpt lat="56.1176943" lon="44.4488232"><time>2024-07-07T08:56:45.290</time></trkpt><trkpt lat="56.1176660" lon="44.4488903"><time>2024-07-07T08:56:48.280</time></trkpt><trkpt lat="56.1176370" lon="44.4489524"><time>2024-07-07T08:56:51.363</time></trkpt><trkpt lat="56.1176063" lon="44.4490365"><time>2024-07-07T08:56:56.277</time></trkpt><trkpt lat="56.1175909" lon="44.4491177"><time>2024-07-07T08:57:02.283</time></trkpt><trkpt lat="56.1175475" lon="44.4491759"><time>2024-07-07T08:57:06.280</time></trkpt><trkpt lat="56.1175010" lon="44.4492189"><time>2024-07-07T08:57:10.280</time></trkpt><trkpt lat="56.1174437" lon="44.4492343"><time>2024-07-07T08:57:14.290</time></trkpt><trkpt lat="56.1173970" lon="44.4492561"><time>2024-07-07T08:57:17.280</time></trkpt><trkpt lat="56.1173474" lon="44.4492649"><time>2024-07-07T08:57:21.287</time></trkpt><trkpt lat="56.1173031" lon="44.4493266"><time>2024-07-07T08:57:26.280</time></trkpt><trkpt lat="56.1172586" lon="44.4493952"><time>2024-07-07T08:57:30.287</time></trkpt><trkpt lat="56.1172249" lon="44.4494536"><time>2024-07-07T08:57:33.287</time></trkpt><trkpt lat="56.1171791" lon="44.4494812"><time>2024-07-07T08:57:36.287</time></trkpt><trkpt lat="56.1171264" lon="44.4495042"><time>2024-07-07T08:57:39.283</time></trkpt><trkpt lat="56.1170713" lon="44.4495299"><time>2024-07-07T08:57:41.287</time></trkpt><trkpt lat="56.1170259" lon="44.4495426"><time>2024-07-07T08:57:43.287</time></trkpt><trkpt lat="56.1169692" lon="44.4495570"><time>2024-07-07T08:57:46.283</time></trkpt><trkpt lat="56.1169239" lon="44.4495565"><time>2024-07-07T08:57:49.280</time></trkpt><trkpt lat="56.1168751" lon="44.4495523"><time>2024-07-07T08:57:52.280</time></trkpt><trkpt lat="56.1168249" lon="44.4495514"><time>2024-07-07T08:57:55.283</time></trkpt><trkpt lat="56.1167743" lon="44.4495467"><time>2024-07-07T08:57:58.283</time></trkpt><trkpt lat="56.1167261" lon="44.4495388"><time>2024-07-07T08:58:01.283</time></trkpt><trkpt lat="56.1166774" lon="44.4494909"><time>2024-07-07T08:58:05.277</time></trkpt><trkpt lat="56.1166463" lon="44.4494144"><time>2024-07-07T08:58:09.287</time></trkpt><trkpt lat="56.1166384" lon="44.4493302"><time>2024-07-07T08:58:13.287</time></trkpt><trkpt lat="56.1166468" lon="44.4492351"><time>2024-07-07T08:58:17.287</time></trkpt><trkpt lat="56.1166618" lon="44.4491544"><time>2024-07-07T08:58:20.283</time></trkpt><trkpt lat="56.1166843" lon="44.4490839"><time>2024-07-07T08:58:23.290</time></trkpt><trkpt lat="56.1167045" lon="44.4490087"><time>2024-07-07T08:58:26.283</time></trkpt><trkpt lat="56.1167182" lon="44.4489230"><time>2024-07-07T08:58:29.287</time></trkpt><trkpt lat="56.1167248" lon="44.4488343"><time>2024-07-07T08:58:32.363</time></trkpt><trkpt lat="56.1167287" lon="44.4487462"><time>2024-07-07T08:58:35.283</time></trkpt><trkpt lat="56.1167309" lon="44.4486419"><time>2024-07-07T08:58:39.287</time></trkpt><trkpt lat="56.1167396" lon="44.4485611"><time>2024-07-07T08:58:42.287</time></trkpt><trkpt lat="56.1167429" lon="44.4484772"><time>2024-07-07T08:58:45.280</time></trkpt><trkpt lat="56.1167503" lon="44.4483716"><time>2024-07-07T08:58:49.283</time></trkpt><trkpt lat="56.1167621" lon="44.4482758"><time>2024-07-07T08:58:53.283</time></trkpt><trkpt lat="56.1167707" lon="44.4481959"><time>2024-07-07T08:58:56.280</time></trkpt><trkpt lat="56.1167841" lon="44.4480924"><time>2024-07-07T08:59:00.280</time></trkpt><trkpt lat="56.1167915" lon="44.4479853"><time>2024-07-07T08:59:04.283</time></trkpt><trkpt lat="56.1167938" lon="44.4479013"><time>2024-07-07T08:59:07.290</time></trkpt><trkpt lat="56.1167939" lon="44.4478059"><time>2024-07-07T08:59:10.290</time></trkpt><trkpt lat="56.1168050" lon="44.4477270"><time>2024-07-07T08:59:13.280</time></trkpt><trkpt lat="56.1168236" lon="44.4476303"><time>2024-07-07T08:59:17.280</time></trkpt><trkpt lat="56.1168406" lon="44.4475440"><time>2024-07-07T08:59:21.297</time></trkpt><trkpt lat="56.1168578" lon="44.4474506"><time>2024-07-07T08:59:25.300</time></trkpt><trkpt lat="56.1168666" lon="44.4473708"><time>2024-07-07T08:59:28.273</time></trkpt><trkpt lat="56.1168817" lon="44.4472739"><time>2024-07-07T08:59:33.287</time></trkpt><trkpt lat="56.1168882" lon="44.4471836"><time>2024-07-07T08:59:37.283</time></trkpt><trkpt lat="56.1168957" lon="44.4470850"><time>2024-07-07T08:59:41.293</time></trkpt><trkpt lat="56.1169037" lon="44.4470052"><time>2024-07-07T08:59:44.277</time></trkpt><trkpt lat="56.1169161" lon="44.4469021"><time>2024-07-07T08:59:48.277</time></trkpt><trkpt lat="56.1169288" lon="44.4468052"><time>2024-07-07T08:59:52.280</time></trkpt><trkpt lat="56.1169381" lon="44.4467103"><time>2024-07-07T08:59:56.280</time></trkpt><trkpt lat="56.1169527" lon="44.4466206"><time>2024-07-07T09:00:00.277</time></trkpt><trkpt lat="56.1169632" lon="44.4465324"><time>2024-07-07T09:00:04.280</time></trkpt><trkpt lat="56.1169787" lon="44.4464372"><time>2024-07-07T09:00:08.287</time></trkpt><trkpt lat="56.1169997" lon="44.4463391"><time>2024-07-07T09:00:12.280</time></trkpt><trkpt lat="56.1170176" lon="44.4462596"><time>2024-07-07T09:00:15.280</time></trkpt><trkpt lat="56.1170336" lon="44.4461813"><time>2024-07-07T09:00:18.280</time></trkpt><trkpt lat="56.1170367" lon="44.4460952"><time>2024-07-07T09:00:21.290</time></trkpt><trkpt lat="56.1170403" lon="44.4459928"><time>2024-07-07T09:00:25.357</time></trkpt><trkpt lat="56.1170412" lon="44.4458996"><time>2024-07-07T09:00:29.290</time></trkpt><trkpt lat="56.1170515" lon="44.4458198"><time>2024-07-07T09:00:33.283</time></trkpt><trkpt lat="56.1170641" lon="44.4457354"><time>2024-07-07T09:00:37.287</time></trkpt><trkpt lat="56.1170701" lon="44.4456465"><time>2024-07-07T09:00:41.283</time></trkpt><trkpt lat="56.1170895" lon="44.4455552"><time>2024-07-07T09:00:45.277</time></trkpt><trkpt lat="56.1171111" lon="44.4454611"><time>2024-07-07T09:00:49.360</time></trkpt><trkpt lat="56.1171272" lon="44.4453719"><time>2024-07-07T09:00:53.367</time></trkpt><trkpt lat="56.1171489" lon="44.4452939"><time>2024-07-07T09:00:57.277</time></trkpt><trkpt lat="56.1171870" lon="44.4452094"><time>2024-07-07T09:01:01.283</time></trkpt><trkpt lat="56.1172134" lon="44.4451440"><time>2024-07-07T09:01:04.283</time></trkpt><trkpt lat="56.1172290" lon="44.4450639"><time>2024-07-07T09:01:07.280</time></trkpt><trkpt lat="56.1172499" lon="44.4449684"><time>2024-07-07T09:01:11.357</time></trkpt><trkpt lat="56.1172629" lon="44.4448831"><time>2024-07-07T09:01:15.347</time></trkpt><trkpt lat="56.1172835" lon="44.4448047"><time>2024-07-07T09:01:18.290</time></trkpt><trkpt lat="56.1172975" lon="44.4447249"><time>2024-07-07T09:01:21.287</time></trkpt><trkpt lat="56.1173300" lon="44.4446422"><time>2024-07-07T09:01:25.287</time></trkpt><trkpt lat="56.1173530" lon="44.4445451"><time>2024-07-07T09:01:29.353</time></trkpt><trkpt lat="56.1173663" lon="44.4444653"><time>2024-07-07T09:01:32.280</time></trkpt><trkpt lat="56.1173711" lon="44.4443721"><time>2024-07-07T09:01:35.287</time></trkpt><trkpt lat="56.1173729" lon="44.4442882"><time>2024-07-07T09:01:38.287</time></trkpt><trkpt lat="56.1173728" lon="44.4441931"><time>2024-07-07T09:01:42.283</time></trkpt><trkpt lat="56.1173863" lon="44.4440959"><time>2024-07-07T09:01:46.287</time></trkpt><trkpt lat="56.1173959" lon="44.4439882"><time>2024-07-07T09:01:50.280</time></trkpt><trkpt lat="56.1174053" lon="44.4438971"><time>2024-07-07T09:01:53.287</time></trkpt><trkpt lat="56.1174194" lon="44.4438160"><time>2024-07-07T09:01:56.317</time></trkpt><trkpt lat="56.1174214" lon="44.4437872"><time>2024-07-07T09:01:57.430</time></trkpt><trkpt lat="56.1174270" lon="44.4436874"><time>2024-07-07T09:02:00.277</time></trkpt><trkpt lat="56.1174306" lon="44.4435815"><time>2024-07-07T09:02:04.363</time></trkpt><trkpt lat="56.1174339" lon="44.4434931"><time>2024-07-07T09:02:07.287</time></trkpt><trkpt lat="56.1174456" lon="44.4434153"><time>2024-07-07T09:02:10.283</time></trkpt><trkpt lat="56.1174650" lon="44.4433367"><time>2024-07-07T09:02:13.353</time></trkpt><trkpt lat="56.1174938" lon="44.4432659"><time>2024-07-07T09:02:17.283</time></trkpt><trkpt lat="56.1175190" lon="44.4431890"><time>2024-07-07T09:02:20.277</time></trkpt><trkpt lat="56.1175369" lon="44.4431080"><time>2024-07-07T09:02:23.367</time></trkpt><trkpt lat="56.1175466" lon="44.4430198"><time>2024-07-07T09:02:26.280</time></trkpt><trkpt lat="56.1175599" lon="44.4429373"><time>2024-07-07T09:02:29.287</time></trkpt><trkpt lat="56.1175862" lon="44.4428486"><time>2024-07-07T09:02:33.280</time></trkpt><trkpt lat="56.1176105" lon="44.4427604"><time>2024-07-07T09:02:37.283</time></trkpt><trkpt lat="56.1176273" lon="44.4426647"><time>2024-07-07T09:02:41.277</time></trkpt><trkpt lat="56.1176354" lon="44.4425719"><time>2024-07-07T09:02:45.283</time></trkpt><trkpt lat="56.1176448" lon="44.4424690"><time>2024-07-07T09:02:49.280</time></trkpt><trkpt lat="56.1176792" lon="44.4423940"><time>2024-07-07T09:02:53.280</time></trkpt><trkpt lat="56.1177181" lon="44.4423100"><time>2024-07-07T09:02:57.277</time></trkpt><trkpt lat="56.1177383" lon="44.4422325"><time>2024-07-07T09:03:00.280</time></trkpt><trkpt lat="56.1177510" lon="44.4421459"><time>2024-07-07T09:03:03.350</time></trkpt><trkpt lat="56.1177664" lon="44.4420661"><time>2024-07-07T09:03:06.277</time></trkpt><trkpt lat="56.1177768" lon="44.4419733"><time>2024-07-07T09:03:09.290</time></trkpt><trkpt lat="56.1177873" lon="44.4418876"><time>2024-07-07T09:03:12.280</time></trkpt><trkpt lat="56.1177974" lon="44.4417911"><time>2024-07-07T09:03:16.287</time></trkpt><trkpt lat="56.1178087" lon="44.4416983"><time>2024-07-07T09:03:20.280</time></trkpt><trkpt lat="56.1178294" lon="44.4416148"><time>2024-07-07T09:03:24.280</time></trkpt><trkpt lat="56.1178406" lon="44.4415163"><time>2024-07-07T09:03:28.353</time></trkpt><trkpt lat="56.1178523" lon="44.4414163"><time>2024-07-07T09:03:32.280</time></trkpt><trkpt lat="56.1178851" lon="44.4413330"><time>2024-07-07T09:03:36.277</time></trkpt><trkpt lat="56.1179233" lon="44.4412540"><time>2024-07-07T09:03:40.283</time></trkpt><trkpt lat="56.1179508" lon="44.4411684"><time>2024-07-07T09:03:44.280</time></trkpt><trkpt lat="56.1179767" lon="44.4410750"><time>2024-07-07T09:03:48.283</time></trkpt><trkpt lat="56.1179998" lon="44.4409988"><time>2024-07-07T09:03:52.273</time></trkpt><trkpt lat="56.1180326" lon="44.4409092"><time>2024-07-07T09:03:56.277</time></trkpt><trkpt lat="56.1180549" lon="44.4408343"><time>2024-07-07T09:03:59.290</time></trkpt><trkpt lat="56.1180733" lon="44.4407509"><time>2024-07-07T09:04:02.277</time></trkpt><trkpt lat="56.1180862" lon="44.4406702"><time>2024-07-07T09:04:05.280</time></trkpt><trkpt lat="56.1180920" lon="44.4405767"><time>2024-07-07T09:04:09.280</time></trkpt><trkpt lat="56.1180878" lon="44.4404939"><time>2024-07-07T09:04:12.277</time></trkpt><trkpt lat="56.1181151" lon="44.4404064"><time>2024-07-07T09:04:16.283</time></trkpt><trkpt lat="56.1181548" lon="44.4403640"><time>2024-07-07T09:04:19.280</time></trkpt><trkpt lat="56.1181937" lon="44.4403219"><time>2024-07-07T09:04:22.280</time></trkpt><trkpt lat="56.1182316" lon="44.4402760"><time>2024-07-07T09:04:25.290</time></trkpt><trkpt lat="56.1182644" lon="44.4401903"><time>2024-07-07T09:04:29.277</time></trkpt><trkpt lat="56.1182688" lon="44.4400905"><time>2024-07-07T09:04:32.360</time></trkpt><trkpt lat="56.1182519" lon="44.4399981"><time>2024-07-07T09:04:36.287</time></trkpt><trkpt lat="56.1182527" lon="44.4399120"><time>2024-07-07T09:04:41.287</time></trkpt><trkpt lat="56.1182769" lon="44.4398406"><time>2024-07-07T09:04:45.293</time></trkpt><trkpt lat="56.1183098" lon="44.4397583"><time>2024-07-07T09:04:50.363</time></trkpt><trkpt lat="56.1183309" lon="44.4396862"><time>2024-07-07T09:04:53.280</time></trkpt><trkpt lat="56.1183504" lon="44.4395874"><time>2024-07-07T09:04:57.267</time></trkpt><trkpt lat="56.1183760" lon="44.4395023"><time>2024-07-07T09:05:00.280</time></trkpt><trkpt lat="56.1184029" lon="44.4394246"><time>2024-07-07T09:05:03.280</time></trkpt><trkpt lat="56.1184257" lon="44.4393344"><time>2024-07-07T09:05:06.277</time></trkpt><trkpt lat="56.1184519" lon="44.4392480"><time>2024-07-07T09:05:09.270</time></trkpt><trkpt lat="56.1184764" lon="44.4391770"><time>2024-07-07T09:05:12.363</time></trkpt><trkpt lat="56.1185081" lon="44.4390886"><time>2024-07-07T09:05:16.363</time></trkpt><trkpt lat="56.1185250" lon="44.4390102"><time>2024-07-07T09:05:19.287</time></trkpt><trkpt lat="56.1185367" lon="44.4389254"><time>2024-07-07T09:05:22.277</time></trkpt><trkpt lat="56.1185619" lon="44.4388498"><time>2024-07-07T09:05:25.287</time></trkpt><trkpt lat="56.1185782" lon="44.4387722"><time>2024-07-07T09:05:28.293</time></trkpt><trkpt lat="56.1185858" lon="44.4387600"><time>2024-07-07T09:05:29.427</time></trkpt><trkpt lat="56.1186108" lon="44.4386770"><time>2024-07-07T09:05:32.277</time></trkpt><trkpt lat="56.1186278" lon="44.4385988"><time>2024-07-07T09:05:35.280</time></trkpt><trkpt lat="56.1186337" lon="44.4385037"><time>2024-07-07T09:05:38.287</time></trkpt><trkpt lat="56.1186449" lon="44.4384135"><time>2024-07-07T09:05:41.283</time></trkpt><trkpt lat="56.1186512" lon="44.4383274"><time>2024-07-07T09:05:44.353</time></trkpt><trkpt lat="56.1186709" lon="44.4382240"><time>2024-07-07T09:05:48.280</time></trkpt><trkpt lat="56.1186955" lon="44.4381396"><time>2024-07-07T09:05:51.283</time></trkpt><trkpt lat="56.1187234" lon="44.4380727"><time>2024-07-07T09:05:54.280</time></trkpt><trkpt lat="56.1187515" lon="44.4379870"><time>2024-07-07T09:05:58.280</time></trkpt><trkpt lat="56.1187596" lon="44.4379043"><time>2024-07-07T09:06:01.283</time></trkpt><trkpt lat="56.1187651" lon="44.4378165"><time>2024-07-07T09:06:04.280</time></trkpt><trkpt lat="56.1187749" lon="44.4377236"><time>2024-07-07T09:06:07.280</time></trkpt><trkpt lat="56.1188054" lon="44.4376306"><time>2024-07-07T09:06:11.287</time></trkpt><trkpt lat="56.1188316" lon="44.4375570"><time>2024-07-07T09:06:14.280</time></trkpt><trkpt lat="56.1188652" lon="44.4375022"><time>2024-07-07T09:06:17.280</time></trkpt><trkpt lat="56.1188799" lon="44.4374122"><time>2024-07-07T09:06:21.280</time></trkpt><trkpt lat="56.1188960" lon="44.4373286"><time>2024-07-07T09:06:24.287</time></trkpt><trkpt lat="56.1189158" lon="44.4372391"><time>2024-07-07T09:06:27.280</time></trkpt><trkpt lat="56.1189309" lon="44.4371474"><time>2024-07-07T09:06:30.277</time></trkpt><trkpt lat="56.1189486" lon="44.4370634"><time>2024-07-07T09:06:33.280</time></trkpt><trkpt lat="56.1189773" lon="44.4369766"><time>2024-07-07T09:06:37.283</time></trkpt><trkpt lat="56.1190141" lon="44.4368973"><time>2024-07-07T09:06:41.280</time></trkpt><trkpt lat="56.1190404" lon="44.4368174"><time>2024-07-07T09:06:45.280</time></trkpt><trkpt lat="56.1190482" lon="44.4367355"><time>2024-07-07T09:06:49.350</time></trkpt><trkpt lat="56.1190385" lon="44.4366525"><time>2024-07-07T09:06:53.280</time></trkpt><trkpt lat="56.1190228" lon="44.4365646"><time>2024-07-07T09:06:58.283</time></trkpt><trkpt lat="56.1190119" lon="44.4364818"><time>2024-07-07T09:07:02.280</time></trkpt><trkpt lat="56.1190200" lon="44.4364024"><time>2024-07-07T09:07:06.277</time></trkpt><trkpt lat="56.1190389" lon="44.4363204"><time>2024-07-07T09:07:10.277</time></trkpt><trkpt lat="56.1190647" lon="44.4362239"><time>2024-07-07T09:07:14.357</time></trkpt><trkpt lat="56.1190833" lon="44.4361498"><time>2024-07-07T09:07:17.280</time></trkpt><trkpt lat="56.1191061" lon="44.4360758"><time>2024-07-07T09:07:20.280</time></trkpt><trkpt lat="56.1191294" lon="44.4359951"><time>2024-07-07T09:07:23.347</time></trkpt><trkpt lat="56.1191472" lon="44.4359112"><time>2024-07-07T09:07:26.280</time></trkpt><trkpt lat="56.1191674" lon="44.4358366"><time>2024-07-07T09:07:29.280</time></trkpt><trkpt lat="56.1191988" lon="44.4357662"><time>2024-07-07T09:07:33.280</time></trkpt><trkpt lat="56.1192348" lon="44.4357148"><time>2024-07-07T09:07:36.353</time></trkpt><trkpt lat="56.1192570" lon="44.4356239"><time>2024-07-07T09:07:40.277</time></trkpt><trkpt lat="56.1192654" lon="44.4355368"><time>2024-07-07T09:07:44.280</time></trkpt><trkpt lat="56.1192661" lon="44.4354340"><time>2024-07-07T09:07:48.277</time></trkpt><trkpt lat="56.1192862" lon="44.4353339"><time>2024-07-07T09:07:52.277</time></trkpt><trkpt lat="56.1192946" lon="44.4352495"><time>2024-07-07T09:07:55.283</time></trkpt><trkpt lat="56.1193190" lon="44.4351451"><time>2024-07-07T09:07:59.280</time></trkpt><trkpt lat="56.1193369" lon="44.4350651"><time>2024-07-07T09:08:02.277</time></trkpt><trkpt lat="56.1193617" lon="44.4349883"><time>2024-07-07T09:08:05.280</time></trkpt><trkpt lat="56.1193786" lon="44.4348929"><time>2024-07-07T09:08:08.277</time></trkpt><trkpt lat="56.1194001" lon="44.4348037"><time>2024-07-07T09:08:11.280</time></trkpt><trkpt lat="56.1194265" lon="44.4347236"><time>2024-07-07T09:08:14.273</time></trkpt><trkpt lat="56.1194539" lon="44.4346592"><time>2024-07-07T09:08:17.277</time></trkpt><trkpt lat="56.1194819" lon="44.4345940"><time>2024-07-07T09:08:20.273</time></trkpt><trkpt lat="56.1195082" lon="44.4345257"><time>2024-07-07T09:08:23.273</time></trkpt><trkpt lat="56.1195292" lon="44.4344432"><time>2024-07-07T09:08:26.277</time></trkpt><trkpt lat="56.1195517" lon="44.4343541"><time>2024-07-07T09:08:29.287</time></trkpt><trkpt lat="56.1195717" lon="44.4342730"><time>2024-07-07T09:08:32.280</time></trkpt><trkpt lat="56.1195979" lon="44.4341991"><time>2024-07-07T09:08:35.280</time></trkpt><trkpt lat="56.1196376" lon="44.4341158"><time>2024-07-07T09:08:39.277</time></trkpt><trkpt lat="56.1196630" lon="44.4340464"><time>2024-07-07T09:08:42.287</time></trkpt><trkpt lat="56.1196887" lon="44.4339749"><time>2024-07-07T09:08:45.277</time></trkpt><trkpt lat="56.1197145" lon="44.4338975"><time>2024-07-07T09:08:48.280</time></trkpt><trkpt lat="56.1197392" lon="44.4338099"><time>2024-07-07T09:08:51.280</time></trkpt><trkpt lat="56.1197568" lon="44.4337260"><time>2024-07-07T09:08:54.277</time></trkpt><trkpt lat="56.1197795" lon="44.4336502"><time>2024-07-07T09:08:57.277</time></trkpt><trkpt lat="56.1197942" lon="44.4335717"><time>2024-07-07T09:09:00.277</time></trkpt><trkpt lat="56.1198142" lon="44.4334765"><time>2024-07-07T09:09:03.277</time></trkpt><trkpt lat="56.1198342" lon="44.4333826"><time>2024-07-07T09:09:06.277</time></trkpt><trkpt lat="56.1198602" lon="44.4332891"><time>2024-07-07T09:09:09.277</time></trkpt><trkpt lat="56.1198890" lon="44.4332198"><time>2024-07-07T09:09:12.277</time></trkpt><trkpt lat="56.1199154" lon="44.4331451"><time>2024-07-07T09:09:15.277</time></trkpt><trkpt lat="56.1199447" lon="44.4330707"><time>2024-07-07T09:09:18.293</time></trkpt><trkpt lat="56.1199607" lon="44.4330469"><time>2024-07-07T09:09:19.403</time></trkpt><trkpt lat="56.1199803" lon="44.4329494"><time>2024-07-07T09:09:21.277</time></trkpt><trkpt lat="56.1199990" lon="44.4328595"><time>2024-07-07T09:09:24.280</time></trkpt><trkpt lat="56.1200203" lon="44.4327871"><time>2024-07-07T09:09:27.277</time></trkpt><trkpt lat="56.1200444" lon="44.4326973"><time>2024-07-07T09:09:31.277</time></trkpt><trkpt lat="56.1200534" lon="44.4326033"><time>2024-07-07T09:09:34.277</time></trkpt><trkpt lat="56.1200620" lon="44.4325207"><time>2024-07-07T09:09:37.280</time></trkpt><trkpt lat="56.1200963" lon="44.4324547"><time>2024-07-07T09:09:41.350</time></trkpt><trkpt lat="56.1201357" lon="44.4323726"><time>2024-07-07T09:09:45.357</time></trkpt><trkpt lat="56.1201704" lon="44.4322984"><time>2024-07-07T09:09:48.277</time></trkpt><trkpt lat="56.1202025" lon="44.4322393"><time>2024-07-07T09:09:51.273</time></trkpt><trkpt lat="56.1202294" lon="44.4321607"><time>2024-07-07T09:09:55.283</time></trkpt><trkpt lat="56.1202605" lon="44.4320687"><time>2024-07-07T09:09:59.270</time></trkpt><trkpt lat="56.1202905" lon="44.4319997"><time>2024-07-07T09:10:02.273</time></trkpt><trkpt lat="56.1203152" lon="44.4319250"><time>2024-07-07T09:10:05.277</time></trkpt><trkpt lat="56.1203395" lon="44.4318425"><time>2024-07-07T09:10:09.273</time></trkpt><trkpt lat="56.1203621" lon="44.4317631"><time>2024-07-07T09:10:13.273</time></trkpt><trkpt lat="56.1203952" lon="44.4316999"><time>2024-07-07T09:10:17.307</time></trkpt><trkpt lat="56.1204001" lon="44.4316848"><time>2024-07-07T09:10:18.427</time></trkpt><trkpt lat="56.1204148" lon="44.4315875"><time>2024-07-07T09:10:21.270</time></trkpt><trkpt lat="56.1204348" lon="44.4315115"><time>2024-07-07T09:10:24.280</time></trkpt><trkpt lat="56.1204700" lon="44.4314253"><time>2024-07-07T09:10:28.290</time></trkpt><trkpt lat="56.1205132" lon="44.4313793"><time>2024-07-07T09:10:31.273</time></trkpt><trkpt lat="56.1205443" lon="44.4313190"><time>2024-07-07T09:10:34.350</time></trkpt><trkpt lat="56.1205889" lon="44.4312517"><time>2024-07-07T09:10:38.350</time></trkpt><trkpt lat="56.1206319" lon="44.4311826"><time>2024-07-07T09:10:42.277</time></trkpt><trkpt lat="56.1206717" lon="44.4311049"><time>2024-07-07T09:10:46.267</time></trkpt><trkpt lat="56.1206946" lon="44.4310254"><time>2024-07-07T09:10:49.273</time></trkpt><trkpt lat="56.1207091" lon="44.4309390"><time>2024-07-07T09:10:52.300</time></trkpt><trkpt lat="56.1207054" lon="44.4308473"><time>2024-07-07T09:10:54.263</time></trkpt><trkpt lat="56.1207146" lon="44.4307596"><time>2024-07-07T09:10:57.277</time></trkpt><trkpt lat="56.1207356" lon="44.4306659"><time>2024-07-07T09:11:01.273</time></trkpt><trkpt lat="56.1207527" lon="44.4305906"><time>2024-07-07T09:11:04.273</time></trkpt><trkpt lat="56.1207846" lon="44.4305128"><time>2024-07-07T09:11:08.273</time></trkpt><trkpt lat="56.1208221" lon="44.4304257"><time>2024-07-07T09:11:12.270</time></trkpt><trkpt lat="56.1208454" lon="44.4303538"><time>2024-07-07T09:11:15.277</time></trkpt><trkpt lat="56.1208655" lon="44.4302707"><time>2024-07-07T09:11:18.277</time></trkpt><trkpt lat="56.1208900" lon="44.4301900"><time>2024-07-07T09:11:21.350</time></trkpt><trkpt lat="56.1209185" lon="44.4301151"><time>2024-07-07T09:11:24.280</time></trkpt><trkpt lat="56.1209598" lon="44.4300368"><time>2024-07-07T09:11:28.273</time></trkpt><trkpt lat="56.1209944" lon="44.4299738"><time>2024-07-07T09:11:31.277</time></trkpt><trkpt lat="56.1210252" lon="44.4299101"><time>2024-07-07T09:11:34.277</time></trkpt><trkpt lat="56.1210588" lon="44.4298461"><time>2024-07-07T09:11:37.293</time></trkpt><trkpt lat="56.1210642" lon="44.4298200"><time>2024-07-07T09:11:38.400</time></trkpt><trkpt lat="56.1210935" lon="44.4297471"><time>2024-07-07T09:11:41.270</time></trkpt><trkpt lat="56.1211508" lon="44.4297337"><time>2024-07-07T09:11:45.270</time></trkpt><trkpt lat="56.1211959" lon="44.4296906"><time>2024-07-07T09:11:50.270</time></trkpt><trkpt lat="56.1211841" lon="44.4296121"><time>2024-07-07T09:11:58.277</time></trkpt><trkpt lat="56.1211307" lon="44.4295741"><time>2024-07-07T09:12:05.277</time></trkpt><trkpt lat="56.1210837" lon="44.4295871"><time>2024-07-07T09:12:13.273</time></trkpt><trkpt lat="56.1210423" lon="44.4296338"><time>2024-07-07T09:12:21.277</time></trkpt><trkpt lat="56.1209959" lon="44.4296807"><time>2024-07-07T09:12:30.273</time></trkpt><trkpt lat="56.1209575" lon="44.4297508"><time>2024-07-07T09:12:34.290</time></trkpt><trkpt lat="56.1209481" lon="44.4297826"><time>2024-07-07T09:12:35.417</time></trkpt><trkpt lat="56.1209156" lon="44.4298397"><time>2024-07-07T09:12:39.273</time></trkpt><trkpt lat="56.1208885" lon="44.4299195"><time>2024-07-07T09:12:44.277</time></trkpt><trkpt lat="56.1208659" lon="44.4299922"><time>2024-07-07T09:12:50.273</time></trkpt><trkpt lat="56.1208308" lon="44.4300567"><time>2024-07-07T09:12:57.273</time></trkpt><trkpt lat="56.1207909" lon="44.4301038"><time>2024-07-07T09:13:02.370</time></trkpt><trkpt lat="56.1207909" lon="44.4301038"><time>2024-07-07T09:13:02.417</time></trkpt><trkpt lat="56.1207534" lon="44.4301732"><time>2024-07-07T09:13:08.313</time></trkpt><trkpt lat="56.1207480" lon="44.4301970"><time>2024-07-07T09:13:09.443</time></trkpt><trkpt lat="56.1207007" lon="44.4302570"><time>2024-07-07T09:13:12.277</time></trkpt><trkpt lat="56.1206763" lon="44.4303325"><time>2024-07-07T09:13:15.277</time></trkpt><trkpt lat="56.1206544" lon="44.4304161"><time>2024-07-07T09:13:18.277</time></trkpt><trkpt lat="56.1206389" lon="44.4304988"><time>2024-07-07T09:13:23.353</time></trkpt><trkpt lat="56.1205974" lon="44.4305709"><time>2024-07-07T09:13:27.277</time></trkpt><trkpt lat="56.1205576" lon="44.4306376"><time>2024-07-07T09:13:30.273</time></trkpt><trkpt lat="56.1205308" lon="44.4307090"><time>2024-07-07T09:13:33.277</time></trkpt><trkpt lat="56.1205236" lon="44.4307916"><time>2024-07-07T09:13:36.277</time></trkpt><trkpt lat="56.1205208" lon="44.4308819"><time>2024-07-07T09:13:39.283</time></trkpt><trkpt lat="56.1205326" lon="44.4309760"><time>2024-07-07T09:13:42.277</time></trkpt><trkpt lat="56.1205327" lon="44.4310576"><time>2024-07-07T09:13:45.277</time></trkpt><trkpt lat="56.1205047" lon="44.4311232"><time>2024-07-07T09:13:48.347</time></trkpt><trkpt lat="56.1204565" lon="44.4311836"><time>2024-07-07T09:13:52.353</time></trkpt><trkpt lat="56.1204150" lon="44.4312575"><time>2024-07-07T09:13:57.287</time></trkpt><trkpt lat="56.1203706" lon="44.4313218"><time>2024-07-07T09:14:01.277</time></trkpt><trkpt lat="56.1203383" lon="44.4313947"><time>2024-07-07T09:14:06.270</time></trkpt><trkpt lat="56.1203237" lon="44.4314789"><time>2024-07-07T09:14:12.280</time></trkpt><trkpt lat="56.1203266" lon="44.4315674"><time>2024-07-07T09:14:20.277</time></trkpt><trkpt lat="56.1203249" lon="44.4316531"><time>2024-07-07T09:14:27.277</time></trkpt><trkpt lat="56.1203574" lon="44.4317189"><time>2024-07-07T09:14:38.350</time></trkpt><trkpt lat="56.1203827" lon="44.4318015"><time>2024-07-07T09:14:45.270</time></trkpt><trkpt lat="56.1203874" lon="44.4318827"><time>2024-07-07T09:14:51.273</time></trkpt><trkpt lat="56.1203723" lon="44.4319594"><time>2024-07-07T09:14:59.270</time></trkpt><trkpt lat="56.1203645" lon="44.4320439"><time>2024-07-07T09:15:22.270</time></trkpt><trkpt lat="56.1203432" lon="44.4321237"><time>2024-07-07T09:15:33.273</time></trkpt><trkpt lat="56.1203112" lon="44.4321807"><time>2024-07-07T09:15:39.283</time></trkpt><trkpt lat="56.1202612" lon="44.4321652"><time>2024-07-07T09:16:09.277</time></trkpt><trkpt lat="56.1202110" lon="44.4321839"><time>2024-07-07T09:16:14.273</time></trkpt><trkpt lat="56.1201691" lon="44.4322155"><time>2024-07-07T09:16:18.277</time></trkpt><trkpt lat="56.1201271" lon="44.4322475"><time>2024-07-07T09:16:22.277</time></trkpt><trkpt lat="56.1200965" lon="44.4323192"><time>2024-07-07T09:16:25.277</time></trkpt><trkpt lat="56.1200730" lon="44.4323934"><time>2024-07-07T09:16:28.273</time></trkpt><trkpt lat="56.1200463" lon="44.4324631"><time>2024-07-07T09:16:31.280</time></trkpt><trkpt lat="56.1200217" lon="44.4325381"><time>2024-07-07T09:16:34.273</time></trkpt><trkpt lat="56.1199906" lon="44.4326182"><time>2024-07-07T09:16:37.350</time></trkpt><trkpt lat="56.1199533" lon="44.4326733"><time>2024-07-07T09:16:40.277</time></trkpt><trkpt lat="56.1199087" lon="44.4327228"><time>2024-07-07T09:16:43.273</time></trkpt><trkpt lat="56.1198646" lon="44.4327639"><time>2024-07-07T09:16:46.273</time></trkpt><trkpt lat="56.1198190" lon="44.4328042"><time>2024-07-07T09:16:49.277</time></trkpt><trkpt lat="56.1197756" lon="44.4328743"><time>2024-07-07T09:16:53.280</time></trkpt><trkpt lat="56.1197514" lon="44.4329488"><time>2024-07-07T09:16:56.353</time></trkpt><trkpt lat="56.1197347" lon="44.4330420"><time>2024-07-07T09:16:59.277</time></trkpt><trkpt lat="56.1197256" lon="44.4331340"><time>2024-07-07T09:17:02.277</time></trkpt><trkpt lat="56.1197235" lon="44.4332157"><time>2024-07-07T09:17:05.277</time></trkpt><trkpt lat="56.1197233" lon="44.4333189"><time>2024-07-07T09:17:09.277</time></trkpt><trkpt lat="56.1197060" lon="44.4334120"><time>2024-07-07T09:17:12.277</time></trkpt><trkpt lat="56.1196708" lon="44.4335144"><time>2024-07-07T09:17:15.280</time></trkpt><trkpt lat="56.1196468" lon="44.4335980"><time>2024-07-07T09:17:18.273</time></trkpt><trkpt lat="56.1196205" lon="44.4336861"><time>2024-07-07T09:17:21.280</time></trkpt><trkpt lat="56.1195957" lon="44.4337677"><time>2024-07-07T09:17:24.277</time></trkpt><trkpt lat="56.1195782" lon="44.4338520"><time>2024-07-07T09:17:27.280</time></trkpt><trkpt lat="56.1195591" lon="44.4339507"><time>2024-07-07T09:17:30.277</time></trkpt><trkpt lat="56.1195504" lon="44.4340412"><time>2024-07-07T09:17:33.280</time></trkpt><trkpt lat="56.1195320" lon="44.4341352"><time>2024-07-07T09:17:36.277</time></trkpt><trkpt lat="56.1195088" lon="44.4342191"><time>2024-07-07T09:17:39.277</time></trkpt><trkpt lat="56.1194768" lon="44.4343024"><time>2024-07-07T09:17:43.273</time></trkpt><trkpt lat="56.1194474" lon="44.4343812"><time>2024-07-07T09:17:46.277</time></trkpt><trkpt lat="56.1194171" lon="44.4344674"><time>2024-07-07T09:17:49.283</time></trkpt><trkpt lat="56.1193918" lon="44.4345621"><time>2024-07-07T09:17:53.280</time></trkpt><trkpt lat="56.1193674" lon="44.4346441"><time>2024-07-07T09:17:56.350</time></trkpt><trkpt lat="56.1193456" lon="44.4347227"><time>2024-07-07T09:17:59.277</time></trkpt><trkpt lat="56.1193168" lon="44.4348295"><time>2024-07-07T09:18:02.280</time></trkpt><trkpt lat="56.1192924" lon="44.4349217"><time>2024-07-07T09:18:05.280</time></trkpt><trkpt lat="56.1192686" lon="44.4350108"><time>2024-07-07T09:18:08.273</time></trkpt><trkpt lat="56.1192363" lon="44.4351050"><time>2024-07-07T09:18:11.353</time></trkpt><trkpt lat="56.1192080" lon="44.4351930"><time>2024-07-07T09:18:14.273</time></trkpt><trkpt lat="56.1191962" lon="44.4352841"><time>2024-07-07T09:18:18.353</time></trkpt><trkpt lat="56.1191861" lon="44.4353643"><time>2024-07-07T09:18:21.280</time></trkpt><trkpt lat="56.1191726" lon="44.4354509"><time>2024-07-07T09:18:24.277</time></trkpt><trkpt lat="56.1191645" lon="44.4355378"><time>2024-07-07T09:18:27.283</time></trkpt><trkpt lat="56.1191574" lon="44.4356403"><time>2024-07-07T09:18:30.280</time></trkpt><trkpt lat="56.1191484" lon="44.4357378"><time>2024-07-07T09:18:33.277</time></trkpt><trkpt lat="56.1191253" lon="44.4358327"><time>2024-07-07T09:18:36.353</time></trkpt><trkpt lat="56.1190934" lon="44.4359180"><time>2024-07-07T09:18:39.277</time></trkpt><trkpt lat="56.1190584" lon="44.4360043"><time>2024-07-07T09:18:42.277</time></trkpt><trkpt lat="56.1190281" lon="44.4360847"><time>2024-07-07T09:18:45.277</time></trkpt><trkpt lat="56.1189904" lon="44.4361744"><time>2024-07-07T09:18:48.357</time></trkpt><trkpt lat="56.1189624" lon="44.4362644"><time>2024-07-07T09:18:52.277</time></trkpt><trkpt lat="56.1189439" lon="44.4363634"><time>2024-07-07T09:18:56.277</time></trkpt><trkpt lat="56.1189305" lon="44.4364411"><time>2024-07-07T09:18:59.283</time></trkpt><trkpt lat="56.1189147" lon="44.4365250"><time>2024-07-07T09:19:02.277</time></trkpt><trkpt lat="56.1188883" lon="44.4366115"><time>2024-07-07T09:19:05.360</time></trkpt><trkpt lat="56.1188674" lon="44.4367017"><time>2024-07-07T09:19:08.277</time></trkpt><trkpt lat="56.1188551" lon="44.4367925"><time>2024-07-07T09:19:11.277</time></trkpt><trkpt lat="56.1188493" lon="44.4368944"><time>2024-07-07T09:19:15.280</time></trkpt><trkpt lat="56.1188357" lon="44.4369904"><time>2024-07-07T09:19:19.270</time></trkpt><trkpt lat="56.1188072" lon="44.4370706"><time>2024-07-07T09:19:22.277</time></trkpt><trkpt lat="56.1187728" lon="44.4371427"><time>2024-07-07T09:19:25.273</time></trkpt><trkpt lat="56.1187421" lon="44.4372190"><time>2024-07-07T09:19:28.273</time></trkpt><trkpt lat="56.1187177" lon="44.4372883"><time>2024-07-07T09:19:31.273</time></trkpt><trkpt lat="56.1186913" lon="44.4373720"><time>2024-07-07T09:19:35.273</time></trkpt><trkpt lat="56.1186678" lon="44.4374624"><time>2024-07-07T09:19:39.277</time></trkpt><trkpt lat="56.1186565" lon="44.4375452"><time>2024-07-07T09:19:42.273</time></trkpt><trkpt lat="56.1186396" lon="44.4376307"><time>2024-07-07T09:19:45.273</time></trkpt><trkpt lat="56.1186198" lon="44.4377228"><time>2024-07-07T09:19:48.273</time></trkpt><trkpt lat="56.1185915" lon="44.4378157"><time>2024-07-07T09:19:51.277</time></trkpt><trkpt lat="56.1185545" lon="44.4378959"><time>2024-07-07T09:19:54.273</time></trkpt><trkpt lat="56.1185233" lon="44.4379662"><time>2024-07-07T09:19:57.277</time></trkpt><trkpt lat="56.1184976" lon="44.4380380"><time>2024-07-07T09:20:00.273</time></trkpt><trkpt lat="56.1184772" lon="44.4381214"><time>2024-07-07T09:20:03.277</time></trkpt><trkpt lat="56.1184542" lon="44.4382174"><time>2024-07-07T09:20:07.280</time></trkpt><trkpt lat="56.1184324" lon="44.4382881"><time>2024-07-07T09:20:10.277</time></trkpt><trkpt lat="56.1184152" lon="44.4383701"><time>2024-07-07T09:20:15.273</time></trkpt><trkpt lat="56.1183812" lon="44.4384277"><time>2024-07-07T09:20:19.347</time></trkpt><trkpt lat="56.1183501" lon="44.4384935"><time>2024-07-07T09:20:23.270</time></trkpt><trkpt lat="56.1183241" lon="44.4385660"><time>2024-07-07T09:20:26.277</time></trkpt><trkpt lat="56.1182971" lon="44.4386672"><time>2024-07-07T09:20:29.273</time></trkpt><trkpt lat="56.1182673" lon="44.4387646"><time>2024-07-07T09:20:32.277</time></trkpt><trkpt lat="56.1182477" lon="44.4388374"><time>2024-07-07T09:20:34.273</time></trkpt><trkpt lat="56.1182226" lon="44.4389269"><time>2024-07-07T09:20:37.273</time></trkpt><trkpt lat="56.1181876" lon="44.4390042"><time>2024-07-07T09:20:40.277</time></trkpt><trkpt lat="56.1181488" lon="44.4390479"><time>2024-07-07T09:20:43.277</time></trkpt><trkpt lat="56.1180896" lon="44.4390995"><time>2024-07-07T09:20:46.310</time></trkpt><trkpt lat="56.1180648" lon="44.4391057"><time>2024-07-07T09:20:47.447</time></trkpt><trkpt lat="56.1180498" lon="44.4391192"><time>2024-07-07T09:20:48.570</time></trkpt><trkpt lat="56.1179996" lon="44.4391706"><time>2024-07-07T09:20:51.270</time></trkpt><trkpt lat="56.1179479" lon="44.4392128"><time>2024-07-07T09:20:55.277</time></trkpt><trkpt lat="56.1178947" lon="44.4392585"><time>2024-07-07T09:20:58.280</time></trkpt><trkpt lat="56.1178442" lon="44.4393133"><time>2024-07-07T09:21:01.273</time></trkpt><trkpt lat="56.1177931" lon="44.4393492"><time>2024-07-07T09:21:05.273</time></trkpt><trkpt lat="56.1177380" lon="44.4393583"><time>2024-07-07T09:21:09.277</time></trkpt><trkpt lat="56.1176912" lon="44.4393783"><time>2024-07-07T09:21:12.353</time></trkpt><trkpt lat="56.1176414" lon="44.4393813"><time>2024-07-07T09:21:16.270</time></trkpt><trkpt lat="56.1175956" lon="44.4393854"><time>2024-07-07T09:21:19.273</time></trkpt><trkpt lat="56.1175381" lon="44.4394157"><time>2024-07-07T09:21:23.273</time></trkpt><trkpt lat="56.1174919" lon="44.4394691"><time>2024-07-07T09:21:27.273</time></trkpt><trkpt lat="56.1174572" lon="44.4395333"><time>2024-07-07T09:21:32.273</time></trkpt><trkpt lat="56.1174264" lon="44.4395974"><time>2024-07-07T09:21:35.277</time></trkpt><trkpt lat="56.1173929" lon="44.4396880"><time>2024-07-07T09:21:39.707</time></trkpt><trkpt lat="56.1173622" lon="44.4397648"><time>2024-07-07T09:21:42.277</time></trkpt><trkpt lat="56.1173299" lon="44.4398216"><time>2024-07-07T09:21:45.350</time></trkpt><trkpt lat="56.1172987" lon="44.4398832"><time>2024-07-07T09:21:48.273</time></trkpt><trkpt lat="56.1172689" lon="44.4399505"><time>2024-07-07T09:21:52.273</time></trkpt><trkpt lat="56.1172329" lon="44.4400043"><time>2024-07-07T09:21:56.347</time></trkpt><trkpt lat="56.1171851" lon="44.4400580"><time>2024-07-07T09:22:00.270</time></trkpt><trkpt lat="56.1171444" lon="44.4401144"><time>2024-07-07T09:22:04.277</time></trkpt><trkpt lat="56.1171028" lon="44.4401557"><time>2024-07-07T09:22:07.273</time></trkpt><trkpt lat="56.1170529" lon="44.4401895"><time>2024-07-07T09:22:10.277</time></trkpt><trkpt lat="56.1170016" lon="44.4402334"><time>2024-07-07T09:22:14.277</time></trkpt><trkpt lat="56.1169567" lon="44.4402536"><time>2024-07-07T09:22:17.273</time></trkpt><trkpt lat="56.1169020" lon="44.4403110"><time>2024-07-07T09:22:20.273</time></trkpt><trkpt lat="56.1168602" lon="44.4403522"><time>2024-07-07T09:22:23.280</time></trkpt><trkpt lat="56.1168063" lon="44.4403604"><time>2024-07-07T09:22:27.273</time></trkpt><trkpt lat="56.1167499" lon="44.4403492"><time>2024-07-07T09:22:32.280</time></trkpt><trkpt lat="56.1166979" lon="44.4403346"><time>2024-07-07T09:22:36.277</time></trkpt><trkpt lat="56.1166415" lon="44.4403459"><time>2024-07-07T09:22:40.273</time></trkpt><trkpt lat="56.1165856" lon="44.4403368"><time>2024-07-07T09:22:44.273</time></trkpt><trkpt lat="56.1165395" lon="44.4403347"><time>2024-07-07T09:22:47.273</time></trkpt><trkpt lat="56.1164830" lon="44.4403326"><time>2024-07-07T09:22:51.273</time></trkpt><trkpt lat="56.1164355" lon="44.4403337"><time>2024-07-07T09:22:54.273</time></trkpt><trkpt lat="56.1163758" lon="44.4403334"><time>2024-07-07T09:22:58.273</time></trkpt><trkpt lat="56.1163212" lon="44.4403223"><time>2024-07-07T09:23:02.350</time></trkpt><trkpt lat="56.1162639" lon="44.4403357"><time>2024-07-07T09:23:06.280</time></trkpt><trkpt lat="56.1162140" lon="44.4403594"><time>2024-07-07T09:23:10.270</time></trkpt><trkpt lat="56.1161731" lon="44.4403995"><time>2024-07-07T09:23:13.277</time></trkpt><trkpt lat="56.1161317" lon="44.4404408"><time>2024-07-07T09:23:16.273</time></trkpt><trkpt lat="56.1160911" lon="44.4404927"><time>2024-07-07T09:23:19.273</time></trkpt><trkpt lat="56.1160589" lon="44.4405534"><time>2024-07-07T09:23:22.277</time></trkpt><trkpt lat="56.1160405" lon="44.4406327"><time>2024-07-07T09:23:27.277</time></trkpt><trkpt lat="56.1160160" lon="44.4407213"><time>2024-07-07T09:23:30.353</time></trkpt><trkpt lat="56.1159947" lon="44.4408084"><time>2024-07-07T09:23:33.350</time></trkpt><trkpt lat="56.1159686" lon="44.4408776"><time>2024-07-07T09:23:36.277</time></trkpt><trkpt lat="56.1159420" lon="44.4409675"><time>2024-07-07T09:23:39.283</time></trkpt><trkpt lat="56.1159138" lon="44.4410391"><time>2024-07-07T09:23:42.277</time></trkpt><trkpt lat="56.1158809" lon="44.4411308"><time>2024-07-07T09:23:46.277</time></trkpt><trkpt lat="56.1158613" lon="44.4412062"><time>2024-07-07T09:23:49.277</time></trkpt><trkpt lat="56.1158360" lon="44.4412950"><time>2024-07-07T09:23:52.273</time></trkpt><trkpt lat="56.1158028" lon="44.4413837"><time>2024-07-07T09:23:55.353</time></trkpt><trkpt lat="56.1157710" lon="44.4414612"><time>2024-07-07T09:23:58.277</time></trkpt><trkpt lat="56.1157453" lon="44.4415396"><time>2024-07-07T09:24:01.280</time></trkpt><trkpt lat="56.1157338" lon="44.4416186"><time>2024-07-07T09:24:04.273</time></trkpt><trkpt lat="56.1157166" lon="44.4416997"><time>2024-07-07T09:24:07.277</time></trkpt><trkpt lat="56.1156891" lon="44.4417871"><time>2024-07-07T09:24:10.347</time></trkpt><trkpt lat="56.1156757" lon="44.4418926"><time>2024-07-07T09:24:14.280</time></trkpt><trkpt lat="56.1156711" lon="44.4419996"><time>2024-07-07T09:24:18.273</time></trkpt><trkpt lat="56.1156654" lon="44.4420876"><time>2024-07-07T09:24:22.273</time></trkpt><trkpt lat="56.1156845" lon="44.4421759"><time>2024-07-07T09:24:27.273</time></trkpt><trkpt lat="56.1157140" lon="44.4422410"><time>2024-07-07T09:24:32.357</time></trkpt><trkpt lat="56.1157325" lon="44.4423177"><time>2024-07-07T09:24:42.270</time></trkpt><trkpt lat="56.1157001" lon="44.4423878"><time>2024-07-07T09:24:47.283</time></trkpt><trkpt lat="56.1156744" lon="44.4424552"><time>2024-07-07T09:24:51.277</time></trkpt><trkpt lat="56.1156411" lon="44.4425317"><time>2024-07-07T09:24:55.277</time></trkpt><trkpt lat="56.1156084" lon="44.4426173"><time>2024-07-07T09:24:59.273</time></trkpt><trkpt lat="56.1155793" lon="44.4426792"><time>2024-07-07T09:25:02.277</time></trkpt><trkpt lat="56.1155479" lon="44.4427504"><time>2024-07-07T09:25:05.273</time></trkpt><trkpt lat="56.1155194" lon="44.4428153"><time>2024-07-07T09:25:08.280</time></trkpt><trkpt lat="56.1154877" lon="44.4428830"><time>2024-07-07T09:25:11.273</time></trkpt><trkpt lat="56.1154545" lon="44.4429577"><time>2024-07-07T09:25:14.273</time></trkpt><trkpt lat="56.1154251" lon="44.4430356"><time>2024-07-07T09:25:17.273</time></trkpt><trkpt lat="56.1154029" lon="44.4431264"><time>2024-07-07T09:25:21.303</time></trkpt><trkpt lat="56.1153991" lon="44.4431368"><time>2024-07-07T09:25:22.423</time></trkpt><trkpt lat="56.1153696" lon="44.4431994"><time>2024-07-07T09:25:30.273</time></trkpt><trkpt lat="56.1153223" lon="44.4432416"><time>2024-07-07T09:25:36.357</time></trkpt><trkpt lat="56.1152649" lon="44.4432556"><time>2024-07-07T09:25:41.273</time></trkpt><trkpt lat="56.1152152" lon="44.4432741"><time>2024-07-07T09:25:46.273</time></trkpt><trkpt lat="56.1151650" lon="44.4432925"><time>2024-07-07T09:25:51.270</time></trkpt><trkpt lat="56.1151236" lon="44.4433493"><time>2024-07-07T09:25:55.280</time></trkpt><trkpt lat="56.1150698" lon="44.4433528"><time>2024-07-07T09:26:01.277</time></trkpt><trkpt lat="56.1150241" lon="44.4433374"><time>2024-07-07T09:26:05.273</time></trkpt><trkpt lat="56.1149797" lon="44.4433101"><time>2024-07-07T09:26:09.273</time></trkpt><trkpt lat="56.1149403" lon="44.4432680"><time>2024-07-07T09:26:12.280</time></trkpt><trkpt lat="56.1148965" lon="44.4432221"><time>2024-07-07T09:26:16.277</time></trkpt><trkpt lat="56.1148528" lon="44.4431713"><time>2024-07-07T09:26:20.273</time></trkpt><trkpt lat="56.1148075" lon="44.4431206"><time>2024-07-07T09:26:24.277</time></trkpt><trkpt lat="56.1147653" lon="44.4430859"><time>2024-07-07T09:26:28.277</time></trkpt><trkpt lat="56.1147202" lon="44.4430439"><time>2024-07-07T09:26:33.277</time></trkpt><trkpt lat="56.1146783" lon="44.4429982"><time>2024-07-07T09:26:42.277</time></trkpt><trkpt lat="56.1146737" lon="44.4430904"><time>2024-07-07T09:27:55.273</time></trkpt><trkpt lat="56.1146798" lon="44.4431705"><time>2024-07-07T09:27:59.273</time></trkpt><trkpt lat="56.1146947" lon="44.4432578"><time>2024-07-07T09:28:04.277</time></trkpt><trkpt lat="56.1146952" lon="44.4433503"><time>2024-07-07T09:28:11.277</time></trkpt><trkpt lat="56.1147072" lon="44.4434325"><time>2024-07-07T09:28:17.353</time></trkpt><trkpt lat="56.1147274" lon="44.4435247"><time>2024-07-07T09:28:23.277</time></trkpt><trkpt lat="56.1147417" lon="44.4436051"><time>2024-07-07T09:28:27.273</time></trkpt><trkpt lat="56.1147601" lon="44.4436912"><time>2024-07-07T09:28:31.273</time></trkpt><trkpt lat="56.1147815" lon="44.4437831"><time>2024-07-07T09:28:35.280</time></trkpt><trkpt lat="56.1147977" lon="44.4438752"><time>2024-07-07T09:28:39.273</time></trkpt><trkpt lat="56.1148096" lon="44.4439560"><time>2024-07-07T09:28:43.273</time></trkpt><trkpt lat="56.1148278" lon="44.4440394"><time>2024-07-07T09:28:47.277</time></trkpt><trkpt lat="56.1148554" lon="44.4441236"><time>2024-07-07T09:28:51.277</time></trkpt><trkpt lat="56.1148887" lon="44.4441944"><time>2024-07-07T09:28:55.287</time></trkpt><trkpt lat="56.1149143" lon="44.4442718"><time>2024-07-07T09:29:00.277</time></trkpt><trkpt lat="56.1149459" lon="44.4443582"><time>2024-07-07T09:29:05.280</time></trkpt><trkpt lat="56.1149762" lon="44.4444363"><time>2024-07-07T09:29:09.277</time></trkpt><trkpt lat="56.1149907" lon="44.4445140"><time>2024-07-07T09:29:13.277</time></trkpt><trkpt lat="56.1149998" lon="44.4446075"><time>2024-07-07T09:29:17.273</time></trkpt><trkpt lat="56.1150106" lon="44.4447079"><time>2024-07-07T09:29:21.277</time></trkpt><trkpt lat="56.1150266" lon="44.4448024"><time>2024-07-07T09:29:25.280</time></trkpt><trkpt lat="56.1150343" lon="44.4448892"><time>2024-07-07T09:29:29.277</time></trkpt><trkpt lat="56.1150419" lon="44.4449732"><time>2024-07-07T09:29:32.273</time></trkpt><trkpt lat="56.1150640" lon="44.4450624"><time>2024-07-07T09:29:36.277</time></trkpt><trkpt lat="56.1150835" lon="44.4451382"><time>2024-07-07T09:29:40.273</time></trkpt><trkpt lat="56.1151012" lon="44.4452329"><time>2024-07-07T09:29:44.273</time></trkpt><trkpt lat="56.1151134" lon="44.4453111"><time>2024-07-07T09:29:47.273</time></trkpt><trkpt lat="56.1151246" lon="44.4454100"><time>2024-07-07T09:29:51.277</time></trkpt><trkpt lat="56.1151245" lon="44.4454992"><time>2024-07-07T09:29:54.280</time></trkpt><trkpt lat="56.1151050" lon="44.4455789"><time>2024-07-07T09:29:59.277</time></trkpt><trkpt lat="56.1150625" lon="44.4456492"><time>2024-07-07T09:30:03.277</time></trkpt><trkpt lat="56.1150126" lon="44.4456867"><time>2024-07-07T09:30:07.277</time></trkpt><trkpt lat="56.1149586" lon="44.4457001"><time>2024-07-07T09:30:11.273</time></trkpt><trkpt lat="56.1149124" lon="44.4456974"><time>2024-07-07T09:30:14.353</time></trkpt><trkpt lat="56.1148667" lon="44.4456824"><time>2024-07-07T09:30:17.277</time></trkpt><trkpt lat="56.1148242" lon="44.4456562"><time>2024-07-07T09:30:20.273</time></trkpt><trkpt lat="56.1147782" lon="44.4456195"><time>2024-07-07T09:30:24.297</time></trkpt><trkpt lat="56.1147738" lon="44.4455980"><time>2024-07-07T09:30:25.417</time></trkpt><trkpt lat="56.1147278" lon="44.4455572"><time>2024-07-07T09:30:29.273</time></trkpt><trkpt lat="56.1146968" lon="44.4454984"><time>2024-07-07T09:30:37.280</time></trkpt><trkpt lat="56.1146468" lon="44.4455059"><time>2024-07-07T09:31:03.287</time></trkpt><trkpt lat="56.1145975" lon="44.4454842"><time>2024-07-07T09:31:08.273</time></trkpt><trkpt lat="56.1145504" lon="44.4454899"><time>2024-07-07T09:31:11.277</time></trkpt><trkpt lat="56.1144953" lon="44.4454948"><time>2024-07-07T09:31:15.273</time></trkpt><trkpt lat="56.1144439" lon="44.4454548"><time>2024-07-07T09:31:19.267</time></trkpt><trkpt lat="56.1143974" lon="44.4453884"><time>2024-07-07T09:31:23.270</time></trkpt><trkpt lat="56.1143545" lon="44.4453227"><time>2024-07-07T09:31:27.297</time></trkpt><trkpt lat="56.1143423" lon="44.4453258"><time>2024-07-07T09:31:28.423</time></trkpt><trkpt lat="56.1142995" lon="44.4452679"><time>2024-07-07T09:31:31.270</time></trkpt><trkpt lat="56.1142511" lon="44.4452305"><time>2024-07-07T09:31:36.273</time></trkpt><trkpt lat="56.1141989" lon="44.4452122"><time>2024-07-07T09:31:44.273</time></trkpt><trkpt lat="56.1141451" lon="44.4451866"><time>2024-07-07T09:31:49.273</time></trkpt><trkpt lat="56.1141033" lon="44.4451414"><time>2024-07-07T09:31:53.363</time></trkpt><trkpt lat="56.1141033" lon="44.4451414"><time>2024-07-07T09:31:53.397</time></trkpt><trkpt lat="56.1140629" lon="44.4450977"><time>2024-07-07T09:31:57.313</time></trkpt><trkpt lat="56.1140579" lon="44.4450995"><time>2024-07-07T09:31:58.443</time></trkpt><trkpt lat="56.1140975" lon="44.4451526"><time>2024-07-07T09:32:09.350</time></trkpt><trkpt lat="56.1141342" lon="44.4452026"><time>2024-07-07T09:32:13.273</time></trkpt><trkpt lat="56.1141777" lon="44.4452435"><time>2024-07-07T09:32:17.273</time></trkpt><trkpt lat="56.1142274" lon="44.4452818"><time>2024-07-07T09:32:22.273</time></trkpt><trkpt lat="56.1142717" lon="44.4453172"><time>2024-07-07T09:32:27.270</time></trkpt><trkpt lat="56.1143089" lon="44.4453721"><time>2024-07-07T09:32:45.273</time></trkpt><trkpt lat="56.1143386" lon="44.4454403"><time>2024-07-07T09:32:51.277</time></trkpt><trkpt lat="56.1143665" lon="44.4455139"><time>2024-07-07T09:32:56.277</time></trkpt><trkpt lat="56.1144200" lon="44.4455412"><time>2024-07-07T09:33:00.270</time></trkpt><trkpt lat="56.1144680" lon="44.4455555"><time>2024-07-07T09:33:03.280</time></trkpt><trkpt lat="56.1145311" lon="44.4455645"><time>2024-07-07T09:33:07.277</time></trkpt><trkpt lat="56.1145886" lon="44.4455748"><time>2024-07-07T09:33:10.280</time></trkpt><trkpt lat="56.1146450" lon="44.4455978"><time>2024-07-07T09:33:13.277</time></trkpt><trkpt lat="56.1146929" lon="44.4456282"><time>2024-07-07T09:33:16.277</time></trkpt><trkpt lat="56.1147361" lon="44.4456803"><time>2024-07-07T09:33:20.277</time></trkpt><trkpt lat="56.1147770" lon="44.4457363"><time>2024-07-07T09:33:27.350</time></trkpt><trkpt lat="56.1148204" lon="44.4457662"><time>2024-07-07T09:33:30.273</time></trkpt><trkpt lat="56.1148727" lon="44.4457868"><time>2024-07-07T09:33:34.277</time></trkpt><trkpt lat="56.1149257" lon="44.4458061"><time>2024-07-07T09:33:38.273</time></trkpt><trkpt lat="56.1149685" lon="44.4458518"><time>2024-07-07T09:33:43.270</time></trkpt><trkpt lat="56.1150103" lon="44.4458897"><time>2024-07-07T09:33:49.277</time></trkpt><trkpt lat="56.1150561" lon="44.4459151"><time>2024-07-07T09:33:54.273</time></trkpt><trkpt lat="56.1150988" lon="44.4459480"><time>2024-07-07T09:34:00.277</time></trkpt><trkpt lat="56.1151519" lon="44.4459625"><time>2024-07-07T09:34:08.287</time></trkpt><trkpt lat="56.1151925" lon="44.4460132"><time>2024-07-07T09:34:13.277</time></trkpt><trkpt lat="56.1152342" lon="44.4460676"><time>2024-07-07T09:34:20.277</time></trkpt><trkpt lat="56.1152828" lon="44.4461223"><time>2024-07-07T09:34:24.273</time></trkpt><trkpt lat="56.1153264" lon="44.4461912"><time>2024-07-07T09:34:28.277</time></trkpt><trkpt lat="56.1153590" lon="44.4462552"><time>2024-07-07T09:34:31.273</time></trkpt><trkpt lat="56.1153971" lon="44.4463232"><time>2024-07-07T09:34:35.270</time></trkpt><trkpt lat="56.1154330" lon="44.4463975"><time>2024-07-07T09:34:39.270</time></trkpt><trkpt lat="56.1154678" lon="44.4464484"><time>2024-07-07T09:34:42.270</time></trkpt><trkpt lat="56.1155073" lon="44.4464968"><time>2024-07-07T09:34:45.273</time></trkpt><trkpt lat="56.1155474" lon="44.4465665"><time>2024-07-07T09:34:50.277</time></trkpt><trkpt lat="56.1155843" lon="44.4466355"><time>2024-07-07T09:34:54.270</time></trkpt><trkpt lat="56.1156161" lon="44.4467184"><time>2024-07-07T09:34:58.270</time></trkpt><trkpt lat="56.1156410" lon="44.4467853"><time>2024-07-07T09:35:01.320</time></trkpt><trkpt lat="56.1156697" lon="44.4468542"><time>2024-07-07T09:35:04.273</time></trkpt><trkpt lat="56.1157123" lon="44.4469223"><time>2024-07-07T09:35:07.273</time></trkpt><trkpt lat="56.1157469" lon="44.4469789"><time>2024-07-07T09:35:10.277</time></trkpt><trkpt lat="56.1157849" lon="44.4470234"><time>2024-07-07T09:35:14.350</time></trkpt><trkpt lat="56.1158209" lon="44.4470872"><time>2024-07-07T09:35:19.270</time></trkpt><trkpt lat="56.1158597" lon="44.4471718"><time>2024-07-07T09:35:23.277</time></trkpt><trkpt lat="56.1158893" lon="44.4472396"><time>2024-07-07T09:35:26.273</time></trkpt><trkpt lat="56.1159241" lon="44.4473090"><time>2024-07-07T09:35:29.277</time></trkpt><trkpt lat="56.1159743" lon="44.4473593"><time>2024-07-07T09:35:33.277</time></trkpt><trkpt lat="56.1160191" lon="44.4473980"><time>2024-07-07T09:35:38.283</time></trkpt><trkpt lat="56.1160602" lon="44.4474712"><time>2024-07-07T09:35:43.273</time></trkpt><trkpt lat="56.1160924" lon="44.4475296"><time>2024-07-07T09:35:46.273</time></trkpt><trkpt lat="56.1161326" lon="44.4476012"><time>2024-07-07T09:35:50.280</time></trkpt><trkpt lat="56.1161697" lon="44.4476481"><time>2024-07-07T09:35:54.280</time></trkpt><trkpt lat="56.1162071" lon="44.4477277"><time>2024-07-07T09:35:58.273</time></trkpt><trkpt lat="56.1162379" lon="44.4478083"><time>2024-07-07T09:36:02.277</time></trkpt><trkpt lat="56.1162806" lon="44.4478789"><time>2024-07-07T09:36:06.270</time></trkpt><trkpt lat="56.1163169" lon="44.4479340"><time>2024-07-07T09:36:10.273</time></trkpt><trkpt lat="56.1163438" lon="44.4480183"><time>2024-07-07T09:36:17.277</time></trkpt><trkpt lat="56.1163506" lon="44.4481208"><time>2024-07-07T09:36:21.277</time></trkpt><trkpt lat="56.1163612" lon="44.4482138"><time>2024-07-07T09:36:24.277</time></trkpt><trkpt lat="56.1163797" lon="44.4483060"><time>2024-07-07T09:36:27.277</time></trkpt><trkpt lat="56.1164023" lon="44.4483836"><time>2024-07-07T09:36:30.277</time></trkpt><trkpt lat="56.1164367" lon="44.4484381"><time>2024-07-07T09:36:34.277</time></trkpt><trkpt lat="56.1164654" lon="44.4485179"><time>2024-07-07T09:36:40.273</time></trkpt><trkpt lat="56.1164805" lon="44.4486205"><time>2024-07-07T09:36:45.270</time></trkpt><trkpt lat="56.1164747" lon="44.4487112"><time>2024-07-07T09:36:48.267</time></trkpt><trkpt lat="56.1164694" lon="44.4487977"><time>2024-07-07T09:36:51.270</time></trkpt><trkpt lat="56.1164671" lon="44.4488950"><time>2024-07-07T09:36:55.273</time></trkpt><trkpt lat="56.1164513" lon="44.4489746"><time>2024-07-07T09:36:58.273</time></trkpt><trkpt lat="56.1164255" lon="44.4490626"><time>2024-07-07T09:37:02.273</time></trkpt><trkpt lat="56.1164024" lon="44.4491343"><time>2024-07-07T09:37:05.273</time></trkpt><trkpt lat="56.1163702" lon="44.4492233"><time>2024-07-07T09:37:09.270</time></trkpt><trkpt lat="56.1163339" lon="44.4492924"><time>2024-07-07T09:37:12.347</time></trkpt><trkpt lat="56.1163005" lon="44.4493697"><time>2024-07-07T09:37:15.273</time></trkpt><trkpt lat="56.1162657" lon="44.4494444"><time>2024-07-07T09:37:18.273</time></trkpt><trkpt lat="56.1162209" lon="44.4495068"><time>2024-07-07T09:37:22.267</time></trkpt><trkpt lat="56.1161758" lon="44.4495603"><time>2024-07-07T09:37:25.273</time></trkpt><trkpt lat="56.1161281" lon="44.4496109"><time>2024-07-07T09:37:28.267</time></trkpt><trkpt lat="56.1160864" lon="44.4496568"><time>2024-07-07T09:37:31.277</time></trkpt><trkpt lat="56.1160527" lon="44.4497250"><time>2024-07-07T09:37:34.343</time></trkpt><trkpt lat="56.1160227" lon="44.4498070"><time>2024-07-07T09:37:39.270</time></trkpt><trkpt lat="56.1160046" lon="44.4499067"><time>2024-07-07T09:37:43.270</time></trkpt><trkpt lat="56.1159908" lon="44.4499970"><time>2024-07-07T09:37:46.270</time></trkpt><trkpt lat="56.1159717" lon="44.4500906"><time>2024-07-07T09:37:49.340</time></trkpt><trkpt lat="56.1159573" lon="44.4501811"><time>2024-07-07T09:37:52.347</time></trkpt><trkpt lat="56.1159423" lon="44.4502608"><time>2024-07-07T09:37:55.273</time></trkpt><trkpt lat="56.1159211" lon="44.4503517"><time>2024-07-07T09:37:58.277</time></trkpt><trkpt lat="56.1159042" lon="44.4504422"><time>2024-07-07T09:38:01.277</time></trkpt><trkpt lat="56.1158872" lon="44.4505385"><time>2024-07-07T09:38:04.273</time></trkpt><trkpt lat="56.1158695" lon="44.4506348"><time>2024-07-07T09:38:07.273</time></trkpt><trkpt lat="56.1158533" lon="44.4507286"><time>2024-07-07T09:38:10.273</time></trkpt><trkpt lat="56.1158345" lon="44.4508212"><time>2024-07-07T09:38:13.273</time></trkpt><trkpt lat="56.1158149" lon="44.4509251"><time>2024-07-07T09:38:16.277</time></trkpt><trkpt lat="56.1158081" lon="44.4510232"><time>2024-07-07T09:38:19.277</time></trkpt><trkpt lat="56.1158102" lon="44.4511124"><time>2024-07-07T09:38:22.273</time></trkpt><trkpt lat="56.1158125" lon="44.4512097"><time>2024-07-07T09:38:26.277</time></trkpt><trkpt lat="56.1157890" lon="44.4513064"><time>2024-07-07T09:38:30.343</time></trkpt><trkpt lat="56.1157643" lon="44.4513771"><time>2024-07-07T09:38:33.277</time></trkpt><trkpt lat="56.1157336" lon="44.4514387"><time>2024-07-07T09:38:36.347</time></trkpt><trkpt lat="56.1156951" lon="44.4515132"><time>2024-07-07T09:38:39.270</time></trkpt><trkpt lat="56.1156613" lon="44.4516026"><time>2024-07-07T09:38:42.273</time></trkpt><trkpt lat="56.1156375" lon="44.4516716"><time>2024-07-07T09:38:44.277</time></trkpt><trkpt lat="56.1156005" lon="44.4517616"><time>2024-07-07T09:38:47.273</time></trkpt><trkpt lat="56.1155672" lon="44.4518451"><time>2024-07-07T09:38:50.277</time></trkpt><trkpt lat="56.1155420" lon="44.4519210"><time>2024-07-07T09:38:53.273</time></trkpt><trkpt lat="56.1155265" lon="44.4520007"><time>2024-07-07T09:38:56.273</time></trkpt><trkpt lat="56.1155151" lon="44.4520887"><time>2024-07-07T09:38:59.273</time></trkpt><trkpt lat="56.1155041" lon="44.4521687"><time>2024-07-07T09:39:02.273</time></trkpt><trkpt lat="56.1154785" lon="44.4522536"><time>2024-07-07T09:39:05.273</time></trkpt><trkpt lat="56.1154449" lon="44.4523166"><time>2024-07-07T09:39:08.273</time></trkpt><trkpt lat="56.1154035" lon="44.4523929"><time>2024-07-07T09:39:11.270</time></trkpt><trkpt lat="56.1153668" lon="44.4524491"><time>2024-07-07T09:39:14.270</time></trkpt><trkpt lat="56.1153306" lon="44.4525013"><time>2024-07-07T09:39:17.347</time></trkpt><trkpt lat="56.1153007" lon="44.4525678"><time>2024-07-07T09:39:20.280</time></trkpt><trkpt lat="56.1152778" lon="44.4526632"><time>2024-07-07T09:39:23.273</time></trkpt><trkpt lat="56.1152584" lon="44.4527622"><time>2024-07-07T09:39:26.277</time></trkpt><trkpt lat="56.1152467" lon="44.4528448"><time>2024-07-07T09:39:29.353</time></trkpt><trkpt lat="56.1152418" lon="44.4529281"><time>2024-07-07T09:39:32.270</time></trkpt><trkpt lat="56.1152400" lon="44.4530106"><time>2024-07-07T09:39:35.280</time></trkpt><trkpt lat="56.1152229" lon="44.4530981"><time>2024-07-07T09:39:39.270</time></trkpt><trkpt lat="56.1151882" lon="44.4531806"><time>2024-07-07T09:39:43.277</time></trkpt><trkpt lat="56.1151624" lon="44.4532516"><time>2024-07-07T09:39:46.273</time></trkpt><trkpt lat="56.1151362" lon="44.4533288"><time>2024-07-07T09:39:49.270</time></trkpt><trkpt lat="56.1151085" lon="44.4534015"><time>2024-07-07T09:39:52.270</time></trkpt><trkpt lat="56.1150781" lon="44.4534725"><time>2024-07-07T09:39:55.273</time></trkpt><trkpt lat="56.1150436" lon="44.4535392"><time>2024-07-07T09:39:58.270</time></trkpt><trkpt lat="56.1150122" lon="44.4536190"><time>2024-07-07T09:40:01.277</time></trkpt><trkpt lat="56.1149784" lon="44.4537066"><time>2024-07-07T09:40:04.273</time></trkpt><trkpt lat="56.1149476" lon="44.4537950"><time>2024-07-07T09:40:07.347</time></trkpt><trkpt lat="56.1149218" lon="44.4538861"><time>2024-07-07T09:40:10.277</time></trkpt><trkpt lat="56.1148985" lon="44.4539733"><time>2024-07-07T09:40:13.277</time></trkpt><trkpt lat="56.1148782" lon="44.4540635"><time>2024-07-07T09:40:16.277</time></trkpt><trkpt lat="56.1148587" lon="44.4541542"><time>2024-07-07T09:40:19.277</time></trkpt><trkpt lat="56.1148382" lon="44.4542369"><time>2024-07-07T09:40:22.277</time></trkpt><trkpt lat="56.1147994" lon="44.4543098"><time>2024-07-07T09:40:25.273</time></trkpt><trkpt lat="56.1147580" lon="44.4543766"><time>2024-07-07T09:40:28.273</time></trkpt><trkpt lat="56.1147129" lon="44.4544522"><time>2024-07-07T09:40:32.270</time></trkpt><trkpt lat="56.1146760" lon="44.4545247"><time>2024-07-07T09:40:35.347</time></trkpt><trkpt lat="56.1146443" lon="44.4546141"><time>2024-07-07T09:40:38.277</time></trkpt><trkpt lat="56.1146161" lon="44.4547063"><time>2024-07-07T09:40:41.283</time></trkpt><trkpt lat="56.1145943" lon="44.4547938"><time>2024-07-07T09:40:44.277</time></trkpt><trkpt lat="56.1145741" lon="44.4548765"><time>2024-07-07T09:40:47.277</time></trkpt><trkpt lat="56.1145467" lon="44.4549576"><time>2024-07-07T09:40:50.273</time></trkpt><trkpt lat="56.1145199" lon="44.4550504"><time>2024-07-07T09:40:54.267</time></trkpt><trkpt lat="56.1144837" lon="44.4551320"><time>2024-07-07T09:40:58.273</time></trkpt><trkpt lat="56.1144442" lon="44.4551935"><time>2024-07-07T09:41:01.273</time></trkpt><trkpt lat="56.1144071" lon="44.4552573"><time>2024-07-07T09:41:04.350</time></trkpt><trkpt lat="56.1143777" lon="44.4553313"><time>2024-07-07T09:41:07.270</time></trkpt><trkpt lat="56.1143492" lon="44.4554037"><time>2024-07-07T09:41:10.283</time></trkpt><trkpt lat="56.1143246" lon="44.4554885"><time>2024-07-07T09:41:13.270</time></trkpt><trkpt lat="56.1142949" lon="44.4555685"><time>2024-07-07T09:41:16.273</time></trkpt><trkpt lat="56.1142645" lon="44.4556440"><time>2024-07-07T09:41:19.273</time></trkpt><trkpt lat="56.1142332" lon="44.4557250"><time>2024-07-07T09:41:22.347</time></trkpt><trkpt lat="56.1141878" lon="44.4558065"><time>2024-07-07T09:41:25.277</time></trkpt><trkpt lat="56.1141578" lon="44.4558754"><time>2024-07-07T09:41:28.273</time></trkpt><trkpt lat="56.1141295" lon="44.4559469"><time>2024-07-07T09:41:31.277</time></trkpt><trkpt lat="56.1141090" lon="44.4560324"><time>2024-07-07T09:41:34.350</time></trkpt><trkpt lat="56.1141003" lon="44.4561160"><time>2024-07-07T09:41:37.273</time></trkpt><trkpt lat="56.1140860" lon="44.4561999"><time>2024-07-07T09:41:40.273</time></trkpt><trkpt lat="56.1140563" lon="44.4562812"><time>2024-07-07T09:41:43.270</time></trkpt><trkpt lat="56.1140216" lon="44.4563658"><time>2024-07-07T09:41:47.270</time></trkpt><trkpt lat="56.1139855" lon="44.4564328"><time>2024-07-07T09:41:50.350</time></trkpt><trkpt lat="56.1139516" lon="44.4564931"><time>2024-07-07T09:41:53.273</time></trkpt><trkpt lat="56.1139024" lon="44.4565676"><time>2024-07-07T09:41:56.277</time></trkpt><trkpt lat="56.1138630" lon="44.4566339"><time>2024-07-07T09:41:59.270</time></trkpt><trkpt lat="56.1138277" lon="44.4566919"><time>2024-07-07T09:42:02.270</time></trkpt><trkpt lat="56.1137995" lon="44.4567559"><time>2024-07-07T09:42:05.277</time></trkpt><trkpt lat="56.1137588" lon="44.4568196"><time>2024-07-07T09:42:09.273</time></trkpt><trkpt lat="56.1137266" lon="44.4568790"><time>2024-07-07T09:42:12.347</time></trkpt><trkpt lat="56.1136870" lon="44.4569565"><time>2024-07-07T09:42:15.270</time></trkpt><trkpt lat="56.1136466" lon="44.4570384"><time>2024-07-07T09:42:18.270</time></trkpt><trkpt lat="56.1136097" lon="44.4571180"><time>2024-07-07T09:42:21.273</time></trkpt><trkpt lat="56.1135829" lon="44.4571893"><time>2024-07-07T09:42:24.277</time></trkpt><trkpt lat="56.1135658" lon="44.4572638"><time>2024-07-07T09:42:27.277</time></trkpt><trkpt lat="56.1135540" lon="44.4573633"><time>2024-07-07T09:42:31.280</time></trkpt><trkpt lat="56.1135280" lon="44.4574569"><time>2024-07-07T09:42:35.280</time></trkpt><trkpt lat="56.1134994" lon="44.4575285"><time>2024-07-07T09:42:38.267</time></trkpt><trkpt lat="56.1134645" lon="44.4575947"><time>2024-07-07T09:42:41.273</time></trkpt><trkpt lat="56.1134299" lon="44.4576690"><time>2024-07-07T09:42:44.270</time></trkpt><trkpt lat="56.1133988" lon="44.4577316"><time>2024-07-07T09:42:47.270</time></trkpt><trkpt lat="56.1133563" lon="44.4577868"><time>2024-07-07T09:42:50.270</time></trkpt><trkpt lat="56.1133122" lon="44.4578549"><time>2024-07-07T09:42:53.270</time></trkpt><trkpt lat="56.1132734" lon="44.4579060"><time>2024-07-07T09:42:56.267</time></trkpt><trkpt lat="56.1132280" lon="44.4579539"><time>2024-07-07T09:42:59.267</time></trkpt><trkpt lat="56.1131790" lon="44.4580145"><time>2024-07-07T09:43:02.277</time></trkpt><trkpt lat="56.1131347" lon="44.4580696"><time>2024-07-07T09:43:05.273</time></trkpt><trkpt lat="56.1130985" lon="44.4581217"><time>2024-07-07T09:43:08.280</time></trkpt><trkpt lat="56.1130517" lon="44.4581909"><time>2024-07-07T09:43:12.290</time></trkpt><trkpt lat="56.1130048" lon="44.4582515"><time>2024-07-07T09:43:16.280</time></trkpt><trkpt lat="56.1129592" lon="44.4583063"><time>2024-07-07T09:43:19.257</time></trkpt><trkpt lat="56.1129185" lon="44.4583591"><time>2024-07-07T09:43:22.273</time></trkpt><trkpt lat="56.1128649" lon="44.4584102"><time>2024-07-07T09:43:25.270</time></trkpt><trkpt lat="56.1128207" lon="44.4584580"><time>2024-07-07T09:43:28.273</time></trkpt><trkpt lat="56.1127770" lon="44.4585046"><time>2024-07-07T09:43:31.270</time></trkpt><trkpt lat="56.1127259" lon="44.4585401"><time>2024-07-07T09:43:34.270</time></trkpt><trkpt lat="56.1126848" lon="44.4585816"><time>2024-07-07T09:43:37.273</time></trkpt><trkpt lat="56.1126362" lon="44.4586259"><time>2024-07-07T09:43:40.270</time></trkpt><trkpt lat="56.1125843" lon="44.4586728"><time>2024-07-07T09:43:43.270</time></trkpt><trkpt lat="56.1125394" lon="44.4587031"><time>2024-07-07T09:43:46.267</time></trkpt><trkpt lat="56.1124904" lon="44.4587342"><time>2024-07-07T09:43:50.270</time></trkpt><trkpt lat="56.1124469" lon="44.4587764"><time>2024-07-07T09:43:53.270</time></trkpt><trkpt lat="56.1124033" lon="44.4588383"><time>2024-07-07T09:43:56.273</time></trkpt><trkpt lat="56.1123609" lon="44.4589033"><time>2024-07-07T09:43:59.270</time></trkpt><trkpt lat="56.1123176" lon="44.4589699"><time>2024-07-07T09:44:02.277</time></trkpt><trkpt lat="56.1122750" lon="44.4590263"><time>2024-07-07T09:44:05.267</time></trkpt><trkpt lat="56.1122274" lon="44.4590772"><time>2024-07-07T09:44:08.270</time></trkpt><trkpt lat="56.1121784" lon="44.4591177"><time>2024-07-07T09:44:11.270</time></trkpt><trkpt lat="56.1121308" lon="44.4591606"><time>2024-07-07T09:44:14.267</time></trkpt><trkpt lat="56.1120827" lon="44.4592014"><time>2024-07-07T09:44:17.277</time></trkpt><trkpt lat="56.1120303" lon="44.4592624"><time>2024-07-07T09:44:20.267</time></trkpt><trkpt lat="56.1119893" lon="44.4593266"><time>2024-07-07T09:44:23.277</time></trkpt><trkpt lat="56.1119499" lon="44.4593895"><time>2024-07-07T09:44:26.273</time></trkpt><trkpt lat="56.1119193" lon="44.4594631"><time>2024-07-07T09:44:29.277</time></trkpt><trkpt lat="56.1118908" lon="44.4595338"><time>2024-07-07T09:44:32.277</time></trkpt><trkpt lat="56.1118484" lon="44.4596120"><time>2024-07-07T09:44:36.270</time></trkpt><trkpt lat="56.1118163" lon="44.4596809"><time>2024-07-07T09:44:39.273</time></trkpt><trkpt lat="56.1117831" lon="44.4597539"><time>2024-07-07T09:44:42.277</time></trkpt><trkpt lat="56.1117530" lon="44.4598198"><time>2024-07-07T09:44:45.347</time></trkpt><trkpt lat="56.1117117" lon="44.4598960"><time>2024-07-07T09:44:49.347</time></trkpt><trkpt lat="56.1116745" lon="44.4599779"><time>2024-07-07T09:44:52.277</time></trkpt><trkpt lat="56.1116472" lon="44.4600499"><time>2024-07-07T09:44:55.273</time></trkpt><trkpt lat="56.1116158" lon="44.4601431"><time>2024-07-07T09:44:58.287</time></trkpt><trkpt lat="56.1115860" lon="44.4602283"><time>2024-07-07T09:45:01.273</time></trkpt><trkpt lat="56.1115512" lon="44.4603152"><time>2024-07-07T09:45:04.277</time></trkpt><trkpt lat="56.1115064" lon="44.4603714"><time>2024-07-07T09:45:08.277</time></trkpt><trkpt lat="56.1114622" lon="44.4604519"><time>2024-07-07T09:45:11.270</time></trkpt><trkpt lat="56.1114315" lon="44.4605344"><time>2024-07-07T09:45:15.273</time></trkpt><trkpt lat="56.1114016" lon="44.4606266"><time>2024-07-07T09:45:19.277</time></trkpt><trkpt lat="56.1113715" lon="44.4607105"><time>2024-07-07T09:45:22.277</time></trkpt><trkpt lat="56.1113317" lon="44.4608041"><time>2024-07-07T09:45:25.270</time></trkpt><trkpt lat="56.1112892" lon="44.4608898"><time>2024-07-07T09:45:28.273</time></trkpt><trkpt lat="56.1112565" lon="44.4609467"><time>2024-07-07T09:45:31.277</time></trkpt><trkpt lat="56.1112198" lon="44.4610020"><time>2024-07-07T09:45:34.277</time></trkpt><trkpt lat="56.1111797" lon="44.4610694"><time>2024-07-07T09:45:37.277</time></trkpt><trkpt lat="56.1111402" lon="44.4611527"><time>2024-07-07T09:45:40.277</time></trkpt><trkpt lat="56.1111042" lon="44.4612229"><time>2024-07-07T09:45:43.273</time></trkpt><trkpt lat="56.1110668" lon="44.4612827"><time>2024-07-07T09:45:46.277</time></trkpt><trkpt lat="56.1110315" lon="44.4613493"><time>2024-07-07T09:45:49.280</time></trkpt><trkpt lat="56.1109959" lon="44.4614360"><time>2024-07-07T09:45:53.273</time></trkpt><trkpt lat="56.1109565" lon="44.4615133"><time>2024-07-07T09:45:56.270</time></trkpt><trkpt lat="56.1109213" lon="44.4615858"><time>2024-07-07T09:45:59.270</time></trkpt><trkpt lat="56.1108804" lon="44.4616618"><time>2024-07-07T09:46:03.273</time></trkpt><trkpt lat="56.1108456" lon="44.4617322"><time>2024-07-07T09:46:06.273</time></trkpt><trkpt lat="56.1108192" lon="44.4618049"><time>2024-07-07T09:46:10.270</time></trkpt><trkpt lat="56.1107875" lon="44.4618771"><time>2024-07-07T09:46:14.273</time></trkpt><trkpt lat="56.1107543" lon="44.4619358"><time>2024-07-07T09:46:17.273</time></trkpt><trkpt lat="56.1107153" lon="44.4619784"><time>2024-07-07T09:46:21.270</time></trkpt><trkpt lat="56.1106669" lon="44.4620305"><time>2024-07-07T09:46:27.270</time></trkpt><trkpt lat="56.1106260" lon="44.4620870"><time>2024-07-07T09:46:30.270</time></trkpt><trkpt lat="56.1105834" lon="44.4621404"><time>2024-07-07T09:46:33.273</time></trkpt><trkpt lat="56.1105491" lon="44.4622003"><time>2024-07-07T09:46:36.270</time></trkpt><trkpt lat="56.1105183" lon="44.4622601"><time>2024-07-07T09:46:39.277</time></trkpt><trkpt lat="56.1104903" lon="44.4623318"><time>2024-07-07T09:46:42.270</time></trkpt><trkpt lat="56.1104495" lon="44.4624093"><time>2024-07-07T09:46:45.267</time></trkpt><trkpt lat="56.1104189" lon="44.4624735"><time>2024-07-07T09:46:48.273</time></trkpt><trkpt lat="56.1103878" lon="44.4625441"><time>2024-07-07T09:46:51.273</time></trkpt><trkpt lat="56.1103603" lon="44.4626208"><time>2024-07-07T09:46:54.273</time></trkpt><trkpt lat="56.1103283" lon="44.4626822"><time>2024-07-07T09:46:57.273</time></trkpt><trkpt lat="56.1102900" lon="44.4627468"><time>2024-07-07T09:47:00.273</time></trkpt><trkpt lat="56.1102587" lon="44.4628080"><time>2024-07-07T09:47:03.270</time></trkpt><trkpt lat="56.1102255" lon="44.4628722"><time>2024-07-07T09:47:06.277</time></trkpt><trkpt lat="56.1101881" lon="44.4629497"><time>2024-07-07T09:47:09.287</time></trkpt><trkpt lat="56.1101554" lon="44.4630205"><time>2024-07-07T09:47:12.273</time></trkpt><trkpt lat="56.1101252" lon="44.4631063"><time>2024-07-07T09:47:15.273</time></trkpt><trkpt lat="56.1100999" lon="44.4631811"><time>2024-07-07T09:47:18.273</time></trkpt><trkpt lat="56.1100675" lon="44.4632492"><time>2024-07-07T09:47:21.277</time></trkpt><trkpt lat="56.1100341" lon="44.4633182"><time>2024-07-07T09:47:24.270</time></trkpt><trkpt lat="56.1100017" lon="44.4633922"><time>2024-07-07T09:47:27.270</time></trkpt><trkpt lat="56.1099770" lon="44.4634632"><time>2024-07-07T09:47:30.280</time></trkpt><trkpt lat="56.1099542" lon="44.4635441"><time>2024-07-07T09:47:33.270</time></trkpt><trkpt lat="56.1099322" lon="44.4636268"><time>2024-07-07T09:47:36.277</time></trkpt><trkpt lat="56.1099091" lon="44.4637048"><time>2024-07-07T09:47:39.270</time></trkpt><trkpt lat="56.1098874" lon="44.4637849"><time>2024-07-07T09:47:42.280</time></trkpt><trkpt lat="56.1098641" lon="44.4638630"><time>2024-07-07T09:47:45.267</time></trkpt><trkpt lat="56.1098347" lon="44.4639510"><time>2024-07-07T09:47:48.277</time></trkpt><trkpt lat="56.1098080" lon="44.4640423"><time>2024-07-07T09:47:51.280</time></trkpt><trkpt lat="56.1097783" lon="44.4641252"><time>2024-07-07T09:47:54.280</time></trkpt><trkpt lat="56.1097441" lon="44.4641944"><time>2024-07-07T09:47:57.277</time></trkpt><trkpt lat="56.1097039" lon="44.4642649"><time>2024-07-07T09:48:00.277</time></trkpt><trkpt lat="56.1096693" lon="44.4643372"><time>2024-07-07T09:48:03.270</time></trkpt><trkpt lat="56.1096255" lon="44.4644051"><time>2024-07-07T09:48:06.287</time></trkpt><trkpt lat="56.1095888" lon="44.4644678"><time>2024-07-07T09:48:09.270</time></trkpt><trkpt lat="56.1095546" lon="44.4645273"><time>2024-07-07T09:48:12.263</time></trkpt><trkpt lat="56.1095221" lon="44.4645867"><time>2024-07-07T09:48:15.277</time></trkpt><trkpt lat="56.1094934" lon="44.4646657"><time>2024-07-07T09:48:19.267</time></trkpt><trkpt lat="56.1094653" lon="44.4647567"><time>2024-07-07T09:48:23.283</time></trkpt><trkpt lat="56.1094464" lon="44.4648371"><time>2024-07-07T09:48:26.287</time></trkpt><trkpt lat="56.1094270" lon="44.4649193"><time>2024-07-07T09:48:29.287</time></trkpt><trkpt lat="56.1094022" lon="44.4650028"><time>2024-07-07T09:48:32.283</time></trkpt><trkpt lat="56.1093676" lon="44.4650734"><time>2024-07-07T09:48:35.263</time></trkpt><trkpt lat="56.1093380" lon="44.4651537"><time>2024-07-07T09:48:38.260</time></trkpt><trkpt lat="56.1093109" lon="44.4652353"><time>2024-07-07T09:48:41.273</time></trkpt><trkpt lat="56.1092809" lon="44.4653295"><time>2024-07-07T09:48:44.283</time></trkpt><trkpt lat="56.1092497" lon="44.4654178"><time>2024-07-07T09:48:47.267</time></trkpt><trkpt lat="56.1092172" lon="44.4655009"><time>2024-07-07T09:48:50.273</time></trkpt><trkpt lat="56.1091887" lon="44.4655708"><time>2024-07-07T09:48:53.273</time></trkpt><trkpt lat="56.1091531" lon="44.4656600"><time>2024-07-07T09:48:56.263</time></trkpt><trkpt lat="56.1091237" lon="44.4657413"><time>2024-07-07T09:48:59.273</time></trkpt><trkpt lat="56.1090991" lon="44.4658155"><time>2024-07-07T09:49:02.360</time></trkpt><trkpt lat="56.1090767" lon="44.4658973"><time>2024-07-07T09:49:05.273</time></trkpt><trkpt lat="56.1090473" lon="44.4659928"><time>2024-07-07T09:49:08.277</time></trkpt><trkpt lat="56.1090138" lon="44.4660769"><time>2024-07-07T09:49:11.277</time></trkpt><trkpt lat="56.1089839" lon="44.4661599"><time>2024-07-07T09:49:15.343</time></trkpt><trkpt lat="56.1089504" lon="44.4662317"><time>2024-07-07T09:49:18.283</time></trkpt><trkpt lat="56.1089189" lon="44.4663165"><time>2024-07-07T09:49:21.263</time></trkpt><trkpt lat="56.1088879" lon="44.4663774"><time>2024-07-07T09:49:24.267</time></trkpt><trkpt lat="56.1088582" lon="44.4664522"><time>2024-07-07T09:49:28.290</time></trkpt><trkpt lat="56.1088460" lon="44.4664691"><time>2024-07-07T09:49:29.793</time></trkpt><trkpt lat="56.1087903" lon="44.4665069"><time>2024-07-07T09:49:32.263</time></trkpt><trkpt lat="56.1087358" lon="44.4665506"><time>2024-07-07T09:49:35.343</time></trkpt><trkpt lat="56.1086933" lon="44.4666250"><time>2024-07-07T09:49:38.270</time></trkpt><trkpt lat="56.1086564" lon="44.4667040"><time>2024-07-07T09:49:41.273</time></trkpt><trkpt lat="56.1086271" lon="44.4667784"><time>2024-07-07T09:49:44.280</time></trkpt><trkpt lat="56.1086155" lon="44.4668651"><time>2024-07-07T09:49:47.270</time></trkpt><trkpt lat="56.1086070" lon="44.4669449"><time>2024-07-07T09:49:50.353</time></trkpt><trkpt lat="56.1085892" lon="44.4670251"><time>2024-07-07T09:49:53.277</time></trkpt><trkpt lat="56.1085631" lon="44.4671064"><time>2024-07-07T09:49:56.270</time></trkpt><trkpt lat="56.1085429" lon="44.4671820"><time>2024-07-07T09:49:59.270</time></trkpt><trkpt lat="56.1085243" lon="44.4672616"><time>2024-07-07T09:50:02.280</time></trkpt><trkpt lat="56.1085044" lon="44.4673615"><time>2024-07-07T09:50:05.287</time></trkpt><trkpt lat="56.1084769" lon="44.4674634"><time>2024-07-07T09:50:08.273</time></trkpt><trkpt lat="56.1084533" lon="44.4675536"><time>2024-07-07T09:50:11.277</time></trkpt><trkpt lat="56.1084312" lon="44.4676411"><time>2024-07-07T09:50:14.267</time></trkpt><trkpt lat="56.1084006" lon="44.4677251"><time>2024-07-07T09:50:17.273</time></trkpt><trkpt lat="56.1083715" lon="44.4678035"><time>2024-07-07T09:50:20.350</time></trkpt><trkpt lat="56.1083436" lon="44.4678841"><time>2024-07-07T09:50:23.280</time></trkpt><trkpt lat="56.1083224" lon="44.4679648"><time>2024-07-07T09:50:26.273</time></trkpt><trkpt lat="56.1082956" lon="44.4680532"><time>2024-07-07T09:50:29.273</time></trkpt><trkpt lat="56.1082700" lon="44.4681287"><time>2024-07-07T09:50:32.270</time></trkpt><trkpt lat="56.1082427" lon="44.4682120"><time>2024-07-07T09:50:35.270</time></trkpt><trkpt lat="56.1082186" lon="44.4682843"><time>2024-07-07T09:50:38.273</time></trkpt><trkpt lat="56.1081891" lon="44.4683543"><time>2024-07-07T09:50:41.277</time></trkpt><trkpt lat="56.1081578" lon="44.4684329"><time>2024-07-07T09:50:44.270</time></trkpt><trkpt lat="56.1081277" lon="44.4685103"><time>2024-07-07T09:50:47.273</time></trkpt><trkpt lat="56.1080968" lon="44.4685956"><time>2024-07-07T09:50:50.280</time></trkpt><trkpt lat="56.1080696" lon="44.4686875"><time>2024-07-07T09:50:53.263</time></trkpt><trkpt lat="56.1080455" lon="44.4687625"><time>2024-07-07T09:50:56.270</time></trkpt><trkpt lat="56.1080234" lon="44.4688359"><time>2024-07-07T09:50:59.277</time></trkpt><trkpt lat="56.1080014" lon="44.4689135"><time>2024-07-07T09:51:02.280</time></trkpt><trkpt lat="56.1079810" lon="44.4689924"><time>2024-07-07T09:51:05.273</time></trkpt><trkpt lat="56.1079534" lon="44.4690900"><time>2024-07-07T09:51:08.293</time></trkpt><trkpt lat="56.1079497" lon="44.4691109"><time>2024-07-07T09:51:09.417</time></trkpt><trkpt lat="56.1079286" lon="44.4691923"><time>2024-07-07T09:51:11.263</time></trkpt><trkpt lat="56.1078923" lon="44.4692684"><time>2024-07-07T09:51:16.267</time></trkpt><trkpt lat="56.1078547" lon="44.4693334"><time>2024-07-07T09:51:20.267</time></trkpt><trkpt lat="56.1078196" lon="44.4693957"><time>2024-07-07T09:51:24.267</time></trkpt><trkpt lat="56.1077880" lon="44.4694578"><time>2024-07-07T09:51:27.273</time></trkpt><trkpt lat="56.1077577" lon="44.4695223"><time>2024-07-07T09:51:30.267</time></trkpt><trkpt lat="56.1077251" lon="44.4695948"><time>2024-07-07T09:51:33.270</time></trkpt><trkpt lat="56.1076869" lon="44.4696704"><time>2024-07-07T09:51:36.270</time></trkpt><trkpt lat="56.1076528" lon="44.4697615"><time>2024-07-07T09:51:39.277</time></trkpt><trkpt lat="56.1076241" lon="44.4698603"><time>2024-07-07T09:51:42.273</time></trkpt><trkpt lat="56.1075946" lon="44.4699629"><time>2024-07-07T09:51:45.277</time></trkpt><trkpt lat="56.1075691" lon="44.4700532"><time>2024-07-07T09:51:48.273</time></trkpt><trkpt lat="56.1075444" lon="44.4701371"><time>2024-07-07T09:51:51.267</time></trkpt><trkpt lat="56.1075189" lon="44.4702208"><time>2024-07-07T09:51:54.277</time></trkpt><trkpt lat="56.1074895" lon="44.4703056"><time>2024-07-07T09:51:57.273</time></trkpt><trkpt lat="56.1074598" lon="44.4703841"><time>2024-07-07T09:52:00.277</time></trkpt><trkpt lat="56.1074323" lon="44.4704696"><time>2024-07-07T09:52:03.273</time></trkpt><trkpt lat="56.1074087" lon="44.4705589"><time>2024-07-07T09:52:06.270</time></trkpt><trkpt lat="56.1073778" lon="44.4706486"><time>2024-07-07T09:52:09.273</time></trkpt><trkpt lat="56.1073461" lon="44.4707122"><time>2024-07-07T09:52:12.277</time></trkpt><trkpt lat="56.1073157" lon="44.4707741"><time>2024-07-07T09:52:15.267</time></trkpt><trkpt lat="56.1072872" lon="44.4708455"><time>2024-07-07T09:52:18.277</time></trkpt><trkpt lat="56.1072587" lon="44.4709136"><time>2024-07-07T09:52:21.280</time></trkpt><trkpt lat="56.1072212" lon="44.4709812"><time>2024-07-07T09:52:24.267</time></trkpt><trkpt lat="56.1071875" lon="44.4710359"><time>2024-07-07T09:52:27.360</time></trkpt><trkpt lat="56.1071483" lon="44.4710845"><time>2024-07-07T09:52:31.260</time></trkpt><trkpt lat="56.1070967" lon="44.4711145"><time>2024-07-07T09:52:36.280</time></trkpt><trkpt lat="56.1070515" lon="44.4711086"><time>2024-07-07T09:52:40.277</time></trkpt><trkpt lat="56.1070070" lon="44.4710885"><time>2024-07-07T09:52:44.273</time></trkpt><trkpt lat="56.1069689" lon="44.4710251"><time>2024-07-07T09:52:49.273</time></trkpt><trkpt lat="56.1069403" lon="44.4709515"><time>2024-07-07T09:52:54.267</time></trkpt><trkpt lat="56.1069172" lon="44.4708768"><time>2024-07-07T09:52:59.263</time></trkpt><trkpt lat="56.1069023" lon="44.4707862"><time>2024-07-07T09:53:04.273</time></trkpt><trkpt lat="56.1068820" lon="44.4706852"><time>2024-07-07T09:53:08.267</time></trkpt><trkpt lat="56.1068755" lon="44.4705970"><time>2024-07-07T09:53:11.350</time></trkpt><trkpt lat="56.1068628" lon="44.4705104"><time>2024-07-07T09:53:14.273</time></trkpt><trkpt lat="56.1068557" lon="44.4704166"><time>2024-07-07T09:53:18.270</time></trkpt><trkpt lat="56.1068563" lon="44.4703332"><time>2024-07-07T09:53:21.267</time></trkpt><trkpt lat="56.1068575" lon="44.4702388"><time>2024-07-07T09:53:24.263</time></trkpt><trkpt lat="56.1068620" lon="44.4701491"><time>2024-07-07T09:53:27.263</time></trkpt><trkpt lat="56.1068659" lon="44.4700542"><time>2024-07-07T09:53:31.273</time></trkpt><trkpt lat="56.1068591" lon="44.4699496"><time>2024-07-07T09:53:35.270</time></trkpt><trkpt lat="56.1068466" lon="44.4698395"><time>2024-07-07T09:53:39.277</time></trkpt><trkpt lat="56.1068329" lon="44.4697432"><time>2024-07-07T09:53:43.270</time></trkpt><trkpt lat="56.1068236" lon="44.4696417"><time>2024-07-07T09:53:47.267</time></trkpt><trkpt lat="56.1068416" lon="44.4695438"><time>2024-07-07T09:53:51.270</time></trkpt><trkpt lat="56.1068475" lon="44.4694608"><time>2024-07-07T09:53:54.280</time></trkpt><trkpt lat="56.1068594" lon="44.4693601"><time>2024-07-07T09:53:58.350</time></trkpt><trkpt lat="56.1068547" lon="44.4693490"><time>2024-07-07T09:53:59.463</time></trkpt><trkpt lat="56.1068663" lon="44.4692700"><time>2024-07-07T09:54:02.270</time></trkpt><trkpt lat="56.1068801" lon="44.4691878"><time>2024-07-07T09:54:05.267</time></trkpt><trkpt lat="56.1068766" lon="44.4690843"><time>2024-07-07T09:54:08.267</time></trkpt><trkpt lat="56.1068698" lon="44.4689897"><time>2024-07-07T09:54:11.267</time></trkpt><trkpt lat="56.1068717" lon="44.4689023"><time>2024-07-07T09:54:14.270</time></trkpt><trkpt lat="56.1068742" lon="44.4688205"><time>2024-07-07T09:54:17.267</time></trkpt><trkpt lat="56.1068823" lon="44.4687404"><time>2024-07-07T09:54:21.267</time></trkpt><trkpt lat="56.1069162" lon="44.4686849"><time>2024-07-07T09:54:25.267</time></trkpt><trkpt lat="56.1069506" lon="44.4686117"><time>2024-07-07T09:54:29.267</time></trkpt><trkpt lat="56.1069699" lon="44.4685166"><time>2024-07-07T09:54:33.267</time></trkpt><trkpt lat="56.1069767" lon="44.4684304"><time>2024-07-07T09:54:36.270</time></trkpt><trkpt lat="56.1069766" lon="44.4683370"><time>2024-07-07T09:54:39.270</time></trkpt><trkpt lat="56.1069909" lon="44.4682592"><time>2024-07-07T09:54:42.273</time></trkpt><trkpt lat="56.1070141" lon="44.4681846"><time>2024-07-07T09:54:45.267</time></trkpt><trkpt lat="56.1070341" lon="44.4681087"><time>2024-07-07T09:54:48.270</time></trkpt><trkpt lat="56.1070383" lon="44.4680250"><time>2024-07-07T09:54:51.343</time></trkpt><trkpt lat="56.1070371" lon="44.4679395"><time>2024-07-07T09:54:54.267</time></trkpt><trkpt lat="56.1070414" lon="44.4678317"><time>2024-07-07T09:54:58.300</time></trkpt><trkpt lat="56.1070440" lon="44.4678084"><time>2024-07-07T09:54:59.427</time></trkpt><trkpt lat="56.1070652" lon="44.4677084"><time>2024-07-07T09:55:02.267</time></trkpt><trkpt lat="56.1070736" lon="44.4676212"><time>2024-07-07T09:55:05.267</time></trkpt><trkpt lat="56.1070771" lon="44.4675406"><time>2024-07-07T09:55:08.270</time></trkpt><trkpt lat="56.1070910" lon="44.4674383"><time>2024-07-07T09:55:12.270</time></trkpt><trkpt lat="56.1071074" lon="44.4673364"><time>2024-07-07T09:55:16.340</time></trkpt><trkpt lat="56.1071253" lon="44.4672373"><time>2024-07-07T09:55:20.263</time></trkpt><trkpt lat="56.1071249" lon="44.4671472"><time>2024-07-07T09:55:23.263</time></trkpt><trkpt lat="56.1071125" lon="44.4670665"><time>2024-07-07T09:55:26.267</time></trkpt><trkpt lat="56.1071044" lon="44.4669672"><time>2024-07-07T09:55:30.287</time></trkpt><trkpt lat="56.1070978" lon="44.4669461"><time>2024-07-07T09:55:31.433</time></trkpt><trkpt lat="56.1070950" lon="44.4668623"><time>2024-07-07T09:55:34.267</time></trkpt><trkpt lat="56.1070931" lon="44.4667737"><time>2024-07-07T09:55:37.267</time></trkpt><trkpt lat="56.1070950" lon="44.4666828"><time>2024-07-07T09:55:40.263</time></trkpt><trkpt lat="56.1071060" lon="44.4665981"><time>2024-07-07T09:55:43.280</time></trkpt><trkpt lat="56.1071146" lon="44.4665124"><time>2024-07-07T09:55:46.273</time></trkpt><trkpt lat="56.1071146" lon="44.4665124"><time>2024-07-07T09:55:46.310</time></trkpt><trkpt lat="56.1071224" lon="44.4664218"><time>2024-07-07T09:55:50.290</time></trkpt><trkpt lat="56.1071286" lon="44.4664243"><time>2024-07-07T09:55:51.413</time></trkpt><trkpt lat="56.1071588" lon="44.4665070"><time>2024-07-07T09:56:07.277</time></trkpt><trkpt lat="56.1071454" lon="44.4666030"><time>2024-07-07T09:56:11.270</time></trkpt><trkpt lat="56.1071403" lon="44.4666941"><time>2024-07-07T09:56:14.280</time></trkpt><trkpt lat="56.1071352" lon="44.4667917"><time>2024-07-07T09:56:17.280</time></trkpt><trkpt lat="56.1071362" lon="44.4668859"><time>2024-07-07T09:56:20.270</time></trkpt><trkpt lat="56.1071606" lon="44.4669701"><time>2024-07-07T09:56:24.337</time></trkpt><trkpt lat="56.1071764" lon="44.4670464"><time>2024-07-07T09:56:38.280</time></trkpt><trkpt lat="56.1071541" lon="44.4671207"><time>2024-07-07T09:56:42.257</time></trkpt><trkpt lat="56.1071290" lon="44.4671909"><time>2024-07-07T09:56:45.260</time></trkpt><trkpt lat="56.1071068" lon="44.4672787"><time>2024-07-07T09:56:48.263</time></trkpt><trkpt lat="56.1070903" lon="44.4673704"><time>2024-07-07T09:56:51.277</time></trkpt><trkpt lat="56.1070769" lon="44.4674664"><time>2024-07-07T09:56:54.273</time></trkpt><trkpt lat="56.1070574" lon="44.4675721"><time>2024-07-07T09:56:57.267</time></trkpt><trkpt lat="56.1070372" lon="44.4676501"><time>2024-07-07T09:57:00.280</time></trkpt><trkpt lat="56.1070139" lon="44.4677213"><time>2024-07-07T09:57:03.267</time></trkpt><trkpt lat="56.1070058" lon="44.4678113"><time>2024-07-07T09:57:06.263</time></trkpt><trkpt lat="56.1069732" lon="44.4679012"><time>2024-07-07T09:57:10.277</time></trkpt><trkpt lat="56.1069303" lon="44.4679686"><time>2024-07-07T09:57:14.263</time></trkpt><trkpt lat="56.1068894" lon="44.4680322"><time>2024-07-07T09:57:18.270</time></trkpt><trkpt lat="56.1068574" lon="44.4680965"><time>2024-07-07T09:57:22.273</time></trkpt><trkpt lat="56.1068225" lon="44.4681531"><time>2024-07-07T09:57:25.277</time></trkpt><trkpt lat="56.1067841" lon="44.4682214"><time>2024-07-07T09:57:28.287</time></trkpt><trkpt lat="56.1067438" lon="44.4682921"><time>2024-07-07T09:57:31.263</time></trkpt><trkpt lat="56.1066923" lon="44.4683300"><time>2024-07-07T09:57:35.263</time></trkpt><trkpt lat="56.1066421" lon="44.4683491"><time>2024-07-07T09:58:01.267</time></trkpt><trkpt lat="56.1065994" lon="44.4683194"><time>2024-07-07T09:58:06.267</time></trkpt><trkpt lat="56.1065540" lon="44.4683073"><time>2024-07-07T09:58:11.280</time></trkpt><trkpt lat="56.1065449" lon="44.4682982"><time>2024-07-07T09:58:12.397</time></trkpt><trkpt lat="56.1064896" lon="44.4683070"><time>2024-07-07T09:58:17.267</time></trkpt><trkpt lat="56.1064456" lon="44.4683244"><time>2024-07-07T09:58:21.337</time></trkpt><trkpt lat="56.1063944" lon="44.4683463"><time>2024-07-07T09:58:26.267</time></trkpt><trkpt lat="56.1063499" lon="44.4683704"><time>2024-07-07T09:58:30.263</time></trkpt><trkpt lat="56.1063012" lon="44.4683795"><time>2024-07-07T09:58:34.283</time></trkpt><trkpt lat="56.1062625" lon="44.4684204"><time>2024-07-07T09:58:38.283</time></trkpt><trkpt lat="56.1062175" lon="44.4684343"><time>2024-07-07T09:58:42.350</time></trkpt><trkpt lat="56.1061662" lon="44.4684032"><time>2024-07-07T09:58:46.273</time></trkpt><trkpt lat="56.1061204" lon="44.4684013"><time>2024-07-07T09:58:55.290</time></trkpt><trkpt lat="56.1060848" lon="44.4684604"><time>2024-07-07T09:59:04.283</time></trkpt><trkpt lat="56.1060449" lon="44.4684110"><time>2024-07-07T09:59:09.283</time></trkpt><trkpt lat="56.1060202" lon="44.4683357"><time>2024-07-07T09:59:14.280</time></trkpt><trkpt lat="56.1059743" lon="44.4683314"><time>2024-07-07T09:59:21.287</time></trkpt><trkpt lat="56.1059197" lon="44.4683130"><time>2024-07-07T09:59:31.283</time></trkpt><trkpt lat="56.1058723" lon="44.4682912"><time>2024-07-07T09:59:37.283</time></trkpt><trkpt lat="56.1058246" lon="44.4682675"><time>2024-07-07T09:59:43.283</time></trkpt><trkpt lat="56.1057810" lon="44.4682070"><time>2024-07-07T09:59:48.287</time></trkpt><trkpt lat="56.1057335" lon="44.4681754"><time>2024-07-07T09:59:54.287</time></trkpt><trkpt lat="56.1056894" lon="44.4681100"><time>2024-07-07T09:59:59.283</time></trkpt><trkpt lat="56.1056466" lon="44.4680801"><time>2024-07-07T10:00:03.280</time></trkpt><trkpt lat="56.1055922" lon="44.4680418"><time>2024-07-07T10:00:09.280</time></trkpt><trkpt lat="56.1055524" lon="44.4679976"><time>2024-07-07T10:00:13.317</time></trkpt><trkpt lat="56.1055472" lon="44.4679895"><time>2024-07-07T10:00:14.290</time></trkpt><trkpt lat="56.1054993" lon="44.4679227"><time>2024-07-07T10:00:18.290</time></trkpt><trkpt lat="56.1054775" lon="44.4678476"><time>2024-07-07T10:00:23.290</time></trkpt><trkpt lat="56.1054798" lon="44.4677651"><time>2024-07-07T10:00:28.300</time></trkpt><trkpt lat="56.1054807" lon="44.4676706"><time>2024-07-07T10:00:33.297</time></trkpt><trkpt lat="56.1054847" lon="44.4675837"><time>2024-07-07T10:00:38.300</time></trkpt><trkpt lat="56.1054769" lon="44.4674875"><time>2024-07-07T10:00:43.290</time></trkpt><trkpt lat="56.1054671" lon="44.4673995"><time>2024-07-07T10:00:47.297</time></trkpt><trkpt lat="56.1054638" lon="44.4673100"><time>2024-07-07T10:00:51.290</time></trkpt><trkpt lat="56.1054725" lon="44.4672125"><time>2024-07-07T10:00:56.293</time></trkpt><trkpt lat="56.1054746" lon="44.4671286"><time>2024-07-07T10:00:59.293</time></trkpt><trkpt lat="56.1054690" lon="44.4670486"><time>2024-07-07T10:01:04.290</time></trkpt><trkpt lat="56.1054188" lon="44.4670162"><time>2024-07-07T10:01:09.290</time></trkpt><trkpt lat="56.1053724" lon="44.4669844"><time>2024-07-07T10:01:16.317</time></trkpt><trkpt lat="56.1053625" lon="44.4669735"><time>2024-07-07T10:01:17.297</time></trkpt><trkpt lat="56.1053165" lon="44.4669415"><time>2024-07-07T10:01:20.290</time></trkpt><trkpt lat="56.1052710" lon="44.4669627"><time>2024-07-07T10:01:24.307</time></trkpt><trkpt lat="56.1052351" lon="44.4670474"><time>2024-07-07T10:01:28.307</time></trkpt><trkpt lat="56.1051892" lon="44.4670951"><time>2024-07-07T10:01:33.290</time></trkpt><trkpt lat="56.1051431" lon="44.4670935"><time>2024-07-07T10:01:38.287</time></trkpt><trkpt lat="56.1050984" lon="44.4670566"><time>2024-07-07T10:01:44.293</time></trkpt><trkpt lat="56.1050779" lon="44.4669827"><time>2024-07-07T10:01:50.310</time></trkpt><trkpt lat="56.1050779" lon="44.4669827"><time>2024-07-07T10:01:50.360</time></trkpt><trkpt lat="56.1051073" lon="44.4670437"><time>2024-07-07T10:02:00.327</time></trkpt><trkpt lat="56.1051182" lon="44.4670595"><time>2024-07-07T10:02:01.293</time></trkpt><trkpt lat="56.1051700" lon="44.4670669"><time>2024-07-07T10:02:06.293</time></trkpt><trkpt lat="56.1052189" lon="44.4670808"><time>2024-07-07T10:02:12.290</time></trkpt><trkpt lat="56.1052726" lon="44.4670665"><time>2024-07-07T10:02:16.290</time></trkpt><trkpt lat="56.1053218" lon="44.4670335"><time>2024-07-07T10:02:21.300</time></trkpt><trkpt lat="56.1053679" lon="44.4670292"><time>2024-07-07T10:02:28.297</time></trkpt><trkpt lat="56.1054046" lon="44.4670941"><time>2024-07-07T10:02:34.310</time></trkpt><trkpt lat="56.1054187" lon="44.4671919"><time>2024-07-07T10:02:39.287</time></trkpt><trkpt lat="56.1054545" lon="44.4672428"><time>2024-07-07T10:02:45.257</time></trkpt><trkpt lat="56.1055045" lon="44.4672901"><time>2024-07-07T10:02:56.317</time></trkpt><trkpt lat="56.1055534" lon="44.4673090"><time>2024-07-07T10:03:01.287</time></trkpt><trkpt lat="56.1055980" lon="44.4673554"><time>2024-07-07T10:03:08.307</time></trkpt><trkpt lat="56.1056431" lon="44.4673895"><time>2024-07-07T10:03:13.297</time></trkpt><trkpt lat="56.1056753" lon="44.4674502"><time>2024-07-07T10:03:18.293</time></trkpt><trkpt lat="56.1057161" lon="44.4674910"><time>2024-07-07T10:03:24.293</time></trkpt><trkpt lat="56.1057696" lon="44.4675175"><time>2024-07-07T10:03:29.300</time></trkpt><trkpt lat="56.1058229" lon="44.4675250"><time>2024-07-07T10:03:33.300</time></trkpt><trkpt lat="56.1058713" lon="44.4675342"><time>2024-07-07T10:03:37.307</time></trkpt><trkpt lat="56.1059205" lon="44.4675364"><time>2024-07-07T10:03:41.310</time></trkpt><trkpt lat="56.1059670" lon="44.4675337"><time>2024-07-07T10:03:45.307</time></trkpt><trkpt lat="56.1060173" lon="44.4675375"><time>2024-07-07T10:03:49.313</time></trkpt><trkpt lat="56.1060648" lon="44.4675535"><time>2024-07-07T10:03:53.317</time></trkpt><trkpt lat="56.1061123" lon="44.4675732"><time>2024-07-07T10:03:58.297</time></trkpt><trkpt lat="56.1061334" lon="44.4676651"><time>2024-07-07T10:04:03.313</time></trkpt><trkpt lat="56.1061272" lon="44.4677480"><time>2024-07-07T10:04:07.320</time></trkpt><trkpt lat="56.1061179" lon="44.4678348"><time>2024-07-07T10:04:11.320</time></trkpt><trkpt lat="56.1060983" lon="44.4679191"><time>2024-07-07T10:04:15.313</time></trkpt><trkpt lat="56.1060836" lon="44.4680053"><time>2024-07-07T10:04:19.380</time></trkpt><trkpt lat="56.1060773" lon="44.4680887"><time>2024-07-07T10:04:23.393</time></trkpt><trkpt lat="56.1060693" lon="44.4681771"><time>2024-07-07T10:04:27.390</time></trkpt><trkpt lat="56.1060717" lon="44.4682591"><time>2024-07-07T10:04:31.297</time></trkpt><trkpt lat="56.1061142" lon="44.4682886"><time>2024-07-07T10:04:36.370</time></trkpt><trkpt lat="56.1061586" lon="44.4683107"><time>2024-07-07T10:04:41.370</time></trkpt><trkpt lat="56.1062080" lon="44.4683444"><time>2024-07-07T10:04:46.373</time></trkpt><trkpt lat="56.1062621" lon="44.4683349"><time>2024-07-07T10:04:51.383</time></trkpt><trkpt lat="56.1063110" lon="44.4683066"><time>2024-07-07T10:04:55.380</time></trkpt><trkpt lat="56.1063612" lon="44.4682968"><time>2024-07-07T10:04:59.367</time></trkpt><trkpt lat="56.1064074" lon="44.4682836"><time>2024-07-07T10:05:03.380</time></trkpt><trkpt lat="56.1064603" lon="44.4682775"><time>2024-07-07T10:05:08.363</time></trkpt><trkpt lat="56.1065057" lon="44.4682892"><time>2024-07-07T10:05:13.367</time></trkpt><trkpt lat="56.1065517" lon="44.4683123"><time>2024-07-07T10:05:19.373</time></trkpt><trkpt lat="56.1066016" lon="44.4683252"><time>2024-07-07T10:05:25.363</time></trkpt><trkpt lat="56.1066450" lon="44.4683588"><time>2024-07-07T10:06:09.343</time></trkpt><trkpt lat="56.1066914" lon="44.4683459"><time>2024-07-07T10:06:27.263</time></trkpt><trkpt lat="56.1067016" lon="44.4684473"><time>2024-07-07T10:06:44.337</time></trkpt><trkpt lat="56.1067014" lon="44.4685499"><time>2024-07-07T10:06:49.340</time></trkpt><trkpt lat="56.1067172" lon="44.4686328"><time>2024-07-07T10:06:56.347</time></trkpt><trkpt lat="56.1067249" lon="44.4687175"><time>2024-07-07T10:07:01.337</time></trkpt><trkpt lat="56.1067235" lon="44.4688216"><time>2024-07-07T10:07:07.333</time></trkpt><trkpt lat="56.1067145" lon="44.4689033"><time>2024-07-07T10:07:09.343</time></trkpt><trkpt lat="56.1067084" lon="44.4689979"><time>2024-07-07T10:07:16.343</time></trkpt><trkpt lat="56.1067192" lon="44.4690802"><time>2024-07-07T10:07:18.353</time></trkpt><trkpt lat="56.1067292" lon="44.4691665"><time>2024-07-07T10:07:20.343</time></trkpt><trkpt lat="56.1067350" lon="44.4692462"><time>2024-07-07T10:07:22.340</time></trkpt><trkpt lat="56.1067348" lon="44.4693594"><time>2024-07-07T10:07:27.340</time></trkpt><trkpt lat="56.1067260" lon="44.4694455"><time>2024-07-07T10:07:29.337</time></trkpt><trkpt lat="56.1067159" lon="44.4695345"><time>2024-07-07T10:07:31.337</time></trkpt><trkpt lat="56.1067029" lon="44.4696257"><time>2024-07-07T10:07:33.340</time></trkpt><trkpt lat="56.1066858" lon="44.4697017"><time>2024-07-07T10:07:35.333</time></trkpt><trkpt lat="56.1066708" lon="44.4697783"><time>2024-07-07T10:07:37.340</time></trkpt><trkpt lat="56.1066583" lon="44.4698592"><time>2024-07-07T10:07:39.340</time></trkpt><trkpt lat="56.1066464" lon="44.4699393"><time>2024-07-07T10:07:41.337</time></trkpt><trkpt lat="56.1066420" lon="44.4700503"><time>2024-07-07T10:07:44.337</time></trkpt><trkpt lat="56.1066480" lon="44.4701544"><time>2024-07-07T10:07:47.337</time></trkpt><trkpt lat="56.1066582" lon="44.4702663"><time>2024-07-07T10:07:50.273</time></trkpt><trkpt lat="56.1066626" lon="44.4703623"><time>2024-07-07T10:07:54.337</time></trkpt><trkpt lat="56.1066586" lon="44.4704559"><time>2024-07-07T10:08:00.340</time></trkpt><trkpt lat="56.1066282" lon="44.4705485"><time>2024-07-07T10:08:04.333</time></trkpt><trkpt lat="56.1066040" lon="44.4706636"><time>2024-07-07T10:08:07.337</time></trkpt><trkpt lat="56.1065855" lon="44.4707651"><time>2024-07-07T10:08:10.337</time></trkpt><trkpt lat="56.1065734" lon="44.4708753"><time>2024-07-07T10:08:13.337</time></trkpt><trkpt lat="56.1065575" lon="44.4709920"><time>2024-07-07T10:08:16.340</time></trkpt><trkpt lat="56.1065363" lon="44.4710925"><time>2024-07-07T10:08:25.340</time></trkpt><trkpt lat="56.1065236" lon="44.4711707"><time>2024-07-07T10:08:28.337</time></trkpt><trkpt lat="56.1065154" lon="44.4712742"><time>2024-07-07T10:08:31.337</time></trkpt><trkpt lat="56.1065142" lon="44.4713638"><time>2024-07-07T10:08:33.343</time></trkpt><trkpt lat="56.1065128" lon="44.4714628"><time>2024-07-07T10:08:35.347</time></trkpt><trkpt lat="56.1065071" lon="44.4715478"><time>2024-07-07T10:08:37.337</time></trkpt><trkpt lat="56.1065013" lon="44.4716377"><time>2024-07-07T10:08:39.267</time></trkpt><trkpt lat="56.1064985" lon="44.4717533"><time>2024-07-07T10:08:42.340</time></trkpt><trkpt lat="56.1064925" lon="44.4718449"><time>2024-07-07T10:08:49.337</time></trkpt><trkpt lat="56.1064894" lon="44.4719484"><time>2024-07-07T10:08:52.337</time></trkpt><trkpt lat="56.1064800" lon="44.4720343"><time>2024-07-07T10:08:55.337</time></trkpt><trkpt lat="56.1064652" lon="44.4721445"><time>2024-07-07T10:09:02.333</time></trkpt><trkpt lat="56.1064421" lon="44.4722457"><time>2024-07-07T10:09:05.337</time></trkpt><trkpt lat="56.1064161" lon="44.4723446"><time>2024-07-07T10:09:08.333</time></trkpt><trkpt lat="56.1063935" lon="44.4724200"><time>2024-07-07T10:09:10.337</time></trkpt><trkpt lat="56.1063667" lon="44.4725269"><time>2024-07-07T10:09:13.340</time></trkpt><trkpt lat="56.1063557" lon="44.4726059"><time>2024-07-07T10:09:15.343</time></trkpt><trkpt lat="56.1063459" lon="44.4726871"><time>2024-07-07T10:09:17.340</time></trkpt><trkpt lat="56.1063305" lon="44.4727928"><time>2024-07-07T10:09:20.340</time></trkpt><trkpt lat="56.1063055" lon="44.4728892"><time>2024-07-07T10:09:23.343</time></trkpt><trkpt lat="56.1062830" lon="44.4729991"><time>2024-07-07T10:09:26.343</time></trkpt><trkpt lat="56.1062603" lon="44.4731000"><time>2024-07-07T10:09:29.337</time></trkpt><trkpt lat="56.1062343" lon="44.4731819"><time>2024-07-07T10:09:32.340</time></trkpt><trkpt lat="56.1062113" lon="44.4732525"><time>2024-07-07T10:09:35.337</time></trkpt><trkpt lat="56.1061865" lon="44.4733480"><time>2024-07-07T10:09:39.343</time></trkpt><trkpt lat="56.1061527" lon="44.4734236"><time>2024-07-07T10:09:43.343</time></trkpt><trkpt lat="56.1061365" lon="44.4735200"><time>2024-07-07T10:09:46.340</time></trkpt><trkpt lat="56.1061319" lon="44.4736257"><time>2024-07-07T10:09:49.353</time></trkpt><trkpt lat="56.1061282" lon="44.4737284"><time>2024-07-07T10:09:52.337</time></trkpt><trkpt lat="56.1061197" lon="44.4738398"><time>2024-07-07T10:09:56.340</time></trkpt><trkpt lat="56.1060978" lon="44.4739406"><time>2024-07-07T10:09:59.267</time></trkpt><trkpt lat="56.1060825" lon="44.4740328"><time>2024-07-07T10:10:02.340</time></trkpt><trkpt lat="56.1060818" lon="44.4741138"><time>2024-07-07T10:10:05.337</time></trkpt><trkpt lat="56.1060643" lon="44.4742066"><time>2024-07-07T10:10:08.337</time></trkpt><trkpt lat="56.1060358" lon="44.4742828"><time>2024-07-07T10:10:11.340</time></trkpt><trkpt lat="56.1060036" lon="44.4743581"><time>2024-07-07T10:10:15.337</time></trkpt><trkpt lat="56.1059789" lon="44.4744465"><time>2024-07-07T10:10:19.337</time></trkpt><trkpt lat="56.1059635" lon="44.4745320"><time>2024-07-07T10:10:23.373</time></trkpt><trkpt lat="56.1059545" lon="44.4746416"><time>2024-07-07T10:10:27.340</time></trkpt><trkpt lat="56.1059393" lon="44.4747281"><time>2024-07-07T10:10:30.333</time></trkpt><trkpt lat="56.1059228" lon="44.4748121"><time>2024-07-07T10:10:33.267</time></trkpt><trkpt lat="56.1059029" lon="44.4749003"><time>2024-07-07T10:10:36.340</time></trkpt><trkpt lat="56.1058886" lon="44.4749773"><time>2024-07-07T10:10:39.333</time></trkpt><trkpt lat="56.1058753" lon="44.4750600"><time>2024-07-07T10:10:42.330</time></trkpt><trkpt lat="56.1058630" lon="44.4751377"><time>2024-07-07T10:10:46.260</time></trkpt><trkpt lat="56.1058296" lon="44.4751989"><time>2024-07-07T10:10:50.333</time></trkpt><trkpt lat="56.1057911" lon="44.4752516"><time>2024-07-07T10:10:53.263</time></trkpt><trkpt lat="56.1057398" lon="44.4753032"><time>2024-07-07T10:10:57.337</time></trkpt><trkpt lat="56.1056955" lon="44.4753319"><time>2024-07-07T10:11:01.267</time></trkpt><trkpt lat="56.1056505" lon="44.4753440"><time>2024-07-07T10:11:05.337</time></trkpt><trkpt lat="56.1056058" lon="44.4753082"><time>2024-07-07T10:11:12.337</time></trkpt><trkpt lat="56.1055547" lon="44.4752445"><time>2024-07-07T10:11:16.330</time></trkpt><trkpt lat="56.1054994" lon="44.4751869"><time>2024-07-07T10:11:21.263</time></trkpt><trkpt lat="56.1054516" lon="44.4751149"><time>2024-07-07T10:11:24.333</time></trkpt><trkpt lat="56.1054024" lon="44.4750506"><time>2024-07-07T10:11:27.333</time></trkpt><trkpt lat="56.1053541" lon="44.4749994"><time>2024-07-07T10:11:30.333</time></trkpt><trkpt lat="56.1053053" lon="44.4749682"><time>2024-07-07T10:11:33.333</time></trkpt><trkpt lat="56.1052565" lon="44.4749567"><time>2024-07-07T10:11:36.270</time></trkpt><trkpt lat="56.1051948" lon="44.4749530"><time>2024-07-07T10:11:40.340</time></trkpt><trkpt lat="56.1051327" lon="44.4749510"><time>2024-07-07T10:11:43.347</time></trkpt><trkpt lat="56.1050702" lon="44.4749679"><time>2024-07-07T10:11:46.333</time></trkpt><trkpt lat="56.1050187" lon="44.4749737"><time>2024-07-07T10:11:49.330</time></trkpt><trkpt lat="56.1049589" lon="44.4749598"><time>2024-07-07T10:11:54.337</time></trkpt><trkpt lat="56.1049050" lon="44.4749530"><time>2024-07-07T10:11:58.330</time></trkpt><trkpt lat="56.1048527" lon="44.4749563"><time>2024-07-07T10:12:01.337</time></trkpt><trkpt lat="56.1048003" lon="44.4749712"><time>2024-07-07T10:12:08.337</time></trkpt><trkpt lat="56.1047556" lon="44.4750036"><time>2024-07-07T10:12:11.333</time></trkpt><trkpt lat="56.1046979" lon="44.4750530"><time>2024-07-07T10:12:14.333</time></trkpt><trkpt lat="56.1046437" lon="44.4751001"><time>2024-07-07T10:12:17.343</time></trkpt><trkpt lat="56.1045962" lon="44.4751324"><time>2024-07-07T10:12:20.330</time></trkpt><trkpt lat="56.1045497" lon="44.4751698"><time>2024-07-07T10:12:23.337</time></trkpt><trkpt lat="56.1045036" lon="44.4752072"><time>2024-07-07T10:12:26.337</time></trkpt><trkpt lat="56.1044545" lon="44.4752635"><time>2024-07-07T10:12:29.330</time></trkpt><trkpt lat="56.1044200" lon="44.4753233"><time>2024-07-07T10:12:47.343</time></trkpt><trkpt lat="56.1044161" lon="44.4752409"><time>2024-07-07T10:12:58.267</time></trkpt><trkpt lat="56.1043770" lon="44.4753027"><time>2024-07-07T10:13:06.337</time></trkpt><trkpt lat="56.1043430" lon="44.4753655"><time>2024-07-07T10:13:15.333</time></trkpt><trkpt lat="56.1043496" lon="44.4754464"><time>2024-07-07T10:13:35.333</time></trkpt><trkpt lat="56.1043066" lon="44.4754765"><time>2024-07-07T10:13:44.327</time></trkpt><trkpt lat="56.1042639" lon="44.4755121"><time>2024-07-07T10:14:05.337</time></trkpt><trkpt lat="56.1042136" lon="44.4755268"><time>2024-07-07T10:14:17.333</time></trkpt><trkpt lat="56.1041685" lon="44.4755281"><time>2024-07-07T10:14:20.340</time></trkpt><trkpt lat="56.1041150" lon="44.4755287"><time>2024-07-07T10:14:24.340</time></trkpt><trkpt lat="56.1040554" lon="44.4755247"><time>2024-07-07T10:14:31.337</time></trkpt><trkpt lat="56.1039984" lon="44.4755136"><time>2024-07-07T10:14:34.330</time></trkpt><trkpt lat="56.1039413" lon="44.4755135"><time>2024-07-07T10:14:39.327</time></trkpt><trkpt lat="56.1038974" lon="44.4754923"><time>2024-07-07T10:14:43.340</time></trkpt><trkpt lat="56.1038423" lon="44.4754900"><time>2024-07-07T10:14:47.333</time></trkpt><trkpt lat="56.1037908" lon="44.4755204"><time>2024-07-07T10:14:50.333</time></trkpt><trkpt lat="56.1037433" lon="44.4755487"><time>2024-07-07T10:14:52.330</time></trkpt><trkpt lat="56.1036903" lon="44.4755689"><time>2024-07-07T10:14:54.330</time></trkpt><trkpt lat="56.1036349" lon="44.4755900"><time>2024-07-07T10:14:56.337</time></trkpt><trkpt lat="56.1035887" lon="44.4756045"><time>2024-07-07T10:14:59.337</time></trkpt><trkpt lat="56.1035284" lon="44.4755877"><time>2024-07-07T10:15:04.333</time></trkpt><trkpt lat="56.1034808" lon="44.4755592"><time>2024-07-07T10:15:15.330</time></trkpt><trkpt lat="56.1034212" lon="44.4755422"><time>2024-07-07T10:15:19.347</time></trkpt><trkpt lat="56.1033568" lon="44.4755659"><time>2024-07-07T10:15:22.337</time></trkpt><trkpt lat="56.1032966" lon="44.4756150"><time>2024-07-07T10:15:25.337</time></trkpt><trkpt lat="56.1032445" lon="44.4756837"><time>2024-07-07T10:15:28.337</time></trkpt><trkpt lat="56.1032031" lon="44.4757651"><time>2024-07-07T10:15:31.337</time></trkpt><trkpt lat="56.1031653" lon="44.4758628"><time>2024-07-07T10:15:34.263</time></trkpt><trkpt lat="56.1031315" lon="44.4759451"><time>2024-07-07T10:15:37.337</time></trkpt><trkpt lat="56.1031042" lon="44.4760099"><time>2024-07-07T10:15:40.333</time></trkpt><trkpt lat="56.1030644" lon="44.4760623"><time>2024-07-07T10:15:49.337</time></trkpt><trkpt lat="56.1030253" lon="44.4761431"><time>2024-07-07T10:15:53.333</time></trkpt><trkpt lat="56.1029983" lon="44.4762337"><time>2024-07-07T10:15:59.337</time></trkpt><trkpt lat="56.1029683" lon="44.4763149"><time>2024-07-07T10:16:01.337</time></trkpt><trkpt lat="56.1029424" lon="44.4763989"><time>2024-07-07T10:16:03.337</time></trkpt><trkpt lat="56.1029203" lon="44.4764865"><time>2024-07-07T10:16:05.337</time></trkpt><trkpt lat="56.1028970" lon="44.4765828"><time>2024-07-07T10:16:08.330</time></trkpt><trkpt lat="56.1028711" lon="44.4766486"><time>2024-07-07T10:16:11.337</time></trkpt><trkpt lat="56.1028328" lon="44.4766938"><time>2024-07-07T10:16:18.337</time></trkpt><trkpt lat="56.1027868" lon="44.4767331"><time>2024-07-07T10:16:21.330</time></trkpt><trkpt lat="56.1027386" lon="44.4767850"><time>2024-07-07T10:16:28.330</time></trkpt><trkpt lat="56.1026958" lon="44.4768252"><time>2024-07-07T10:16:30.337</time></trkpt><trkpt lat="56.1026544" lon="44.4768701"><time>2024-07-07T10:16:33.333</time></trkpt><trkpt lat="56.1026048" lon="44.4769190"><time>2024-07-07T10:16:36.337</time></trkpt><trkpt lat="56.1025539" lon="44.4769606"><time>2024-07-07T10:16:39.337</time></trkpt><trkpt lat="56.1025104" lon="44.4769895"><time>2024-07-07T10:16:42.340</time></trkpt><trkpt lat="56.1024684" lon="44.4770417"><time>2024-07-07T10:16:44.337</time></trkpt><trkpt lat="56.1024278" lon="44.4770961"><time>2024-07-07T10:16:46.333</time></trkpt><trkpt lat="56.1023841" lon="44.4771607"><time>2024-07-07T10:16:50.260</time></trkpt><trkpt lat="56.1023489" lon="44.4772173"><time>2024-07-07T10:16:53.337</time></trkpt><trkpt lat="56.1023134" lon="44.4772706"><time>2024-07-07T10:16:58.343</time></trkpt><trkpt lat="56.1022892" lon="44.4773413"><time>2024-07-07T10:17:06.337</time></trkpt><trkpt lat="56.1022548" lon="44.4774154"><time>2024-07-07T10:17:09.337</time></trkpt><trkpt lat="56.1022232" lon="44.4774743"><time>2024-07-07T10:17:12.333</time></trkpt><trkpt lat="56.1021918" lon="44.4775678"><time>2024-07-07T10:17:14.337</time></trkpt><trkpt lat="56.1021659" lon="44.4776619"><time>2024-07-07T10:17:16.333</time></trkpt><trkpt lat="56.1021472" lon="44.4777629"><time>2024-07-07T10:17:18.330</time></trkpt><trkpt lat="56.1021333" lon="44.4778563"><time>2024-07-07T10:17:20.337</time></trkpt><trkpt lat="56.1021195" lon="44.4779408"><time>2024-07-07T10:17:22.337</time></trkpt><trkpt lat="56.1021109" lon="44.4780466"><time>2024-07-07T10:17:25.333</time></trkpt><trkpt lat="56.1021059" lon="44.4781435"><time>2024-07-07T10:17:29.337</time></trkpt><trkpt lat="56.1020962" lon="44.4782329"><time>2024-07-07T10:17:34.333</time></trkpt><trkpt lat="56.1020741" lon="44.4783051"><time>2024-07-07T10:17:38.337</time></trkpt><trkpt lat="56.1020476" lon="44.4783749"><time>2024-07-07T10:17:42.333</time></trkpt><trkpt lat="56.1020189" lon="44.4784540"><time>2024-07-07T10:17:50.337</time></trkpt><trkpt lat="56.1020017" lon="44.4785593"><time>2024-07-07T10:17:53.333</time></trkpt><trkpt lat="56.1019883" lon="44.4786733"><time>2024-07-07T10:17:56.337</time></trkpt><trkpt lat="56.1019876" lon="44.4787892"><time>2024-07-07T10:17:59.340</time></trkpt><trkpt lat="56.1019931" lon="44.4788799"><time>2024-07-07T10:18:02.347</time></trkpt><trkpt lat="56.1019883" lon="44.4789613"><time>2024-07-07T10:18:08.330</time></trkpt><trkpt lat="56.1019849" lon="44.4790509"><time>2024-07-07T10:18:18.337</time></trkpt><trkpt lat="56.1019814" lon="44.4791533"><time>2024-07-07T10:18:21.333</time></trkpt><trkpt lat="56.1019690" lon="44.4792449"><time>2024-07-07T10:18:23.330</time></trkpt><trkpt lat="56.1019565" lon="44.4793351"><time>2024-07-07T10:18:25.340</time></trkpt><trkpt lat="56.1019516" lon="44.4794252"><time>2024-07-07T10:18:27.337</time></trkpt><trkpt lat="56.1019517" lon="44.4795098"><time>2024-07-07T10:18:29.337</time></trkpt><trkpt lat="56.1019514" lon="44.4796305"><time>2024-07-07T10:18:32.337</time></trkpt><trkpt lat="56.1019441" lon="44.4797381"><time>2024-07-07T10:18:35.337</time></trkpt><trkpt lat="56.1019270" lon="44.4798177"><time>2024-07-07T10:18:44.333</time></trkpt><trkpt lat="56.1019403" lon="44.4799280"><time>2024-07-07T10:18:48.337</time></trkpt><trkpt lat="56.1019490" lon="44.4800270"><time>2024-07-07T10:18:50.337</time></trkpt><trkpt lat="56.1019604" lon="44.4801201"><time>2024-07-07T10:18:52.340</time></trkpt><trkpt lat="56.1019768" lon="44.4802289"><time>2024-07-07T10:18:55.343</time></trkpt><trkpt lat="56.1019965" lon="44.4803298"><time>2024-07-07T10:18:58.340</time></trkpt><trkpt lat="56.1020030" lon="44.4804176"><time>2024-07-07T10:19:01.333</time></trkpt><trkpt lat="56.1020086" lon="44.4805171"><time>2024-07-07T10:19:11.333</time></trkpt><trkpt lat="56.1019972" lon="44.4806007"><time>2024-07-07T10:19:22.330</time></trkpt><trkpt lat="56.1020165" lon="44.4806881"><time>2024-07-07T10:19:29.333</time></trkpt><trkpt lat="56.1020289" lon="44.4807781"><time>2024-07-07T10:19:34.327</time></trkpt><trkpt lat="56.1020662" lon="44.4808329"><time>2024-07-07T10:20:37.327</time></trkpt><trkpt lat="56.1020846" lon="44.4809091"><time>2024-07-07T10:20:48.360</time></trkpt><trkpt lat="56.1020829" lon="44.4809996"><time>2024-07-07T10:20:53.363</time></trkpt><trkpt lat="56.1020563" lon="44.4810697"><time>2024-07-07T10:20:57.377</time></trkpt><trkpt lat="56.1020229" lon="44.4811280"><time>2024-07-07T10:21:01.350</time></trkpt><trkpt lat="56.1019831" lon="44.4811824"><time>2024-07-07T10:21:05.360</time></trkpt><trkpt lat="56.1019436" lon="44.4812272"><time>2024-07-07T10:21:25.343</time></trkpt><trkpt lat="56.1019176" lon="44.4813067"><time>2024-07-07T10:21:29.327</time></trkpt><trkpt lat="56.1018830" lon="44.4813638"><time>2024-07-07T10:21:32.360</time></trkpt><trkpt lat="56.1018464" lon="44.4814354"><time>2024-07-07T10:21:36.357</time></trkpt><trkpt lat="56.1018021" lon="44.4814874"><time>2024-07-07T10:21:40.357</time></trkpt><trkpt lat="56.1017608" lon="44.4815544"><time>2024-07-07T10:21:44.353</time></trkpt><trkpt lat="56.1017284" lon="44.4816220"><time>2024-07-07T10:21:48.367</time></trkpt><trkpt lat="56.1017122" lon="44.4816987"><time>2024-07-07T10:21:53.363</time></trkpt><trkpt lat="56.1016790" lon="44.4817757"><time>2024-07-07T10:21:57.373</time></trkpt><trkpt lat="56.1016658" lon="44.4818619"><time>2024-07-07T10:22:02.387</time></trkpt><trkpt lat="56.1016267" lon="44.4819120"><time>2024-07-07T10:22:05.297</time></trkpt><trkpt lat="56.1015779" lon="44.4819627"><time>2024-07-07T10:22:09.370</time></trkpt><trkpt lat="56.1015258" lon="44.4819463"><time>2024-07-07T10:22:13.367</time></trkpt><trkpt lat="56.1014764" lon="44.4819160"><time>2024-07-07T10:22:17.363</time></trkpt><trkpt lat="56.1014280" lon="44.4818696"><time>2024-07-07T10:22:21.290</time></trkpt><trkpt lat="56.1013895" lon="44.4818137"><time>2024-07-07T10:22:25.367</time></trkpt><trkpt lat="56.1013611" lon="44.4818881"><time>2024-07-07T10:22:56.383</time></trkpt><trkpt lat="56.1013201" lon="44.4819285"><time>2024-07-07T10:23:01.357</time></trkpt><trkpt lat="56.1012658" lon="44.4819016"><time>2024-07-07T10:23:05.293</time></trkpt><trkpt lat="56.1012151" lon="44.4818920"><time>2024-07-07T10:23:09.377</time></trkpt><trkpt lat="56.1011667" lon="44.4818844"><time>2024-07-07T10:23:13.367</time></trkpt><trkpt lat="56.1011160" lon="44.4819024"><time>2024-07-07T10:23:17.367</time></trkpt><trkpt lat="56.1010684" lon="44.4819276"><time>2024-07-07T10:23:45.280</time></trkpt><trkpt lat="56.1010190" lon="44.4819254"><time>2024-07-07T10:23:49.293</time></trkpt><trkpt lat="56.1009662" lon="44.4819241"><time>2024-07-07T10:23:53.360</time></trkpt><trkpt lat="56.1009109" lon="44.4819217"><time>2024-07-07T10:23:57.360</time></trkpt><trkpt lat="56.1008610" lon="44.4819205"><time>2024-07-07T10:24:01.357</time></trkpt><trkpt lat="56.1008152" lon="44.4818986"><time>2024-07-07T10:24:05.300</time></trkpt><trkpt lat="56.1007737" lon="44.4818600"><time>2024-07-07T10:24:09.363</time></trkpt><trkpt lat="56.1007271" lon="44.4818180"><time>2024-07-07T10:24:13.373</time></trkpt><trkpt lat="56.1006960" lon="44.4817520"><time>2024-07-07T10:24:17.283</time></trkpt><trkpt lat="56.1006598" lon="44.4816998"><time>2024-07-07T10:24:21.357</time></trkpt><trkpt lat="56.1006208" lon="44.4816528"><time>2024-07-07T10:24:25.360</time></trkpt><trkpt lat="56.1005880" lon="44.4815939"><time>2024-07-07T10:24:29.377</time></trkpt><trkpt lat="56.1005827" lon="44.4815945"><time>2024-07-07T10:24:30.503</time></trkpt><trkpt lat="56.1006180" lon="44.4816653"><time>2024-07-07T10:25:32.290</time></trkpt><trkpt lat="56.1006260" lon="44.4816740"><time>2024-07-07T10:25:33.410</time></trkpt><trkpt lat="56.1006791" lon="44.4816840"><time>2024-07-07T10:25:39.343</time></trkpt><trkpt lat="56.1007281" lon="44.4817021"><time>2024-07-07T10:25:44.333</time></trkpt><trkpt lat="56.1007732" lon="44.4817087"><time>2024-07-07T10:25:48.260</time></trkpt><trkpt lat="56.1008240" lon="44.4817380"><time>2024-07-07T10:25:53.340</time></trkpt><trkpt lat="56.1008667" lon="44.4817671"><time>2024-07-07T10:25:57.340</time></trkpt><trkpt lat="56.1009172" lon="44.4817994"><time>2024-07-07T10:26:02.340</time></trkpt><trkpt lat="56.1009722" lon="44.4818188"><time>2024-07-07T10:26:07.340</time></trkpt><trkpt lat="56.1010214" lon="44.4818487"><time>2024-07-07T10:26:11.327</time></trkpt><trkpt lat="56.1010652" lon="44.4818904"><time>2024-07-07T10:26:15.337</time></trkpt><trkpt lat="56.1011143" lon="44.4819224"><time>2024-07-07T10:26:19.347</time></trkpt><trkpt lat="56.1011656" lon="44.4819635"><time>2024-07-07T10:26:23.340</time></trkpt><trkpt lat="56.1012074" lon="44.4820029"><time>2024-07-07T10:26:26.263</time></trkpt><trkpt lat="56.1012625" lon="44.4820241"><time>2024-07-07T10:26:30.340</time></trkpt><trkpt lat="56.1013162" lon="44.4820383"><time>2024-07-07T10:26:34.333</time></trkpt><trkpt lat="56.1013665" lon="44.4820459"><time>2024-07-07T10:26:39.327</time></trkpt><trkpt lat="56.1014227" lon="44.4820443"><time>2024-07-07T10:26:44.337</time></trkpt><trkpt lat="56.1014792" lon="44.4820540"><time>2024-07-07T10:26:48.327</time></trkpt><trkpt lat="56.1015240" lon="44.4820765"><time>2024-07-07T10:26:51.330</time></trkpt><trkpt lat="56.1015791" lon="44.4820521"><time>2024-07-07T10:26:55.330</time></trkpt><trkpt lat="56.1016197" lon="44.4819948"><time>2024-07-07T10:26:59.260</time></trkpt><trkpt lat="56.1016567" lon="44.4819335"><time>2024-07-07T10:27:03.327</time></trkpt><trkpt lat="56.1016938" lon="44.4818576"><time>2024-07-07T10:27:07.327</time></trkpt><trkpt lat="56.1017405" lon="44.4818042"><time>2024-07-07T10:27:11.340</time></trkpt><trkpt lat="56.1017773" lon="44.4817410"><time>2024-07-07T10:27:15.327</time></trkpt><trkpt lat="56.1018134" lon="44.4816643"><time>2024-07-07T10:27:19.327</time></trkpt><trkpt lat="56.1018516" lon="44.4815920"><time>2024-07-07T10:27:23.337</time></trkpt><trkpt lat="56.1018956" lon="44.4815260"><time>2024-07-07T10:27:27.330</time></trkpt><trkpt lat="56.1019281" lon="44.4814428"><time>2024-07-07T10:27:31.330</time></trkpt><trkpt lat="56.1019598" lon="44.4813785"><time>2024-07-07T10:27:35.333</time></trkpt><trkpt lat="56.1019914" lon="44.4812971"><time>2024-07-07T10:27:40.253</time></trkpt><trkpt lat="56.1020174" lon="44.4812249"><time>2024-07-07T10:27:44.333</time></trkpt><trkpt lat="56.1020487" lon="44.4811623"><time>2024-07-07T10:27:47.260</time></trkpt><trkpt lat="56.1020749" lon="44.4810902"><time>2024-07-07T10:27:50.337</time></trkpt><trkpt lat="56.1020884" lon="44.4810033"><time>2024-07-07T10:27:54.337</time></trkpt><trkpt lat="56.1021048" lon="44.4809254"><time>2024-07-07T10:28:00.330</time></trkpt><trkpt lat="56.1020797" lon="44.4808361"><time>2024-07-07T10:28:05.333</time></trkpt><trkpt lat="56.1020704" lon="44.4807495"><time>2024-07-07T10:28:09.260</time></trkpt><trkpt lat="56.1020367" lon="44.4806659"><time>2024-07-07T10:28:14.333</time></trkpt><trkpt lat="56.1020264" lon="44.4807492"><time>2024-07-07T10:28:19.330</time></trkpt><trkpt lat="56.1020702" lon="44.4807277"><time>2024-07-07T10:28:52.330</time></trkpt><trkpt lat="56.1020482" lon="44.4806485"><time>2024-07-07T10:29:02.333</time></trkpt><trkpt lat="56.1020339" lon="44.4805677"><time>2024-07-07T10:29:06.337</time></trkpt><trkpt lat="56.1020381" lon="44.4804723"><time>2024-07-07T10:29:10.337</time></trkpt><trkpt lat="56.1020514" lon="44.4803844"><time>2024-07-07T10:29:14.263</time></trkpt><trkpt lat="56.1020677" lon="44.4803065"><time>2024-07-07T10:29:20.343</time></trkpt><trkpt lat="56.1020910" lon="44.4802124"><time>2024-07-07T10:29:23.347</time></trkpt><trkpt lat="56.1021218" lon="44.4801235"><time>2024-07-07T10:29:26.337</time></trkpt><trkpt lat="56.1021487" lon="44.4800393"><time>2024-07-07T10:29:29.340</time></trkpt><trkpt lat="56.1021679" lon="44.4799632"><time>2024-07-07T10:29:33.333</time></trkpt><trkpt lat="56.1022000" lon="44.4798763"><time>2024-07-07T10:29:39.333</time></trkpt><trkpt lat="56.1022424" lon="44.4797886"><time>2024-07-07T10:29:42.333</time></trkpt><trkpt lat="56.1022794" lon="44.4797060"><time>2024-07-07T10:29:45.330</time></trkpt><trkpt lat="56.1023187" lon="44.4796272"><time>2024-07-07T10:29:48.340</time></trkpt><trkpt lat="56.1023575" lon="44.4795634"><time>2024-07-07T10:29:51.333</time></trkpt><trkpt lat="56.1023879" lon="44.4795000"><time>2024-07-07T10:29:54.337</time></trkpt><trkpt lat="56.1024100" lon="44.4794277"><time>2024-07-07T10:29:57.353</time></trkpt><trkpt lat="56.1024291" lon="44.4793423"><time>2024-07-07T10:30:00.337</time></trkpt><trkpt lat="56.1024469" lon="44.4792566"><time>2024-07-07T10:30:03.337</time></trkpt><trkpt lat="56.1024664" lon="44.4791713"><time>2024-07-07T10:30:06.337</time></trkpt><trkpt lat="56.1024889" lon="44.4790913"><time>2024-07-07T10:30:09.337</time></trkpt><trkpt lat="56.1025177" lon="44.4789969"><time>2024-07-07T10:30:13.333</time></trkpt><trkpt lat="56.1025449" lon="44.4789012"><time>2024-07-07T10:30:17.327</time></trkpt><trkpt lat="56.1025601" lon="44.4788229"><time>2024-07-07T10:30:20.323</time></trkpt><trkpt lat="56.1025777" lon="44.4787470"><time>2024-07-07T10:30:23.333</time></trkpt><trkpt lat="56.1026032" lon="44.4786660"><time>2024-07-07T10:30:27.267</time></trkpt><trkpt lat="56.1026352" lon="44.4785802"><time>2024-07-07T10:30:31.333</time></trkpt><trkpt lat="56.1026600" lon="44.4784821"><time>2024-07-07T10:30:35.337</time></trkpt><trkpt lat="56.1026748" lon="44.4783801"><time>2024-07-07T10:30:39.333</time></trkpt><trkpt lat="56.1026852" lon="44.4782932"><time>2024-07-07T10:30:42.257</time></trkpt><trkpt lat="56.1027023" lon="44.4781905"><time>2024-07-07T10:30:46.330</time></trkpt><trkpt lat="56.1027173" lon="44.4780999"><time>2024-07-07T10:30:49.340</time></trkpt><trkpt lat="56.1027325" lon="44.4780157"><time>2024-07-07T10:30:52.337</time></trkpt><trkpt lat="56.1027497" lon="44.4779412"><time>2024-07-07T10:30:56.333</time></trkpt><trkpt lat="56.1027703" lon="44.4778626"><time>2024-07-07T10:30:59.333</time></trkpt><trkpt lat="56.1027899" lon="44.4777649"><time>2024-07-07T10:31:03.327</time></trkpt><trkpt lat="56.1028049" lon="44.4776796"><time>2024-07-07T10:31:06.333</time></trkpt><trkpt lat="56.1028150" lon="44.4775867"><time>2024-07-07T10:31:09.337</time></trkpt><trkpt lat="56.1028297" lon="44.4774907"><time>2024-07-07T10:31:12.417</time></trkpt><trkpt lat="56.1028424" lon="44.4774009"><time>2024-07-07T10:31:15.333</time></trkpt><trkpt lat="56.1028558" lon="44.4773148"><time>2024-07-07T10:31:18.337</time></trkpt><trkpt lat="56.1028819" lon="44.4772437"><time>2024-07-07T10:31:25.327</time></trkpt><trkpt lat="56.1029002" lon="44.4771320"><time>2024-07-07T10:31:28.327</time></trkpt><trkpt lat="56.1029158" lon="44.4770267"><time>2024-07-07T10:31:31.327</time></trkpt><trkpt lat="56.1029324" lon="44.4769255"><time>2024-07-07T10:31:34.330</time></trkpt><trkpt lat="56.1029497" lon="44.4768320"><time>2024-07-07T10:31:38.337</time></trkpt><trkpt lat="56.1029712" lon="44.4767547"><time>2024-07-07T10:31:41.330</time></trkpt><trkpt lat="56.1029900" lon="44.4766688"><time>2024-07-07T10:31:44.327</time></trkpt><trkpt lat="56.1030077" lon="44.4765827"><time>2024-07-07T10:31:47.327</time></trkpt><trkpt lat="56.1030281" lon="44.4765074"><time>2024-07-07T10:31:51.333</time></trkpt><trkpt lat="56.1030413" lon="44.4764290"><time>2024-07-07T10:31:55.337</time></trkpt><trkpt lat="56.1030611" lon="44.4763157"><time>2024-07-07T10:31:58.337</time></trkpt><trkpt lat="56.1030771" lon="44.4762171"><time>2024-07-07T10:32:01.333</time></trkpt><trkpt lat="56.1030915" lon="44.4761249"><time>2024-07-07T10:32:04.333</time></trkpt><trkpt lat="56.1031113" lon="44.4760462"><time>2024-07-07T10:32:08.337</time></trkpt><trkpt lat="56.1031389" lon="44.4759682"><time>2024-07-07T10:32:12.330</time></trkpt><trkpt lat="56.1031791" lon="44.4758649"><time>2024-07-07T10:32:18.923</time></trkpt><trkpt lat="56.1032131" lon="44.4757780"><time>2024-07-07T10:32:22.337</time></trkpt><trkpt lat="56.1032482" lon="44.4757094"><time>2024-07-07T10:32:26.263</time></trkpt><trkpt lat="56.1032895" lon="44.4756502"><time>2024-07-07T10:32:31.330</time></trkpt><trkpt lat="56.1033429" lon="44.4756204"><time>2024-07-07T10:32:36.330</time></trkpt><trkpt lat="56.1033892" lon="44.4756077"><time>2024-07-07T10:32:40.340</time></trkpt><trkpt lat="56.1034370" lon="44.4755943"><time>2024-07-07T10:32:44.333</time></trkpt><trkpt lat="56.1034898" lon="44.4755839"><time>2024-07-07T10:32:48.337</time></trkpt><trkpt lat="56.1035417" lon="44.4755774"><time>2024-07-07T10:32:52.337</time></trkpt><trkpt lat="56.1035870" lon="44.4755714"><time>2024-07-07T10:32:55.340</time></trkpt><trkpt lat="56.1036374" lon="44.4755665"><time>2024-07-07T10:32:58.337</time></trkpt><trkpt lat="56.1036834" lon="44.4755583"><time>2024-07-07T10:33:01.330</time></trkpt><trkpt lat="56.1037434" lon="44.4755499"><time>2024-07-07T10:33:05.337</time></trkpt><trkpt lat="56.1037998" lon="44.4755574"><time>2024-07-07T10:33:09.333</time></trkpt><trkpt lat="56.1038513" lon="44.4755448"><time>2024-07-07T10:33:17.340</time></trkpt><trkpt lat="56.1039129" lon="44.4755500"><time>2024-07-07T10:33:20.333</time></trkpt><trkpt lat="56.1039684" lon="44.4755607"><time>2024-07-07T10:33:23.337</time></trkpt><trkpt lat="56.1040204" lon="44.4755589"><time>2024-07-07T10:33:26.340</time></trkpt><trkpt lat="56.1040747" lon="44.4755481"><time>2024-07-07T10:33:29.330</time></trkpt><trkpt lat="56.1041305" lon="44.4755446"><time>2024-07-07T10:33:36.327</time></trkpt><trkpt lat="56.1041740" lon="44.4755231"><time>2024-07-07T10:33:39.330</time></trkpt><trkpt lat="56.1042182" lon="44.4754871"><time>2024-07-07T10:33:42.337</time></trkpt><trkpt lat="56.1042651" lon="44.4754438"><time>2024-07-07T10:33:46.333</time></trkpt><trkpt lat="56.1043061" lon="44.4753967"><time>2024-07-07T10:33:52.330</time></trkpt><trkpt lat="56.1043538" lon="44.4754096"><time>2024-07-07T10:34:12.257</time></trkpt><trkpt lat="56.1044060" lon="44.4754048"><time>2024-07-07T10:34:22.327</time></trkpt><trkpt lat="56.1044249" lon="44.4753310"><time>2024-07-07T10:34:30.323</time></trkpt><trkpt lat="56.1044506" lon="44.4752560"><time>2024-07-07T10:35:28.333</time></trkpt><trkpt lat="56.1045070" lon="44.4752178"><time>2024-07-07T10:35:31.333</time></trkpt><trkpt lat="56.1045658" lon="44.4751659"><time>2024-07-07T10:35:34.337</time></trkpt><trkpt lat="56.1046157" lon="44.4751151"><time>2024-07-07T10:35:37.333</time></trkpt><trkpt lat="56.1046672" lon="44.4750664"><time>2024-07-07T10:35:40.337</time></trkpt><trkpt lat="56.1047071" lon="44.4750198"><time>2024-07-07T10:35:43.337</time></trkpt><trkpt lat="56.1047486" lon="44.4749814"><time>2024-07-07T10:35:46.333</time></trkpt><trkpt lat="56.1048030" lon="44.4749474"><time>2024-07-07T10:35:50.337</time></trkpt><trkpt lat="56.1048549" lon="44.4749370"><time>2024-07-07T10:35:54.330</time></trkpt><trkpt lat="56.1049121" lon="44.4749422"><time>2024-07-07T10:35:58.333</time></trkpt><trkpt lat="56.1049611" lon="44.4749511"><time>2024-07-07T10:36:01.330</time></trkpt><trkpt lat="56.1050128" lon="44.4749538"><time>2024-07-07T10:36:04.337</time></trkpt><trkpt lat="56.1050657" lon="44.4749627"><time>2024-07-07T10:36:07.333</time></trkpt><trkpt lat="56.1051178" lon="44.4749674"><time>2024-07-07T10:36:10.337</time></trkpt><trkpt lat="56.1051640" lon="44.4749697"><time>2024-07-07T10:36:13.337</time></trkpt><trkpt lat="56.1052092" lon="44.4749756"><time>2024-07-07T10:36:16.337</time></trkpt><trkpt lat="56.1052642" lon="44.4749795"><time>2024-07-07T10:36:19.327</time></trkpt><trkpt lat="56.1053184" lon="44.4750053"><time>2024-07-07T10:36:23.327</time></trkpt><trkpt lat="56.1053605" lon="44.4750419"><time>2024-07-07T10:36:26.337</time></trkpt><trkpt lat="56.1054046" lon="44.4750800"><time>2024-07-07T10:36:29.327</time></trkpt><trkpt lat="56.1054433" lon="44.4751344"><time>2024-07-07T10:36:32.330</time></trkpt><trkpt lat="56.1054761" lon="44.4752064"><time>2024-07-07T10:36:36.330</time></trkpt><trkpt lat="56.1055060" lon="44.4752679"><time>2024-07-07T10:36:40.323</time></trkpt><trkpt lat="56.1055439" lon="44.4753411"><time>2024-07-07T10:36:45.333</time></trkpt><trkpt lat="56.1055866" lon="44.4754115"><time>2024-07-07T10:36:49.333</time></trkpt><trkpt lat="56.1056222" lon="44.4754870"><time>2024-07-07T10:36:53.337</time></trkpt><trkpt lat="56.1056521" lon="44.4755567"><time>2024-07-07T10:36:57.333</time></trkpt><trkpt lat="56.1056909" lon="44.4756098"><time>2024-07-07T10:37:01.330</time></trkpt><trkpt lat="56.1057399" lon="44.4756461"><time>2024-07-07T10:37:05.330</time></trkpt><trkpt lat="56.1057851" lon="44.4756566"><time>2024-07-07T10:37:09.330</time></trkpt><trkpt lat="56.1058292" lon="44.4756382"><time>2024-07-07T10:37:13.337</time></trkpt><trkpt lat="56.1058823" lon="44.4756387"><time>2024-07-07T10:37:18.330</time></trkpt><trkpt lat="56.1059287" lon="44.4756575"><time>2024-07-07T10:37:23.330</time></trkpt><trkpt lat="56.1059720" lon="44.4756869"><time>2024-07-07T10:37:28.337</time></trkpt><trkpt lat="56.1060168" lon="44.4757187"><time>2024-07-07T10:37:32.340</time></trkpt><trkpt lat="56.1060648" lon="44.4757525"><time>2024-07-07T10:37:36.337</time></trkpt><trkpt lat="56.1061154" lon="44.4757821"><time>2024-07-07T10:37:40.330</time></trkpt><trkpt lat="56.1061724" lon="44.4758053"><time>2024-07-07T10:37:44.337</time></trkpt><trkpt lat="56.1062234" lon="44.4758213"><time>2024-07-07T10:37:47.347</time></trkpt><trkpt lat="56.1062794" lon="44.4758463"><time>2024-07-07T10:37:51.327</time></trkpt><trkpt lat="56.1063325" lon="44.4758870"><time>2024-07-07T10:37:55.327</time></trkpt><trkpt lat="56.1063821" lon="44.4759208"><time>2024-07-07T10:37:59.330</time></trkpt><trkpt lat="56.1064390" lon="44.4759623"><time>2024-07-07T10:38:03.330</time></trkpt><trkpt lat="56.1064812" lon="44.4759900"><time>2024-07-07T10:38:06.337</time></trkpt><trkpt lat="56.1065303" lon="44.4760367"><time>2024-07-07T10:38:10.327</time></trkpt><trkpt lat="56.1065747" lon="44.4760923"><time>2024-07-07T10:38:14.333</time></trkpt><trkpt lat="56.1066215" lon="44.4761227"><time>2024-07-07T10:38:18.337</time></trkpt><trkpt lat="56.1066682" lon="44.4761565"><time>2024-07-07T10:38:23.337</time></trkpt><trkpt lat="56.1067135" lon="44.4761758"><time>2024-07-07T10:38:27.337</time></trkpt><trkpt lat="56.1067598" lon="44.4762141"><time>2024-07-07T10:38:31.330</time></trkpt><trkpt lat="56.1068089" lon="44.4762431"><time>2024-07-07T10:38:35.340</time></trkpt><trkpt lat="56.1068642" lon="44.4762688"><time>2024-07-07T10:38:39.273</time></trkpt><trkpt lat="56.1069099" lon="44.4763009"><time>2024-07-07T10:38:44.327</time></trkpt><trkpt lat="56.1069619" lon="44.4763319"><time>2024-07-07T10:38:48.357</time></trkpt><trkpt lat="56.1069764" lon="44.4763473"><time>2024-07-07T10:38:49.467</time></trkpt><trkpt lat="56.1070254" lon="44.4763827"><time>2024-07-07T10:38:53.337</time></trkpt><trkpt lat="56.1070788" lon="44.4764042"><time>2024-07-07T10:38:56.337</time></trkpt><trkpt lat="56.1071315" lon="44.4764395"><time>2024-07-07T10:39:00.337</time></trkpt><trkpt lat="56.1071842" lon="44.4764730"><time>2024-07-07T10:39:04.337</time></trkpt><trkpt lat="56.1072286" lon="44.4765104"><time>2024-07-07T10:39:08.273</time></trkpt><trkpt lat="56.1072800" lon="44.4765618"><time>2024-07-07T10:39:12.337</time></trkpt><trkpt lat="56.1073353" lon="44.4766001"><time>2024-07-07T10:39:16.337</time></trkpt><trkpt lat="56.1073868" lon="44.4766474"><time>2024-07-07T10:39:20.340</time></trkpt><trkpt lat="56.1074367" lon="44.4766911"><time>2024-07-07T10:39:24.327</time></trkpt><trkpt lat="56.1074798" lon="44.4767230"><time>2024-07-07T10:39:27.327</time></trkpt><trkpt lat="56.1075206" lon="44.4767701"><time>2024-07-07T10:39:31.350</time></trkpt><trkpt lat="56.1075662" lon="44.4768314"><time>2024-07-07T10:39:35.340</time></trkpt><trkpt lat="56.1076017" lon="44.4768839"><time>2024-07-07T10:39:39.347</time></trkpt><trkpt lat="56.1076459" lon="44.4769210"><time>2024-07-07T10:39:43.343</time></trkpt><trkpt lat="56.1076915" lon="44.4769649"><time>2024-07-07T10:39:47.330</time></trkpt><trkpt lat="56.1077454" lon="44.4770036"><time>2024-07-07T10:39:51.347</time></trkpt><trkpt lat="56.1077923" lon="44.4770444"><time>2024-07-07T10:39:55.363</time></trkpt><trkpt lat="56.1078056" lon="44.4770550"><time>2024-07-07T10:39:56.980</time></trkpt><trkpt lat="56.1078613" lon="44.4770769"><time>2024-07-07T10:40:00.330</time></trkpt><trkpt lat="56.1079123" lon="44.4771112"><time>2024-07-07T10:40:04.333</time></trkpt><trkpt lat="56.1079527" lon="44.4771592"><time>2024-07-07T10:40:08.347</time></trkpt><trkpt lat="56.1079950" lon="44.4772049"><time>2024-07-07T10:40:12.343</time></trkpt><trkpt lat="56.1080379" lon="44.4772539"><time>2024-07-07T10:40:16.267</time></trkpt><trkpt lat="56.1080880" lon="44.4773154"><time>2024-07-07T10:40:20.333</time></trkpt><trkpt lat="56.1081240" lon="44.4773841"><time>2024-07-07T10:40:24.340</time></trkpt><trkpt lat="56.1081611" lon="44.4774489"><time>2024-07-07T10:40:28.343</time></trkpt><trkpt lat="56.1082029" lon="44.4774932"><time>2024-07-07T10:40:32.337</time></trkpt><trkpt lat="56.1082466" lon="44.4775275"><time>2024-07-07T10:40:35.360</time></trkpt><trkpt lat="56.1082694" lon="44.4775332"><time>2024-07-07T10:40:36.483</time></trkpt><trkpt lat="56.1083074" lon="44.4775843"><time>2024-07-07T10:40:39.330</time></trkpt><trkpt lat="56.1083467" lon="44.4776378"><time>2024-07-07T10:40:43.327</time></trkpt><trkpt lat="56.1083910" lon="44.4776964"><time>2024-07-07T10:40:48.337</time></trkpt><trkpt lat="56.1084328" lon="44.4777711"><time>2024-07-07T10:40:52.337</time></trkpt><trkpt lat="56.1084601" lon="44.4778406"><time>2024-07-07T10:40:56.337</time></trkpt><trkpt lat="56.1084372" lon="44.4779251"><time>2024-07-07T10:41:20.340</time></trkpt><trkpt lat="56.1084182" lon="44.4780178"><time>2024-07-07T10:41:24.267</time></trkpt><trkpt lat="56.1083964" lon="44.4781014"><time>2024-07-07T10:41:28.337</time></trkpt><trkpt lat="56.1083654" lon="44.4781739"><time>2024-07-07T10:41:32.333</time></trkpt></trkseg></trk></gpx>